<?xml version="1.0" encoding="UTF-8" standalone="no" ?>
<gpx xmlns="http://www.topografix.com/GPX/1/1" xmlns:xsi="http://www.w3.org/2001/XMLSchema-instance" xsi:schemaLocation="http://www.topografix.com/GPX/1/1 http://www.topografix.com/GPX/1/1/gpx.xsd" version="1.1" creator="VisuGPX - https://www.visugpx.com">
  <metadata>
    <name>2012_04_08: Route mont Caume et Coudon</name>
    <desc><![CDATA[Pas grosse motivation pour cette sortie: fatigue de la semaine, jambes lourdes...
Grand Caunet, le Camp, le Brûlat, le Beausset.
Sainte-Anne d\'Evenos, col du Corps de Garde, mont Caume.
Toulon, le Revest, le Coudon, Toulon.
Col du Corps de Garde, Sainte-Anne, le Beausset, le Brûlat, le Camp (montée dur-dur pour les jambes!).
Grand Caunet et content d\'arriver!]]></desc>
  </metadata>
  <trk>
    <name><![CDATA[2012-04-14 09:44]]></name>
    <trkseg>
      <trkpt lat="43.19293" lon="5.63438">
        <ele>38</ele>
        <time>2012-04-14T07:38:44Z</time>
      </trkpt>
      <trkpt lat="43.19289" lon="5.63442">
        <ele>38</ele>
        <time>2012-04-14T07:39:38Z</time>
      </trkpt>
      <trkpt lat="43.19299" lon="5.63438">
        <ele>38</ele>
        <time>2012-04-14T07:40:38Z</time>
      </trkpt>
      <trkpt lat="43.19298" lon="5.63423">
        <ele>38</ele>
        <time>2012-04-14T07:40:42Z</time>
      </trkpt>
      <trkpt lat="43.19277" lon="5.6341">
        <ele>36</ele>
        <time>2012-04-14T07:40:47Z</time>
      </trkpt>
      <trkpt lat="43.1928" lon="5.63404">
        <ele>35</ele>
        <time>2012-04-14T07:40:48Z</time>
      </trkpt>
      <trkpt lat="43.19251" lon="5.6341">
        <ele>37</ele>
        <time>2012-04-14T07:40:59Z</time>
      </trkpt>
      <trkpt lat="43.19231" lon="5.63392">
        <ele>34</ele>
        <time>2012-04-14T07:41:07Z</time>
      </trkpt>
      <trkpt lat="43.19211" lon="5.63322">
        <ele>30</ele>
        <time>2012-04-14T07:41:13Z</time>
      </trkpt>
      <trkpt lat="43.19193" lon="5.63315">
        <ele>30</ele>
        <time>2012-04-14T07:41:15Z</time>
      </trkpt>
      <trkpt lat="43.19169" lon="5.63254">
        <ele>30</ele>
        <time>2012-04-14T07:41:21Z</time>
      </trkpt>
      <trkpt lat="43.19151" lon="5.63237">
        <ele>28</ele>
        <time>2012-04-14T07:41:24Z</time>
      </trkpt>
      <trkpt lat="43.19136" lon="5.63163">
        <ele>19</ele>
        <time>2012-04-14T07:41:29Z</time>
      </trkpt>
      <trkpt lat="43.1912" lon="5.6315">
        <ele>18</ele>
        <time>2012-04-14T07:41:31Z</time>
      </trkpt>
      <trkpt lat="43.18988" lon="5.63163">
        <ele>12</ele>
        <time>2012-04-14T07:41:41Z</time>
      </trkpt>
      <trkpt lat="43.1887" lon="5.63152">
        <ele>6</ele>
        <time>2012-04-14T07:41:52Z</time>
      </trkpt>
      <trkpt lat="43.18854" lon="5.63171">
        <ele>6</ele>
        <time>2012-04-14T07:41:53Z</time>
      </trkpt>
      <trkpt lat="43.18849" lon="5.63157">
        <ele>5</ele>
        <time>2012-04-14T07:41:57Z</time>
      </trkpt>
      <trkpt lat="43.18906" lon="5.62981">
        <ele>9</ele>
        <time>2012-04-14T07:42:20Z</time>
      </trkpt>
      <trkpt lat="43.18907" lon="5.62878">
        <ele>9</ele>
        <time>2012-04-14T07:42:32Z</time>
      </trkpt>
      <trkpt lat="43.18887" lon="5.62824">
        <ele>8</ele>
        <time>2012-04-14T07:42:41Z</time>
      </trkpt>
      <trkpt lat="43.18899" lon="5.62811">
        <ele>9</ele>
        <time>2012-04-14T07:42:44Z</time>
      </trkpt>
      <trkpt lat="43.1892" lon="5.62822">
        <ele>9</ele>
        <time>2012-04-14T07:42:48Z</time>
      </trkpt>
      <trkpt lat="43.18953" lon="5.62872">
        <ele>9</ele>
        <time>2012-04-14T07:42:57Z</time>
      </trkpt>
      <trkpt lat="43.18979" lon="5.62871">
        <ele>10</ele>
        <time>2012-04-14T07:43:01Z</time>
      </trkpt>
      <trkpt lat="43.19026" lon="5.6284">
        <ele>11</ele>
        <time>2012-04-14T07:43:09Z</time>
      </trkpt>
      <trkpt lat="43.19064" lon="5.62828">
        <ele>12</ele>
        <time>2012-04-14T07:43:16Z</time>
      </trkpt>
      <trkpt lat="43.19138" lon="5.62781">
        <ele>15</ele>
        <time>2012-04-14T07:43:31Z</time>
      </trkpt>
      <trkpt lat="43.19203" lon="5.6279">
        <ele>16</ele>
        <time>2012-04-14T07:43:44Z</time>
      </trkpt>
      <trkpt lat="43.19294" lon="5.62784">
        <ele>19</ele>
        <time>2012-04-14T07:44:01Z</time>
      </trkpt>
      <trkpt lat="43.195" lon="5.62864">
        <ele>23</ele>
        <time>2012-04-14T07:44:38Z</time>
      </trkpt>
      <trkpt lat="43.19525" lon="5.62862">
        <ele>23</ele>
        <time>2012-04-14T07:44:42Z</time>
      </trkpt>
      <trkpt lat="43.19578" lon="5.62835">
        <ele>25</ele>
        <time>2012-04-14T07:44:51Z</time>
      </trkpt>
      <trkpt lat="43.1961" lon="5.62782">
        <ele>31</ele>
        <time>2012-04-14T07:44:59Z</time>
      </trkpt>
      <trkpt lat="43.19659" lon="5.62746">
        <ele>34</ele>
        <time>2012-04-14T07:45:08Z</time>
      </trkpt>
      <trkpt lat="43.19704" lon="5.6276">
        <ele>29</ele>
        <time>2012-04-14T07:45:16Z</time>
      </trkpt>
      <trkpt lat="43.19721" lon="5.62752">
        <ele>28</ele>
        <time>2012-04-14T07:45:19Z</time>
      </trkpt>
      <trkpt lat="43.19792" lon="5.62677">
        <ele>29</ele>
        <time>2012-04-14T07:45:38Z</time>
      </trkpt>
      <trkpt lat="43.19855" lon="5.62651">
        <ele>30</ele>
        <time>2012-04-14T07:45:52Z</time>
      </trkpt>
      <trkpt lat="43.19938" lon="5.6265">
        <ele>33</ele>
        <time>2012-04-14T07:46:13Z</time>
      </trkpt>
      <trkpt lat="43.19982" lon="5.62661">
        <ele>34</ele>
        <time>2012-04-14T07:46:23Z</time>
      </trkpt>
      <trkpt lat="43.20229" lon="5.62625">
        <ele>42</ele>
        <time>2012-04-14T07:47:14Z</time>
      </trkpt>
      <trkpt lat="43.20334" lon="5.62585">
        <ele>47</ele>
        <time>2012-04-14T07:47:35Z</time>
      </trkpt>
      <trkpt lat="43.20361" lon="5.62618">
        <ele>49</ele>
        <time>2012-04-14T07:47:41Z</time>
      </trkpt>
      <trkpt lat="43.20408" lon="5.62648">
        <ele>49</ele>
        <time>2012-04-14T07:47:49Z</time>
      </trkpt>
      <trkpt lat="43.20534" lon="5.62682">
        <ele>47</ele>
        <time>2012-04-14T07:48:05Z</time>
      </trkpt>
      <trkpt lat="43.20677" lon="5.62752">
        <ele>55</ele>
        <time>2012-04-14T07:48:30Z</time>
      </trkpt>
      <trkpt lat="43.20818" lon="5.62771">
        <ele>59</ele>
        <time>2012-04-14T07:48:56Z</time>
      </trkpt>
      <trkpt lat="43.20856" lon="5.62786">
        <ele>63</ele>
        <time>2012-04-14T07:49:03Z</time>
      </trkpt>
      <trkpt lat="43.20937" lon="5.62843">
        <ele>67</ele>
        <time>2012-04-14T07:49:19Z</time>
      </trkpt>
      <trkpt lat="43.20937" lon="5.62854">
        <ele>67</ele>
        <time>2012-04-14T07:49:20Z</time>
      </trkpt>
      <trkpt lat="43.20994" lon="5.6288">
        <ele>67</ele>
        <time>2012-04-14T07:49:31Z</time>
      </trkpt>
      <trkpt lat="43.21126" lon="5.62892">
        <ele>71</ele>
        <time>2012-04-14T07:49:54Z</time>
      </trkpt>
      <trkpt lat="43.21305" lon="5.62974">
        <ele>75</ele>
        <time>2012-04-14T07:50:24Z</time>
      </trkpt>
      <trkpt lat="43.21475" lon="5.63225">
        <ele>84</ele>
        <time>2012-04-14T07:51:13Z</time>
      </trkpt>
      <trkpt lat="43.2157" lon="5.63291">
        <ele>92</ele>
        <time>2012-04-14T07:51:39Z</time>
      </trkpt>
      <trkpt lat="43.21666" lon="5.6344">
        <ele>105</ele>
        <time>2012-04-14T07:52:15Z</time>
      </trkpt>
      <trkpt lat="43.21683" lon="5.63488">
        <ele>108</ele>
        <time>2012-04-14T07:52:25Z</time>
      </trkpt>
      <trkpt lat="43.21698" lon="5.63498">
        <ele>108</ele>
        <time>2012-04-14T07:52:29Z</time>
      </trkpt>
      <trkpt lat="43.21764" lon="5.63499">
        <ele>109</ele>
        <time>2012-04-14T07:52:47Z</time>
      </trkpt>
      <trkpt lat="43.21811" lon="5.63548">
        <ele>115</ele>
        <time>2012-04-14T07:53:03Z</time>
      </trkpt>
      <trkpt lat="43.21821" lon="5.63576">
        <ele>118</ele>
        <time>2012-04-14T07:53:09Z</time>
      </trkpt>
      <trkpt lat="43.21826" lon="5.63693">
        <ele>129</ele>
        <time>2012-04-14T07:53:30Z</time>
      </trkpt>
      <trkpt lat="43.21796" lon="5.6382">
        <ele>136</ele>
        <time>2012-04-14T07:53:54Z</time>
      </trkpt>
      <trkpt lat="43.21801" lon="5.63848">
        <ele>140</ele>
        <time>2012-04-14T07:54:00Z</time>
      </trkpt>
      <trkpt lat="43.21852" lon="5.63918">
        <ele>145</ele>
        <time>2012-04-14T07:54:18Z</time>
      </trkpt>
      <trkpt lat="43.21854" lon="5.63944">
        <ele>147</ele>
        <time>2012-04-14T07:54:22Z</time>
      </trkpt>
      <trkpt lat="43.21872" lon="5.63984">
        <ele>149</ele>
        <time>2012-04-14T07:54:31Z</time>
      </trkpt>
      <trkpt lat="43.21945" lon="5.64035">
        <ele>156</ele>
        <time>2012-04-14T07:54:53Z</time>
      </trkpt>
      <trkpt lat="43.21963" lon="5.64101">
        <ele>162</ele>
        <time>2012-04-14T07:55:06Z</time>
      </trkpt>
      <trkpt lat="43.21992" lon="5.64165">
        <ele>164</ele>
        <time>2012-04-14T07:55:20Z</time>
      </trkpt>
      <trkpt lat="43.22062" lon="5.64268">
        <ele>173</ele>
        <time>2012-04-14T07:55:46Z</time>
      </trkpt>
      <trkpt lat="43.22065" lon="5.64358">
        <ele>180</ele>
        <time>2012-04-14T07:56:04Z</time>
      </trkpt>
      <trkpt lat="43.22079" lon="5.64416">
        <ele>182</ele>
        <time>2012-04-14T07:56:16Z</time>
      </trkpt>
      <trkpt lat="43.22147" lon="5.64532">
        <ele>192</ele>
        <time>2012-04-14T07:56:44Z</time>
      </trkpt>
      <trkpt lat="43.22185" lon="5.64633">
        <ele>195</ele>
        <time>2012-04-14T07:57:08Z</time>
      </trkpt>
      <trkpt lat="43.22205" lon="5.64736">
        <ele>204</ele>
        <time>2012-04-14T07:57:30Z</time>
      </trkpt>
      <trkpt lat="43.22236" lon="5.64814">
        <ele>212</ele>
        <time>2012-04-14T07:57:48Z</time>
      </trkpt>
      <trkpt lat="43.22248" lon="5.6482">
        <ele>212</ele>
        <time>2012-04-14T07:57:51Z</time>
      </trkpt>
      <trkpt lat="43.22285" lon="5.64891">
        <ele>216</ele>
        <time>2012-04-14T07:58:10Z</time>
      </trkpt>
      <trkpt lat="43.22486" lon="5.64989">
        <ele>223</ele>
        <time>2012-04-14T07:58:50Z</time>
      </trkpt>
      <trkpt lat="43.22507" lon="5.64973">
        <ele>226</ele>
        <time>2012-04-14T07:58:53Z</time>
      </trkpt>
      <trkpt lat="43.22523" lon="5.64925">
        <ele>225</ele>
        <time>2012-04-14T07:58:58Z</time>
      </trkpt>
      <trkpt lat="43.22525" lon="5.64824">
        <ele>216</ele>
        <time>2012-04-14T07:59:07Z</time>
      </trkpt>
      <trkpt lat="43.22557" lon="5.64826">
        <ele>217</ele>
        <time>2012-04-14T07:59:11Z</time>
      </trkpt>
      <trkpt lat="43.22594" lon="5.64863">
        <ele>226</ele>
        <time>2012-04-14T07:59:17Z</time>
      </trkpt>
      <trkpt lat="43.22622" lon="5.64849">
        <ele>227</ele>
        <time>2012-04-14T07:59:20Z</time>
      </trkpt>
      <trkpt lat="43.22643" lon="5.64793">
        <ele>221</ele>
        <time>2012-04-14T07:59:28Z</time>
      </trkpt>
      <trkpt lat="43.22665" lon="5.64789">
        <ele>221</ele>
        <time>2012-04-14T07:59:34Z</time>
      </trkpt>
      <trkpt lat="43.22718" lon="5.6483">
        <ele>232</ele>
        <time>2012-04-14T07:59:52Z</time>
      </trkpt>
      <trkpt lat="43.22766" lon="5.64902">
        <ele>245</ele>
        <time>2012-04-14T08:00:12Z</time>
      </trkpt>
      <trkpt lat="43.22783" lon="5.64904">
        <ele>247</ele>
        <time>2012-04-14T08:00:16Z</time>
      </trkpt>
      <trkpt lat="43.2279" lon="5.64889">
        <ele>247</ele>
        <time>2012-04-14T08:00:20Z</time>
      </trkpt>
      <trkpt lat="43.22788" lon="5.64816">
        <ele>243</ele>
        <time>2012-04-14T08:00:31Z</time>
      </trkpt>
      <trkpt lat="43.22763" lon="5.64729">
        <ele>239</ele>
        <time>2012-04-14T08:00:47Z</time>
      </trkpt>
      <trkpt lat="43.22774" lon="5.64723">
        <ele>240</ele>
        <time>2012-04-14T08:00:53Z</time>
      </trkpt>
      <trkpt lat="43.22846" lon="5.64965">
        <ele>259</ele>
        <time>2012-04-14T08:01:42Z</time>
      </trkpt>
      <trkpt lat="43.22939" lon="5.65132">
        <ele>278</ele>
        <time>2012-04-14T08:02:24Z</time>
      </trkpt>
      <trkpt lat="43.2298" lon="5.65299">
        <ele>291</ele>
        <time>2012-04-14T08:03:00Z</time>
      </trkpt>
      <trkpt lat="43.22979" lon="5.65357">
        <ele>294</ele>
        <time>2012-04-14T08:03:12Z</time>
      </trkpt>
      <trkpt lat="43.2301" lon="5.65361">
        <ele>298</ele>
        <time>2012-04-14T08:03:21Z</time>
      </trkpt>
      <trkpt lat="43.23016" lon="5.65298">
        <ele>296</ele>
        <time>2012-04-14T08:03:34Z</time>
      </trkpt>
      <trkpt lat="43.23053" lon="5.65299">
        <ele>297</ele>
        <time>2012-04-14T08:03:47Z</time>
      </trkpt>
      <trkpt lat="43.23034" lon="5.65449">
        <ele>304</ele>
        <time>2012-04-14T08:04:15Z</time>
      </trkpt>
      <trkpt lat="43.23041" lon="5.65594">
        <ele>315</ele>
        <time>2012-04-14T08:04:42Z</time>
      </trkpt>
      <trkpt lat="43.2305" lon="5.65634">
        <ele>317</ele>
        <time>2012-04-14T08:04:48Z</time>
      </trkpt>
      <trkpt lat="43.23048" lon="5.6568">
        <ele>320</ele>
        <time>2012-04-14T08:04:57Z</time>
      </trkpt>
      <trkpt lat="43.23029" lon="5.65715">
        <ele>320</ele>
        <time>2012-04-14T08:05:05Z</time>
      </trkpt>
      <trkpt lat="43.23015" lon="5.65779">
        <ele>322</ele>
        <time>2012-04-14T08:05:16Z</time>
      </trkpt>
      <trkpt lat="43.22999" lon="5.65803">
        <ele>318</ele>
        <time>2012-04-14T08:05:22Z</time>
      </trkpt>
      <trkpt lat="43.22996" lon="5.6584">
        <ele>322</ele>
        <time>2012-04-14T08:05:28Z</time>
      </trkpt>
      <trkpt lat="43.23015" lon="5.65851">
        <ele>326</ele>
        <time>2012-04-14T08:05:33Z</time>
      </trkpt>
      <trkpt lat="43.23054" lon="5.65835">
        <ele>330</ele>
        <time>2012-04-14T08:05:45Z</time>
      </trkpt>
      <trkpt lat="43.2308" lon="5.65863">
        <ele>331</ele>
        <time>2012-04-14T08:05:53Z</time>
      </trkpt>
      <trkpt lat="43.23102" lon="5.65847">
        <ele>338</ele>
        <time>2012-04-14T08:05:59Z</time>
      </trkpt>
      <trkpt lat="43.23109" lon="5.65727">
        <ele>329</ele>
        <time>2012-04-14T08:06:22Z</time>
      </trkpt>
      <trkpt lat="43.23122" lon="5.65713">
        <ele>329</ele>
        <time>2012-04-14T08:06:26Z</time>
      </trkpt>
      <trkpt lat="43.23156" lon="5.65711">
        <ele>330</ele>
        <time>2012-04-14T08:06:34Z</time>
      </trkpt>
      <trkpt lat="43.23176" lon="5.65737">
        <ele>335</ele>
        <time>2012-04-14T08:06:41Z</time>
      </trkpt>
      <trkpt lat="43.23206" lon="5.65846">
        <ele>346</ele>
        <time>2012-04-14T08:07:01Z</time>
      </trkpt>
      <trkpt lat="43.23208" lon="5.6588">
        <ele>347</ele>
        <time>2012-04-14T08:07:07Z</time>
      </trkpt>
      <trkpt lat="43.23167" lon="5.65964">
        <ele>350</ele>
        <time>2012-04-14T08:07:24Z</time>
      </trkpt>
      <trkpt lat="43.23177" lon="5.66012">
        <ele>352</ele>
        <time>2012-04-14T08:07:31Z</time>
      </trkpt>
      <trkpt lat="43.23217" lon="5.66055">
        <ele>354</ele>
        <time>2012-04-14T08:07:42Z</time>
      </trkpt>
      <trkpt lat="43.23266" lon="5.66175">
        <ele>362</ele>
        <time>2012-04-14T08:08:05Z</time>
      </trkpt>
      <trkpt lat="43.23271" lon="5.66245">
        <ele>365</ele>
        <time>2012-04-14T08:08:17Z</time>
      </trkpt>
      <trkpt lat="43.23325" lon="5.66266">
        <ele>367</ele>
        <time>2012-04-14T08:08:29Z</time>
      </trkpt>
      <trkpt lat="43.23342" lon="5.66298">
        <ele>371</ele>
        <time>2012-04-14T08:08:36Z</time>
      </trkpt>
      <trkpt lat="43.23361" lon="5.66379">
        <ele>376</ele>
        <time>2012-04-14T08:08:51Z</time>
      </trkpt>
      <trkpt lat="43.23348" lon="5.66452">
        <ele>381</ele>
        <time>2012-04-14T08:09:03Z</time>
      </trkpt>
      <trkpt lat="43.2335" lon="5.66566">
        <ele>385</ele>
        <time>2012-04-14T08:09:17Z</time>
      </trkpt>
      <trkpt lat="43.23396" lon="5.66638">
        <ele>386</ele>
        <time>2012-04-14T08:09:29Z</time>
      </trkpt>
      <trkpt lat="43.23402" lon="5.66677">
        <ele>388</ele>
        <time>2012-04-14T08:09:35Z</time>
      </trkpt>
      <trkpt lat="43.23397" lon="5.66704">
        <ele>390</ele>
        <time>2012-04-14T08:09:39Z</time>
      </trkpt>
      <trkpt lat="43.23415" lon="5.66776">
        <ele>395</ele>
        <time>2012-04-14T08:09:50Z</time>
      </trkpt>
      <trkpt lat="43.23421" lon="5.66848">
        <ele>398</ele>
        <time>2012-04-14T08:10:01Z</time>
      </trkpt>
      <trkpt lat="43.23401" lon="5.66962">
        <ele>402</ele>
        <time>2012-04-14T08:10:16Z</time>
      </trkpt>
      <trkpt lat="43.23445" lon="5.67185">
        <ele>399</ele>
        <time>2012-04-14T08:10:43.682Z</time>
      </trkpt>
      <trkpt lat="43.23495" lon="5.67278">
        <ele>401</ele>
        <time>2012-04-14T08:10:58Z</time>
      </trkpt>
      <trkpt lat="43.23524" lon="5.67393">
        <ele>401</ele>
        <time>2012-04-14T08:11:12Z</time>
      </trkpt>
      <trkpt lat="43.23566" lon="5.67653">
        <ele>406</ele>
        <time>2012-04-14T08:11:40Z</time>
      </trkpt>
      <trkpt lat="43.23568" lon="5.67806">
        <ele>407</ele>
        <time>2012-04-14T08:11:54Z</time>
      </trkpt>
      <trkpt lat="43.23621" lon="5.67979">
        <ele>406</ele>
        <time>2012-04-14T08:12:09Z</time>
      </trkpt>
      <trkpt lat="43.23708" lon="5.68166">
        <ele>407</ele>
        <time>2012-04-14T08:12:27Z</time>
      </trkpt>
      <trkpt lat="43.23774" lon="5.6836">
        <ele>411</ele>
        <time>2012-04-14T08:12:48Z</time>
      </trkpt>
      <trkpt lat="43.23849" lon="5.68661">
        <ele>416</ele>
        <time>2012-04-14T08:13:20Z</time>
      </trkpt>
      <trkpt lat="43.23965" lon="5.68818">
        <ele>419</ele>
        <time>2012-04-14T08:13:46Z</time>
      </trkpt>
      <trkpt lat="43.23993" lon="5.68901">
        <ele>419</ele>
        <time>2012-04-14T08:13:56Z</time>
      </trkpt>
      <trkpt lat="43.24008" lon="5.69015">
        <ele>420</ele>
        <time>2012-04-14T08:14:07Z</time>
      </trkpt>
      <trkpt lat="43.24055" lon="5.69246">
        <ele>425</ele>
        <time>2012-04-14T08:14:33Z</time>
      </trkpt>
      <trkpt lat="43.24076" lon="5.69313">
        <ele>426</ele>
        <time>2012-04-14T08:14:40Z</time>
      </trkpt>
      <trkpt lat="43.24074" lon="5.69326">
        <ele>426</ele>
        <time>2012-04-14T08:14:41Z</time>
      </trkpt>
      <trkpt lat="43.24109" lon="5.69406">
        <ele>428</ele>
        <time>2012-04-14T08:14:50Z</time>
      </trkpt>
      <trkpt lat="43.24118" lon="5.69474">
        <ele>428</ele>
        <time>2012-04-14T08:14:56Z</time>
      </trkpt>
      <trkpt lat="43.24104" lon="5.69776">
        <ele>419</ele>
        <time>2012-04-14T08:15:16Z</time>
      </trkpt>
      <trkpt lat="43.24107" lon="5.69856">
        <ele>418</ele>
        <time>2012-04-14T08:15:21Z</time>
      </trkpt>
      <trkpt lat="43.24155" lon="5.70135">
        <ele>416</ele>
        <time>2012-04-14T08:15:40Z</time>
      </trkpt>
      <trkpt lat="43.24157" lon="5.70578">
        <ele>419</ele>
        <time>2012-04-14T08:16:11Z</time>
      </trkpt>
      <trkpt lat="43.2421" lon="5.70818">
        <ele>424</ele>
        <time>2012-04-14T08:16:39Z</time>
      </trkpt>
      <trkpt lat="43.24207" lon="5.70909">
        <ele>426</ele>
        <time>2012-04-14T08:16:48Z</time>
      </trkpt>
      <trkpt lat="43.24251" lon="5.71005">
        <ele>433</ele>
        <time>2012-04-14T08:17:03Z</time>
      </trkpt>
      <trkpt lat="43.24266" lon="5.71057">
        <ele>434</ele>
        <time>2012-04-14T08:17:10Z</time>
      </trkpt>
      <trkpt lat="43.24267" lon="5.71305">
        <ele>437</ele>
        <time>2012-04-14T08:17:33Z</time>
      </trkpt>
      <trkpt lat="43.24278" lon="5.7138">
        <ele>437</ele>
        <time>2012-04-14T08:17:40Z</time>
      </trkpt>
      <trkpt lat="43.24323" lon="5.71529">
        <ele>439</ele>
        <time>2012-04-14T08:17:56Z</time>
      </trkpt>
      <trkpt lat="43.2438" lon="5.71658">
        <ele>445</ele>
        <time>2012-04-14T08:18:13Z</time>
      </trkpt>
      <trkpt lat="43.24386" lon="5.71746">
        <ele>443</ele>
        <time>2012-04-14T08:18:20.999Z</time>
      </trkpt>
      <trkpt lat="43.24413" lon="5.71901">
        <ele>439</ele>
        <time>2012-04-14T08:18:34Z</time>
      </trkpt>
      <trkpt lat="43.24427" lon="5.71933">
        <ele>440</ele>
        <time>2012-04-14T08:18:37Z</time>
      </trkpt>
      <trkpt lat="43.24537" lon="5.72059">
        <ele>440</ele>
        <time>2012-04-14T08:18:51Z</time>
      </trkpt>
      <trkpt lat="43.24581" lon="5.72159">
        <ele>439</ele>
        <time>2012-04-14T08:19:00Z</time>
      </trkpt>
      <trkpt lat="43.24607" lon="5.72187">
        <ele>440</ele>
        <time>2012-04-14T08:19:04Z</time>
      </trkpt>
      <trkpt lat="43.24658" lon="5.72212">
        <ele>441</ele>
        <time>2012-04-14T08:19:10Z</time>
      </trkpt>
      <trkpt lat="43.24672" lon="5.72229">
        <ele>442</ele>
        <time>2012-04-14T08:19:12Z</time>
      </trkpt>
      <trkpt lat="43.24684" lon="5.72297">
        <ele>441</ele>
        <time>2012-04-14T08:19:18Z</time>
      </trkpt>
      <trkpt lat="43.24681" lon="5.72337">
        <ele>439</ele>
        <time>2012-04-14T08:19:21Z</time>
      </trkpt>
      <trkpt lat="43.24708" lon="5.72464">
        <ele>436</ele>
        <time>2012-04-14T08:19:31Z</time>
      </trkpt>
      <trkpt lat="43.24732" lon="5.72538">
        <ele>435</ele>
        <time>2012-04-14T08:19:37Z</time>
      </trkpt>
      <trkpt lat="43.2482" lon="5.72707">
        <ele>434</ele>
        <time>2012-04-14T08:19:51Z</time>
      </trkpt>
      <trkpt lat="43.249" lon="5.72839">
        <ele>433</ele>
        <time>2012-04-14T08:20:03Z</time>
      </trkpt>
      <trkpt lat="43.24947" lon="5.72877">
        <ele>434</ele>
        <time>2012-04-14T08:20:07.998Z</time>
      </trkpt>
      <trkpt lat="43.24996" lon="5.72888">
        <ele>434</ele>
        <time>2012-04-14T08:20:13Z</time>
      </trkpt>
      <trkpt lat="43.25012" lon="5.72925">
        <ele>436</ele>
        <time>2012-04-14T08:20:16Z</time>
      </trkpt>
      <trkpt lat="43.25051" lon="5.73091">
        <ele>430</ele>
        <time>2012-04-14T08:20:28Z</time>
      </trkpt>
      <trkpt lat="43.25045" lon="5.73209">
        <ele>427</ele>
        <time>2012-04-14T08:20:35Z</time>
      </trkpt>
      <trkpt lat="43.25055" lon="5.73303">
        <ele>427</ele>
        <time>2012-04-14T08:20:41Z</time>
      </trkpt>
      <trkpt lat="43.2512" lon="5.73417">
        <ele>426</ele>
        <time>2012-04-14T08:20:49.999Z</time>
      </trkpt>
      <trkpt lat="43.25159" lon="5.73441">
        <ele>426</ele>
        <time>2012-04-14T08:20:54Z</time>
      </trkpt>
      <trkpt lat="43.25182" lon="5.73468">
        <ele>426</ele>
        <time>2012-04-14T08:20:57Z</time>
      </trkpt>
      <trkpt lat="43.25228" lon="5.73707">
        <ele>422</ele>
        <time>2012-04-14T08:21:12Z</time>
      </trkpt>
      <trkpt lat="43.25251" lon="5.73769">
        <ele>420</ele>
        <time>2012-04-14T08:21:16Z</time>
      </trkpt>
      <trkpt lat="43.25268" lon="5.73847">
        <ele>418</ele>
        <time>2012-04-14T08:21:21Z</time>
      </trkpt>
      <trkpt lat="43.25307" lon="5.73952">
        <ele>417</ele>
        <time>2012-04-14T08:21:28Z</time>
      </trkpt>
      <trkpt lat="43.25374" lon="5.7418">
        <ele>415</ele>
        <time>2012-04-14T08:21:44.344Z</time>
      </trkpt>
      <trkpt lat="43.25419" lon="5.74417">
        <ele>411</ele>
        <time>2012-04-14T08:22:00Z</time>
      </trkpt>
      <trkpt lat="43.25538" lon="5.74702">
        <ele>407</ele>
        <time>2012-04-14T08:22:20Z</time>
      </trkpt>
      <trkpt lat="43.25556" lon="5.74778">
        <ele>406</ele>
        <time>2012-04-14T08:22:25Z</time>
      </trkpt>
      <trkpt lat="43.25631" lon="5.74973">
        <ele>403</ele>
        <time>2012-04-14T08:22:39.999Z</time>
      </trkpt>
      <trkpt lat="43.25625" lon="5.75002">
        <ele>403</ele>
        <time>2012-04-14T08:22:44Z</time>
      </trkpt>
      <trkpt lat="43.25616" lon="5.75003">
        <ele>403</ele>
        <time>2012-04-14T08:22:45Z</time>
      </trkpt>
      <trkpt lat="43.25321" lon="5.75388">
        <ele>401</ele>
        <time>2012-04-14T08:23:32Z</time>
      </trkpt>
      <trkpt lat="43.25148" lon="5.75558">
        <ele>398</ele>
        <time>2012-04-14T08:23:52Z</time>
      </trkpt>
      <trkpt lat="43.24869" lon="5.75872">
        <ele>374</ele>
        <time>2012-04-14T08:24:16Z</time>
      </trkpt>
      <trkpt lat="43.2477" lon="5.7596">
        <ele>368</ele>
        <time>2012-04-14T08:24:23Z</time>
      </trkpt>
      <trkpt lat="43.24719" lon="5.76042">
        <ele>361</ele>
        <time>2012-04-14T08:24:28Z</time>
      </trkpt>
      <trkpt lat="43.24618" lon="5.76155">
        <ele>349</ele>
        <time>2012-04-14T08:24:36Z</time>
      </trkpt>
      <trkpt lat="43.24582" lon="5.76228">
        <ele>335</ele>
        <time>2012-04-14T08:24:40Z</time>
      </trkpt>
      <trkpt lat="43.24508" lon="5.76284">
        <ele>320</ele>
        <time>2012-04-14T08:24:45.318Z</time>
      </trkpt>
      <trkpt lat="43.2442" lon="5.76287">
        <ele>319</ele>
        <time>2012-04-14T08:24:50Z</time>
      </trkpt>
      <trkpt lat="43.24269" lon="5.76344">
        <ele>301</ele>
        <time>2012-04-14T08:25:00Z</time>
      </trkpt>
      <trkpt lat="43.24203" lon="5.76311">
        <ele>304</ele>
        <time>2012-04-14T08:25:05Z</time>
      </trkpt>
      <trkpt lat="43.24155" lon="5.7632">
        <ele>296</ele>
        <time>2012-04-14T08:25:08Z</time>
      </trkpt>
      <trkpt lat="43.24078" lon="5.76293">
        <ele>291</ele>
        <time>2012-04-14T08:25:13Z</time>
      </trkpt>
      <trkpt lat="43.24031" lon="5.76316">
        <ele>290</ele>
        <time>2012-04-14T08:25:16Z</time>
      </trkpt>
      <trkpt lat="43.23912" lon="5.76402">
        <ele>267</ele>
        <time>2012-04-14T08:25:24Z</time>
      </trkpt>
      <trkpt lat="43.23874" lon="5.7641">
        <ele>264</ele>
        <time>2012-04-14T08:25:26Z</time>
      </trkpt>
      <trkpt lat="43.23802" lon="5.76446">
        <ele>249</ele>
        <time>2012-04-14T08:25:30Z</time>
      </trkpt>
      <trkpt lat="43.23606" lon="5.76635">
        <ele>229</ele>
        <time>2012-04-14T08:25:43Z</time>
      </trkpt>
      <trkpt lat="43.23554" lon="5.76667">
        <ele>219</ele>
        <time>2012-04-14T08:25:46Z</time>
      </trkpt>
      <trkpt lat="43.2346" lon="5.767">
        <ele>208</ele>
        <time>2012-04-14T08:25:52Z</time>
      </trkpt>
      <trkpt lat="43.23436" lon="5.7669">
        <ele>206</ele>
        <time>2012-04-14T08:25:54Z</time>
      </trkpt>
      <trkpt lat="43.23387" lon="5.76604">
        <ele>198</ele>
        <time>2012-04-14T08:26:00Z</time>
      </trkpt>
      <trkpt lat="43.2335" lon="5.7657">
        <ele>195</ele>
        <time>2012-04-14T08:26:03Z</time>
      </trkpt>
      <trkpt lat="43.22953" lon="5.7652">
        <ele>166</ele>
        <time>2012-04-14T08:26:28Z</time>
      </trkpt>
      <trkpt lat="43.22911" lon="5.76531">
        <ele>168</ele>
        <time>2012-04-14T08:26:31Z</time>
      </trkpt>
      <trkpt lat="43.22847" lon="5.76584">
        <ele>171</ele>
        <time>2012-04-14T08:26:37Z</time>
      </trkpt>
      <trkpt lat="43.22727" lon="5.76647">
        <ele>172</ele>
        <time>2012-04-14T08:26:50Z</time>
      </trkpt>
      <trkpt lat="43.21214" lon="5.77837">
        <ele>119</ele>
        <time>2012-04-14T08:29:10Z</time>
      </trkpt>
      <trkpt lat="43.21145" lon="5.77901">
        <ele>115</ele>
        <time>2012-04-14T08:29:20Z</time>
      </trkpt>
      <trkpt lat="43.21113" lon="5.77947">
        <ele>117</ele>
        <time>2012-04-14T08:29:26Z</time>
      </trkpt>
      <trkpt lat="43.21103" lon="5.77976">
        <ele>117</ele>
        <time>2012-04-14T08:29:29Z</time>
      </trkpt>
      <trkpt lat="43.21083" lon="5.78194">
        <ele>112</ele>
        <time>2012-04-14T08:29:45.290Z</time>
      </trkpt>
      <trkpt lat="43.21067" lon="5.7827">
        <ele>111</ele>
        <time>2012-04-14T08:29:50.275Z</time>
      </trkpt>
      <trkpt lat="43.21052" lon="5.7829">
        <ele>111</ele>
        <time>2012-04-14T08:29:52.274Z</time>
      </trkpt>
      <trkpt lat="43.21044" lon="5.7828">
        <ele>111</ele>
        <time>2012-04-14T08:29:53.273Z</time>
      </trkpt>
      <trkpt lat="43.2103" lon="5.78305">
        <ele>111</ele>
        <time>2012-04-14T08:29:55Z</time>
      </trkpt>
      <trkpt lat="43.20946" lon="5.78366">
        <ele>119</ele>
        <time>2012-04-14T08:30:11Z</time>
      </trkpt>
      <trkpt lat="43.20939" lon="5.78383">
        <ele>119</ele>
        <time>2012-04-14T08:30:15Z</time>
      </trkpt>
      <trkpt lat="43.2094" lon="5.78432">
        <ele>123</ele>
        <time>2012-04-14T08:30:25Z</time>
      </trkpt>
      <trkpt lat="43.20962" lon="5.78554">
        <ele>132</ele>
        <time>2012-04-14T08:30:51Z</time>
      </trkpt>
      <trkpt lat="43.20918" lon="5.78817">
        <ele>153</ele>
        <time>2012-04-14T08:31:49Z</time>
      </trkpt>
      <trkpt lat="43.20902" lon="5.79">
        <ele>163</ele>
        <time>2012-04-14T08:32:22Z</time>
      </trkpt>
      <trkpt lat="43.20875" lon="5.79122">
        <ele>170</ele>
        <time>2012-04-14T08:32:45.253Z</time>
      </trkpt>
      <trkpt lat="43.20777" lon="5.79268">
        <ele>176</ele>
        <time>2012-04-14T08:33:16Z</time>
      </trkpt>
      <trkpt lat="43.20711" lon="5.79307">
        <ele>190</ele>
        <time>2012-04-14T08:33:29Z</time>
      </trkpt>
      <trkpt lat="43.20637" lon="5.79402">
        <ele>193</ele>
        <time>2012-04-14T08:33:45.250Z</time>
      </trkpt>
      <trkpt lat="43.2061" lon="5.7942">
        <ele>185</ele>
        <time>2012-04-14T08:33:51.216Z</time>
      </trkpt>
      <trkpt lat="43.20602" lon="5.79415">
        <ele>197</ele>
        <time>2012-04-14T08:33:52.216Z</time>
      </trkpt>
      <trkpt lat="43.20596" lon="5.79453">
        <ele>182</ele>
        <time>2012-04-14T08:33:53.242Z</time>
      </trkpt>
      <trkpt lat="43.20554" lon="5.79518">
        <ele>179</ele>
        <time>2012-04-14T08:34:02Z</time>
      </trkpt>
      <trkpt lat="43.20447" lon="5.79593">
        <ele>184</ele>
        <time>2012-04-14T08:34:18.999Z</time>
      </trkpt>
      <trkpt lat="43.20421" lon="5.79626">
        <ele>183</ele>
        <time>2012-04-14T08:34:24Z</time>
      </trkpt>
      <trkpt lat="43.20374" lon="5.79663">
        <ele>189</ele>
        <time>2012-04-14T08:34:31Z</time>
      </trkpt>
      <trkpt lat="43.20285" lon="5.79687">
        <ele>183</ele>
        <time>2012-04-14T08:34:42Z</time>
      </trkpt>
      <trkpt lat="43.20156" lon="5.79683">
        <ele>184</ele>
        <time>2012-04-14T08:34:57Z</time>
      </trkpt>
      <trkpt lat="43.19972" lon="5.79605">
        <ele>188</ele>
        <time>2012-04-14T08:35:21.999Z</time>
      </trkpt>
      <trkpt lat="43.1986" lon="5.79641">
        <ele>186</ele>
        <time>2012-04-14T08:35:35Z</time>
      </trkpt>
      <trkpt lat="43.19649" lon="5.79752">
        <ele>183</ele>
        <time>2012-04-14T08:35:59Z</time>
      </trkpt>
      <trkpt lat="43.19613" lon="5.7976">
        <ele>184</ele>
        <time>2012-04-14T08:36:06Z</time>
      </trkpt>
      <trkpt lat="43.19604" lon="5.79774">
        <ele>184</ele>
        <time>2012-04-14T08:36:08Z</time>
      </trkpt>
      <trkpt lat="43.19577" lon="5.80282">
        <ele>174</ele>
        <time>2012-04-14T08:36:45.226Z</time>
      </trkpt>
      <trkpt lat="43.19566" lon="5.80313">
        <ele>174</ele>
        <time>2012-04-14T08:36:49Z</time>
      </trkpt>
      <trkpt lat="43.19572" lon="5.80381">
        <ele>173</ele>
        <time>2012-04-14T08:36:55Z</time>
      </trkpt>
      <trkpt lat="43.19562" lon="5.80475">
        <ele>172</ele>
        <time>2012-04-14T08:37:03Z</time>
      </trkpt>
      <trkpt lat="43.1956" lon="5.80615">
        <ele>169</ele>
        <time>2012-04-14T08:37:17Z</time>
      </trkpt>
      <trkpt lat="43.19544" lon="5.80667">
        <ele>167</ele>
        <time>2012-04-14T08:37:25Z</time>
      </trkpt>
      <trkpt lat="43.19497" lon="5.80725">
        <ele>170</ele>
        <time>2012-04-14T08:37:33Z</time>
      </trkpt>
      <trkpt lat="43.19429" lon="5.80832">
        <ele>170</ele>
        <time>2012-04-14T08:37:47.211Z</time>
      </trkpt>
      <trkpt lat="43.19414" lon="5.80844">
        <ele>172</ele>
        <time>2012-04-14T08:37:49Z</time>
      </trkpt>
      <trkpt lat="43.19404" lon="5.80868">
        <ele>172</ele>
        <time>2012-04-14T08:37:52Z</time>
      </trkpt>
      <trkpt lat="43.19362" lon="5.80901">
        <ele>173</ele>
        <time>2012-04-14T08:37:58Z</time>
      </trkpt>
      <trkpt lat="43.1917" lon="5.81183">
        <ele>174</ele>
        <time>2012-04-14T08:38:32Z</time>
      </trkpt>
      <trkpt lat="43.19115" lon="5.81209">
        <ele>176</ele>
        <time>2012-04-14T08:38:39Z</time>
      </trkpt>
      <trkpt lat="43.19083" lon="5.81308">
        <ele>177</ele>
        <time>2012-04-14T08:38:48Z</time>
      </trkpt>
      <trkpt lat="43.19071" lon="5.81311">
        <ele>177</ele>
        <time>2012-04-14T08:38:49Z</time>
      </trkpt>
      <trkpt lat="43.18885" lon="5.81556">
        <ele>180</ele>
        <time>2012-04-14T08:39:19Z</time>
      </trkpt>
      <trkpt lat="43.18673" lon="5.81784">
        <ele>178</ele>
        <time>2012-04-14T08:39:50Z</time>
      </trkpt>
      <trkpt lat="43.18202" lon="5.82245">
        <ele>172</ele>
        <time>2012-04-14T08:40:45.194Z</time>
      </trkpt>
      <trkpt lat="43.18157" lon="5.82275">
        <ele>170</ele>
        <time>2012-04-14T08:40:49.180Z</time>
      </trkpt>
      <trkpt lat="43.17977" lon="5.82455">
        <ele>166</ele>
        <time>2012-04-14T08:41:08Z</time>
      </trkpt>
      <trkpt lat="43.17723" lon="5.82644">
        <ele>159</ele>
        <time>2012-04-14T08:41:30.998Z</time>
      </trkpt>
      <trkpt lat="43.1766" lon="5.82679">
        <ele>159</ele>
        <time>2012-04-14T08:41:36Z</time>
      </trkpt>
      <trkpt lat="43.17653" lon="5.82697">
        <ele>157</ele>
        <time>2012-04-14T08:41:37Z</time>
      </trkpt>
      <trkpt lat="43.17569" lon="5.82752">
        <ele>154</ele>
        <time>2012-04-14T08:41:45Z</time>
      </trkpt>
      <trkpt lat="43.17538" lon="5.82753">
        <ele>154</ele>
        <time>2012-04-14T08:41:48Z</time>
      </trkpt>
      <trkpt lat="43.17488" lon="5.82815">
        <ele>154</ele>
        <time>2012-04-14T08:41:55Z</time>
      </trkpt>
      <trkpt lat="43.17349" lon="5.82921">
        <ele>151</ele>
        <time>2012-04-14T08:42:11Z</time>
      </trkpt>
      <trkpt lat="43.17277" lon="5.82948">
        <ele>149</ele>
        <time>2012-04-14T08:42:25Z</time>
      </trkpt>
      <trkpt lat="43.1726" lon="5.8297">
        <ele>149</ele>
        <time>2012-04-14T08:42:29Z</time>
      </trkpt>
      <trkpt lat="43.17235" lon="5.8298">
        <ele>149</ele>
        <time>2012-04-14T08:42:33Z</time>
      </trkpt>
      <trkpt lat="43.17211" lon="5.83004">
        <ele>148</ele>
        <time>2012-04-14T08:42:38Z</time>
      </trkpt>
      <trkpt lat="43.17217" lon="5.83096">
        <ele>148</ele>
        <time>2012-04-14T08:42:50Z</time>
      </trkpt>
      <trkpt lat="43.17232" lon="5.83183">
        <ele>151</ele>
        <time>2012-04-14T08:43:06Z</time>
      </trkpt>
      <trkpt lat="43.1721" lon="5.83312">
        <ele>158</ele>
        <time>2012-04-14T08:43:29Z</time>
      </trkpt>
      <trkpt lat="43.17226" lon="5.83443">
        <ele>167</ele>
        <time>2012-04-14T08:43:52Z</time>
      </trkpt>
      <trkpt lat="43.17263" lon="5.83548">
        <ele>171</ele>
        <time>2012-04-14T08:44:08Z</time>
      </trkpt>
      <trkpt lat="43.17276" lon="5.83676">
        <ele>178</ele>
        <time>2012-04-14T08:44:25Z</time>
      </trkpt>
      <trkpt lat="43.17373" lon="5.8385">
        <ele>185</ele>
        <time>2012-04-14T08:45:03Z</time>
      </trkpt>
      <trkpt lat="43.1738" lon="5.83876">
        <ele>186</ele>
        <time>2012-04-14T08:45:08Z</time>
      </trkpt>
      <trkpt lat="43.17376" lon="5.83916">
        <ele>185</ele>
        <time>2012-04-14T08:45:14Z</time>
      </trkpt>
      <trkpt lat="43.17405" lon="5.84019">
        <ele>199</ele>
        <time>2012-04-14T08:45:32.999Z</time>
      </trkpt>
      <trkpt lat="43.17457" lon="5.84107">
        <ele>209</ele>
        <time>2012-04-14T08:45:58Z</time>
      </trkpt>
      <trkpt lat="43.17468" lon="5.84164">
        <ele>210</ele>
        <time>2012-04-14T08:46:12Z</time>
      </trkpt>
      <trkpt lat="43.17476" lon="5.84168">
        <ele>211</ele>
        <time>2012-04-14T08:46:14Z</time>
      </trkpt>
      <trkpt lat="43.17497" lon="5.84323">
        <ele>213</ele>
        <time>2012-04-14T08:46:51Z</time>
      </trkpt>
      <trkpt lat="43.17512" lon="5.84352">
        <ele>221</ele>
        <time>2012-04-14T08:46:59Z</time>
      </trkpt>
      <trkpt lat="43.1752" lon="5.84401">
        <ele>227</ele>
        <time>2012-04-14T08:47:12Z</time>
      </trkpt>
      <trkpt lat="43.17578" lon="5.84471">
        <ele>235</ele>
        <time>2012-04-14T08:47:39Z</time>
      </trkpt>
      <trkpt lat="43.17584" lon="5.84507">
        <ele>239</ele>
        <time>2012-04-14T08:47:49.124Z</time>
      </trkpt>
      <trkpt lat="43.17607" lon="5.84524">
        <ele>248</ele>
        <time>2012-04-14T08:47:55Z</time>
      </trkpt>
      <trkpt lat="43.17619" lon="5.84592">
        <ele>254</ele>
        <time>2012-04-14T08:48:17Z</time>
      </trkpt>
      <trkpt lat="43.17664" lon="5.84721">
        <ele>264</ele>
        <time>2012-04-14T08:48:53Z</time>
      </trkpt>
      <trkpt lat="43.17661" lon="5.84739">
        <ele>263</ele>
        <time>2012-04-14T08:48:57Z</time>
      </trkpt>
      <trkpt lat="43.1767" lon="5.84735">
        <ele>267</ele>
        <time>2012-04-14T08:48:58Z</time>
      </trkpt>
      <trkpt lat="43.17688" lon="5.84759">
        <ele>269</ele>
        <time>2012-04-14T08:49:05Z</time>
      </trkpt>
      <trkpt lat="43.17693" lon="5.84785">
        <ele>272</ele>
        <time>2012-04-14T08:49:10Z</time>
      </trkpt>
      <trkpt lat="43.17756" lon="5.84855">
        <ele>271</ele>
        <time>2012-04-14T08:49:31.999Z</time>
      </trkpt>
      <trkpt lat="43.17841" lon="5.8498">
        <ele>272</ele>
        <time>2012-04-14T08:50:00Z</time>
      </trkpt>
      <trkpt lat="43.17847" lon="5.85004">
        <ele>271</ele>
        <time>2012-04-14T08:50:04Z</time>
      </trkpt>
      <trkpt lat="43.1784" lon="5.85023">
        <ele>272</ele>
        <time>2012-04-14T08:50:06.998Z</time>
      </trkpt>
      <trkpt lat="43.17784" lon="5.8498">
        <ele>274</ele>
        <time>2012-04-14T08:50:27Z</time>
      </trkpt>
      <trkpt lat="43.17788" lon="5.84976">
        <ele>273</ele>
        <time>2012-04-14T08:50:29Z</time>
      </trkpt>
      <trkpt lat="43.17736" lon="5.84929">
        <ele>276</ele>
        <time>2012-04-14T08:50:47Z</time>
      </trkpt>
      <trkpt lat="43.17713" lon="5.84928">
        <ele>280</ele>
        <time>2012-04-14T08:50:54Z</time>
      </trkpt>
      <trkpt lat="43.1768" lon="5.84966">
        <ele>284</ele>
        <time>2012-04-14T08:51:07Z</time>
      </trkpt>
      <trkpt lat="43.17688" lon="5.85037">
        <ele>292</ele>
        <time>2012-04-14T08:51:25Z</time>
      </trkpt>
      <trkpt lat="43.17673" lon="5.85061">
        <ele>295</ele>
        <time>2012-04-14T08:51:33Z</time>
      </trkpt>
      <trkpt lat="43.1764" lon="5.85046">
        <ele>302</ele>
        <time>2012-04-14T08:51:43.396Z</time>
      </trkpt>
      <trkpt lat="43.1756" lon="5.84948">
        <ele>307</ele>
        <time>2012-04-14T08:52:16Z</time>
      </trkpt>
      <trkpt lat="43.17495" lon="5.8484">
        <ele>312</ele>
        <time>2012-04-14T08:52:45.099Z</time>
      </trkpt>
      <trkpt lat="43.17494" lon="5.84756">
        <ele>307</ele>
        <time>2012-04-14T08:53:02Z</time>
      </trkpt>
      <trkpt lat="43.17445" lon="5.84708">
        <ele>308</ele>
        <time>2012-04-14T08:53:17Z</time>
      </trkpt>
      <trkpt lat="43.17295" lon="5.84678">
        <ele>323</ele>
        <time>2012-04-14T08:53:49Z</time>
      </trkpt>
      <trkpt lat="43.17195" lon="5.84672">
        <ele>322</ele>
        <time>2012-04-14T08:54:03Z</time>
      </trkpt>
      <trkpt lat="43.16998" lon="5.84618">
        <ele>326</ele>
        <time>2012-04-14T08:54:26Z</time>
      </trkpt>
      <trkpt lat="43.1698" lon="5.84636">
        <ele>324</ele>
        <time>2012-04-14T08:54:29Z</time>
      </trkpt>
      <trkpt lat="43.16973" lon="5.84659">
        <ele>323</ele>
        <time>2012-04-14T08:54:31Z</time>
      </trkpt>
      <trkpt lat="43.16929" lon="5.84694">
        <ele>317</ele>
        <time>2012-04-14T08:54:36Z</time>
      </trkpt>
      <trkpt lat="43.16904" lon="5.84782">
        <ele>312</ele>
        <time>2012-04-14T08:54:42Z</time>
      </trkpt>
      <trkpt lat="43.16883" lon="5.84802">
        <ele>312</ele>
        <time>2012-04-14T08:54:45Z</time>
      </trkpt>
      <trkpt lat="43.16857" lon="5.84785">
        <ele>311</ele>
        <time>2012-04-14T08:54:47Z</time>
      </trkpt>
      <trkpt lat="43.16678" lon="5.84752">
        <ele>308</ele>
        <time>2012-04-14T08:55:05Z</time>
      </trkpt>
      <trkpt lat="43.1665" lon="5.84759">
        <ele>306</ele>
        <time>2012-04-14T08:55:08Z</time>
      </trkpt>
      <trkpt lat="43.16618" lon="5.84783">
        <ele>306</ele>
        <time>2012-04-14T08:55:12Z</time>
      </trkpt>
      <trkpt lat="43.16486" lon="5.84972">
        <ele>304</ele>
        <time>2012-04-14T08:55:33Z</time>
      </trkpt>
      <trkpt lat="43.16463" lon="5.8503">
        <ele>313</ele>
        <time>2012-04-14T08:55:39Z</time>
      </trkpt>
      <trkpt lat="43.16372" lon="5.85177">
        <ele>308</ele>
        <time>2012-04-14T08:56:00Z</time>
      </trkpt>
      <trkpt lat="43.16371" lon="5.85192">
        <ele>308</ele>
        <time>2012-04-14T08:56:02Z</time>
      </trkpt>
      <trkpt lat="43.16415" lon="5.85264">
        <ele>313</ele>
        <time>2012-04-14T08:56:11Z</time>
      </trkpt>
      <trkpt lat="43.16423" lon="5.85294">
        <ele>326</ele>
        <time>2012-04-14T08:56:14Z</time>
      </trkpt>
      <trkpt lat="43.16384" lon="5.854">
        <ele>305</ele>
        <time>2012-04-14T08:56:25Z</time>
      </trkpt>
      <trkpt lat="43.16383" lon="5.85464">
        <ele>299</ele>
        <time>2012-04-14T08:56:31Z</time>
      </trkpt>
      <trkpt lat="43.1643" lon="5.8552">
        <ele>307</ele>
        <time>2012-04-14T08:56:39Z</time>
      </trkpt>
      <trkpt lat="43.16473" lon="5.85553">
        <ele>307</ele>
        <time>2012-04-14T08:56:45.083Z</time>
      </trkpt>
      <trkpt lat="43.16622" lon="5.85619">
        <ele>313</ele>
        <time>2012-04-14T08:57:03Z</time>
      </trkpt>
      <trkpt lat="43.16692" lon="5.85608">
        <ele>325</ele>
        <time>2012-04-14T08:57:11Z</time>
      </trkpt>
      <trkpt lat="43.16717" lon="5.8562">
        <ele>325</ele>
        <time>2012-04-14T08:57:14Z</time>
      </trkpt>
      <trkpt lat="43.16764" lon="5.85666">
        <ele>329</ele>
        <time>2012-04-14T08:57:21Z</time>
      </trkpt>
      <trkpt lat="43.16775" lon="5.85708">
        <ele>328</ele>
        <time>2012-04-14T08:57:25Z</time>
      </trkpt>
      <trkpt lat="43.16752" lon="5.85822">
        <ele>318</ele>
        <time>2012-04-14T08:57:35Z</time>
      </trkpt>
      <trkpt lat="43.16754" lon="5.85857">
        <ele>318</ele>
        <time>2012-04-14T08:57:38Z</time>
      </trkpt>
      <trkpt lat="43.16811" lon="5.85978">
        <ele>319</ele>
        <time>2012-04-14T08:57:50Z</time>
      </trkpt>
      <trkpt lat="43.16798" lon="5.86096">
        <ele>309</ele>
        <time>2012-04-14T08:58:00Z</time>
      </trkpt>
      <trkpt lat="43.16806" lon="5.86131">
        <ele>309</ele>
        <time>2012-04-14T08:58:03Z</time>
      </trkpt>
      <trkpt lat="43.16847" lon="5.86223">
        <ele>326</ele>
        <time>2012-04-14T08:58:12Z</time>
      </trkpt>
      <trkpt lat="43.16853" lon="5.8627">
        <ele>321</ele>
        <time>2012-04-14T08:58:16Z</time>
      </trkpt>
      <trkpt lat="43.16845" lon="5.86352">
        <ele>314</ele>
        <time>2012-04-14T08:58:23Z</time>
      </trkpt>
      <trkpt lat="43.1687" lon="5.86438">
        <ele>313</ele>
        <time>2012-04-14T08:58:30Z</time>
      </trkpt>
      <trkpt lat="43.16878" lon="5.86495">
        <ele>312</ele>
        <time>2012-04-14T08:58:34Z</time>
      </trkpt>
      <trkpt lat="43.16912" lon="5.8657">
        <ele>306</ele>
        <time>2012-04-14T08:58:40Z</time>
      </trkpt>
      <trkpt lat="43.16953" lon="5.86626">
        <ele>310</ele>
        <time>2012-04-14T08:58:45.051Z</time>
      </trkpt>
      <trkpt lat="43.16963" lon="5.86673">
        <ele>305</ele>
        <time>2012-04-14T08:58:48Z</time>
      </trkpt>
      <trkpt lat="43.17036" lon="5.86828">
        <ele>299</ele>
        <time>2012-04-14T08:59:00Z</time>
      </trkpt>
      <trkpt lat="43.17062" lon="5.86811">
        <ele>299</ele>
        <time>2012-04-14T08:59:03Z</time>
      </trkpt>
      <trkpt lat="43.17106" lon="5.8673">
        <ele>297</ele>
        <time>2012-04-14T08:59:10Z</time>
      </trkpt>
      <trkpt lat="43.17129" lon="5.8665">
        <ele>298</ele>
        <time>2012-04-14T08:59:16Z</time>
      </trkpt>
      <trkpt lat="43.17158" lon="5.86642">
        <ele>297</ele>
        <time>2012-04-14T08:59:19Z</time>
      </trkpt>
      <trkpt lat="43.17246" lon="5.86685">
        <ele>289</ele>
        <time>2012-04-14T08:59:28Z</time>
      </trkpt>
      <trkpt lat="43.17261" lon="5.86709">
        <ele>286</ele>
        <time>2012-04-14T08:59:30Z</time>
      </trkpt>
      <trkpt lat="43.17329" lon="5.87011">
        <ele>290</ele>
        <time>2012-04-14T09:00:01Z</time>
      </trkpt>
      <trkpt lat="43.17361" lon="5.8706">
        <ele>292</ele>
        <time>2012-04-14T09:00:10Z</time>
      </trkpt>
      <trkpt lat="43.17393" lon="5.87146">
        <ele>295</ele>
        <time>2012-04-14T09:00:24Z</time>
      </trkpt>
      <trkpt lat="43.17511" lon="5.87283">
        <ele>304</ele>
        <time>2012-04-14T09:00:59Z</time>
      </trkpt>
      <trkpt lat="43.17518" lon="5.87421">
        <ele>309</ele>
        <time>2012-04-14T09:01:17Z</time>
      </trkpt>
      <trkpt lat="43.17541" lon="5.87482">
        <ele>311</ele>
        <time>2012-04-14T09:01:25Z</time>
      </trkpt>
      <trkpt lat="43.1754" lon="5.875">
        <ele>313</ele>
        <time>2012-04-14T09:01:27Z</time>
      </trkpt>
      <trkpt lat="43.17498" lon="5.8755">
        <ele>317</ele>
        <time>2012-04-14T09:01:39Z</time>
      </trkpt>
      <trkpt lat="43.17488" lon="5.87588">
        <ele>320</ele>
        <time>2012-04-14T09:01:46.027Z</time>
      </trkpt>
      <trkpt lat="43.17512" lon="5.87665">
        <ele>325</ele>
        <time>2012-04-14T09:02:00Z</time>
      </trkpt>
      <trkpt lat="43.17506" lon="5.87747">
        <ele>331</ele>
        <time>2012-04-14T09:02:16Z</time>
      </trkpt>
      <trkpt lat="43.17471" lon="5.87896">
        <ele>341</ele>
        <time>2012-04-14T09:02:45.018Z</time>
      </trkpt>
      <trkpt lat="43.17462" lon="5.8798">
        <ele>345</ele>
        <time>2012-04-14T09:03:00Z</time>
      </trkpt>
      <trkpt lat="43.17397" lon="5.88255">
        <ele>358</ele>
        <time>2012-04-14T09:03:49Z</time>
      </trkpt>
      <trkpt lat="43.17381" lon="5.88373">
        <ele>370</ele>
        <time>2012-04-14T09:04:09Z</time>
      </trkpt>
      <trkpt lat="43.1735" lon="5.8842">
        <ele>375</ele>
        <time>2012-04-14T09:04:20Z</time>
      </trkpt>
      <trkpt lat="43.17336" lon="5.88426">
        <ele>372</ele>
        <time>2012-04-14T09:04:24Z</time>
      </trkpt>
      <trkpt lat="43.17313" lon="5.88418">
        <ele>369</ele>
        <time>2012-04-14T09:04:29Z</time>
      </trkpt>
      <trkpt lat="43.17236" lon="5.88473">
        <ele>375</ele>
        <time>2012-04-14T09:04:50Z</time>
      </trkpt>
      <trkpt lat="43.17132" lon="5.88567">
        <ele>386</ele>
        <time>2012-04-14T09:05:18Z</time>
      </trkpt>
      <trkpt lat="43.17114" lon="5.88597">
        <ele>391</ele>
        <time>2012-04-14T09:05:24Z</time>
      </trkpt>
      <trkpt lat="43.17074" lon="5.88736">
        <ele>396</ele>
        <time>2012-04-14T09:05:46.988Z</time>
      </trkpt>
      <trkpt lat="43.17052" lon="5.88751">
        <ele>396</ele>
        <time>2012-04-14T09:05:52Z</time>
      </trkpt>
      <trkpt lat="43.17032" lon="5.88806">
        <ele>394</ele>
        <time>2012-04-14T09:06:02Z</time>
      </trkpt>
      <trkpt lat="43.17032" lon="5.88832">
        <ele>393</ele>
        <time>2012-04-14T09:06:06Z</time>
      </trkpt>
      <trkpt lat="43.17073" lon="5.88875">
        <ele>390</ele>
        <time>2012-04-14T09:06:18Z</time>
      </trkpt>
      <trkpt lat="43.17101" lon="5.8892">
        <ele>400</ele>
        <time>2012-04-14T09:06:30Z</time>
      </trkpt>
      <trkpt lat="43.17122" lon="5.89147">
        <ele>402</ele>
        <time>2012-04-14T09:07:03Z</time>
      </trkpt>
      <trkpt lat="43.17138" lon="5.89242">
        <ele>408</ele>
        <time>2012-04-14T09:07:23Z</time>
      </trkpt>
      <trkpt lat="43.17136" lon="5.89309">
        <ele>406</ele>
        <time>2012-04-14T09:07:38Z</time>
      </trkpt>
      <trkpt lat="43.17145" lon="5.8938">
        <ele>402</ele>
        <time>2012-04-14T09:07:55Z</time>
      </trkpt>
      <trkpt lat="43.17161" lon="5.89405">
        <ele>407</ele>
        <time>2012-04-14T09:08:03Z</time>
      </trkpt>
      <trkpt lat="43.17241" lon="5.89436">
        <ele>431</ele>
        <time>2012-04-14T09:08:31Z</time>
      </trkpt>
      <trkpt lat="43.17254" lon="5.89454">
        <ele>452</ele>
        <time>2012-04-14T09:08:37Z</time>
      </trkpt>
      <trkpt lat="43.17274" lon="5.89544">
        <ele>444</ele>
        <time>2012-04-14T09:09:01Z</time>
      </trkpt>
      <trkpt lat="43.17272" lon="5.89586">
        <ele>435</ele>
        <time>2012-04-14T09:09:12Z</time>
      </trkpt>
      <trkpt lat="43.17282" lon="5.89618">
        <ele>438</ele>
        <time>2012-04-14T09:09:20Z</time>
      </trkpt>
      <trkpt lat="43.17341" lon="5.8968">
        <ele>456</ele>
        <time>2012-04-14T09:09:43.964Z</time>
      </trkpt>
      <trkpt lat="43.17386" lon="5.8977">
        <ele>452</ele>
        <time>2012-04-14T09:10:11Z</time>
      </trkpt>
      <trkpt lat="43.1745" lon="5.89777">
        <ele>467</ele>
        <time>2012-04-14T09:10:33Z</time>
      </trkpt>
      <trkpt lat="43.17502" lon="5.89762">
        <ele>484</ele>
        <time>2012-04-14T09:10:51Z</time>
      </trkpt>
      <trkpt lat="43.17514" lon="5.89772">
        <ele>486</ele>
        <time>2012-04-14T09:10:55Z</time>
      </trkpt>
      <trkpt lat="43.17522" lon="5.89796">
        <ele>487</ele>
        <time>2012-04-14T09:11:01Z</time>
      </trkpt>
      <trkpt lat="43.17517" lon="5.89928">
        <ele>482</ele>
        <time>2012-04-14T09:11:32Z</time>
      </trkpt>
      <trkpt lat="43.1754" lon="5.89972">
        <ele>485</ele>
        <time>2012-04-14T09:11:44.947Z</time>
      </trkpt>
      <trkpt lat="43.17603" lon="5.90031">
        <ele>502</ele>
        <time>2012-04-14T09:12:11Z</time>
      </trkpt>
      <trkpt lat="43.17626" lon="5.90089">
        <ele>489</ele>
        <time>2012-04-14T09:12:29Z</time>
      </trkpt>
      <trkpt lat="43.17664" lon="5.90115">
        <ele>493</ele>
        <time>2012-04-14T09:12:44.939Z</time>
      </trkpt>
      <trkpt lat="43.17762" lon="5.90135">
        <ele>514</ele>
        <time>2012-04-14T09:13:21Z</time>
      </trkpt>
      <trkpt lat="43.17879" lon="5.90104">
        <ele>534</ele>
        <time>2012-04-14T09:14:01Z</time>
      </trkpt>
      <trkpt lat="43.17953" lon="5.90115">
        <ele>549</ele>
        <time>2012-04-14T09:14:27Z</time>
      </trkpt>
      <trkpt lat="43.1796" lon="5.90134">
        <ele>548</ele>
        <time>2012-04-14T09:14:33Z</time>
      </trkpt>
      <trkpt lat="43.17941" lon="5.90165">
        <ele>540</ele>
        <time>2012-04-14T09:14:43.245Z</time>
      </trkpt>
      <trkpt lat="43.17961" lon="5.90204">
        <ele>540</ele>
        <time>2012-04-14T09:14:55Z</time>
      </trkpt>
      <trkpt lat="43.17979" lon="5.90276">
        <ele>542</ele>
        <time>2012-04-14T09:15:13Z</time>
      </trkpt>
      <trkpt lat="43.17978" lon="5.90304">
        <ele>541</ele>
        <time>2012-04-14T09:15:19Z</time>
      </trkpt>
      <trkpt lat="43.18014" lon="5.90411">
        <ele>562</ele>
        <time>2012-04-14T09:15:46.907Z</time>
      </trkpt>
      <trkpt lat="43.18036" lon="5.90434">
        <ele>570</ele>
        <time>2012-04-14T09:15:55Z</time>
      </trkpt>
      <trkpt lat="43.18035" lon="5.90502">
        <ele>574</ele>
        <time>2012-04-14T09:16:10Z</time>
      </trkpt>
      <trkpt lat="43.18045" lon="5.90549">
        <ele>578</ele>
        <time>2012-04-14T09:16:22Z</time>
      </trkpt>
      <trkpt lat="43.18001" lon="5.90581">
        <ele>570</ele>
        <time>2012-04-14T09:16:36Z</time>
      </trkpt>
      <trkpt lat="43.18001" lon="5.90618">
        <ele>576</ele>
        <time>2012-04-14T09:16:43.909Z</time>
      </trkpt>
      <trkpt lat="43.18031" lon="5.90585">
        <ele>579</ele>
        <time>2012-04-14T09:16:56Z</time>
      </trkpt>
      <trkpt lat="43.18082" lon="5.90566">
        <ele>585</ele>
        <time>2012-04-14T09:17:12Z</time>
      </trkpt>
      <trkpt lat="43.18078" lon="5.90526">
        <ele>582</ele>
        <time>2012-04-14T09:17:21Z</time>
      </trkpt>
      <trkpt lat="43.18095" lon="5.9041">
        <ele>602</ele>
        <time>2012-04-14T09:17:49Z</time>
      </trkpt>
      <trkpt lat="43.18087" lon="5.90352">
        <ele>606</ele>
        <time>2012-04-14T09:18:03Z</time>
      </trkpt>
      <trkpt lat="43.18095" lon="5.90255">
        <ele>604</ele>
        <time>2012-04-14T09:18:25Z</time>
      </trkpt>
      <trkpt lat="43.18124" lon="5.9021">
        <ele>617</ele>
        <time>2012-04-14T09:18:39Z</time>
      </trkpt>
      <trkpt lat="43.18128" lon="5.90184">
        <ele>618</ele>
        <time>2012-04-14T09:18:44.893Z</time>
      </trkpt>
      <trkpt lat="43.18106" lon="5.90113">
        <ele>616</ele>
        <time>2012-04-14T09:19:03Z</time>
      </trkpt>
      <trkpt lat="43.18124" lon="5.90032">
        <ele>632</ele>
        <time>2012-04-14T09:19:23Z</time>
      </trkpt>
      <trkpt lat="43.18119" lon="5.90016">
        <ele>631</ele>
        <time>2012-04-14T09:19:27Z</time>
      </trkpt>
      <trkpt lat="43.18048" lon="5.89932">
        <ele>630</ele>
        <time>2012-04-14T09:19:59Z</time>
      </trkpt>
      <trkpt lat="43.18055" lon="5.89929">
        <ele>632</ele>
        <time>2012-04-14T09:20:01Z</time>
      </trkpt>
      <trkpt lat="43.18075" lon="5.89951">
        <ele>630</ele>
        <time>2012-04-14T09:20:09Z</time>
      </trkpt>
      <trkpt lat="43.1814" lon="5.89982">
        <ele>651</ele>
        <time>2012-04-14T09:20:31Z</time>
      </trkpt>
      <trkpt lat="43.1816" lon="5.90003">
        <ele>650</ele>
        <time>2012-04-14T09:20:39Z</time>
      </trkpt>
      <trkpt lat="43.1816" lon="5.90052">
        <ele>638</ele>
        <time>2012-04-14T09:20:49.864Z</time>
      </trkpt>
      <trkpt lat="43.18204" lon="5.9019">
        <ele>659</ele>
        <time>2012-04-14T09:21:24Z</time>
      </trkpt>
      <trkpt lat="43.18197" lon="5.903">
        <ele>659</ele>
        <time>2012-04-14T09:21:48.999Z</time>
      </trkpt>
      <trkpt lat="43.18244" lon="5.90468">
        <ele>665</ele>
        <time>2012-04-14T09:22:30Z</time>
      </trkpt>
      <trkpt lat="43.18249" lon="5.90536">
        <ele>662</ele>
        <time>2012-04-14T09:22:45.859Z</time>
      </trkpt>
      <trkpt lat="43.18253" lon="5.90378">
        <ele>697</ele>
        <time>2012-04-14T09:23:18Z</time>
      </trkpt>
      <trkpt lat="43.18266" lon="5.90288">
        <ele>698</ele>
        <time>2012-04-14T09:23:38Z</time>
      </trkpt>
      <trkpt lat="43.18294" lon="5.90188">
        <ele>698</ele>
        <time>2012-04-14T09:24:02Z</time>
      </trkpt>
      <trkpt lat="43.18276" lon="5.90062">
        <ele>694</ele>
        <time>2012-04-14T09:24:28Z</time>
      </trkpt>
      <trkpt lat="43.18289" lon="5.90001">
        <ele>694</ele>
        <time>2012-04-14T09:24:42Z</time>
      </trkpt>
      <trkpt lat="43.18298" lon="5.90009">
        <ele>695</ele>
        <time>2012-04-14T09:24:46Z</time>
      </trkpt>
      <trkpt lat="43.18299" lon="5.90051">
        <ele>696</ele>
        <time>2012-04-14T09:24:55Z</time>
      </trkpt>
      <trkpt lat="43.18318" lon="5.901">
        <ele>702</ele>
        <time>2012-04-14T09:25:07Z</time>
      </trkpt>
      <trkpt lat="43.1834" lon="5.90199">
        <ele>704</ele>
        <time>2012-04-14T09:25:29Z</time>
      </trkpt>
      <trkpt lat="43.18328" lon="5.90277">
        <ele>709</ele>
        <time>2012-04-14T09:25:44.853Z</time>
      </trkpt>
      <trkpt lat="43.1833" lon="5.90364">
        <ele>714</ele>
        <time>2012-04-14T09:26:05Z</time>
      </trkpt>
      <trkpt lat="43.18365" lon="5.90583">
        <ele>739</ele>
        <time>2012-04-14T09:26:55Z</time>
      </trkpt>
      <trkpt lat="43.18394" lon="5.90697">
        <ele>751</ele>
        <time>2012-04-14T09:27:23Z</time>
      </trkpt>
      <trkpt lat="43.18363" lon="5.90908">
        <ele>751</ele>
        <time>2012-04-14T09:28:13Z</time>
      </trkpt>
      <trkpt lat="43.18374" lon="5.90911">
        <ele>755</ele>
        <time>2012-04-14T09:28:17Z</time>
      </trkpt>
      <trkpt lat="43.18398" lon="5.90818">
        <ele>759</ele>
        <time>2012-04-14T09:28:39Z</time>
      </trkpt>
      <trkpt lat="43.18404" lon="5.90831">
        <ele>765</ele>
        <time>2012-04-14T09:28:42Z</time>
      </trkpt>
      <trkpt lat="43.18384" lon="5.90911">
        <ele>759</ele>
        <time>2012-04-14T09:29:00Z</time>
      </trkpt>
      <trkpt lat="43.18384" lon="5.9094">
        <ele>751</ele>
        <time>2012-04-14T09:29:07Z</time>
      </trkpt>
      <trkpt lat="43.18393" lon="5.90936">
        <ele>755</ele>
        <time>2012-04-14T09:29:13Z</time>
      </trkpt>
      <trkpt lat="43.18442" lon="5.90825">
        <ele>773</ele>
        <time>2012-04-14T09:29:44Z</time>
      </trkpt>
      <trkpt lat="43.18439" lon="5.90816">
        <ele>773</ele>
        <time>2012-04-14T09:29:46Z</time>
      </trkpt>
      <trkpt lat="43.1845" lon="5.90802">
        <ele>772</ele>
        <time>2012-04-14T09:29:55Z</time>
      </trkpt>
      <trkpt lat="43.18435" lon="5.90808">
        <ele>773</ele>
        <time>2012-04-14T09:30:30Z</time>
      </trkpt>
      <trkpt lat="43.18425" lon="5.90853">
        <ele>777</ele>
        <time>2012-04-14T09:30:38Z</time>
      </trkpt>
      <trkpt lat="43.18386" lon="5.90944">
        <ele>751</ele>
        <time>2012-04-14T09:30:55Z</time>
      </trkpt>
      <trkpt lat="43.18403" lon="5.90817">
        <ele>761</ele>
        <time>2012-04-14T09:31:16Z</time>
      </trkpt>
      <trkpt lat="43.18371" lon="5.90919">
        <ele>749</ele>
        <time>2012-04-14T09:31:30Z</time>
      </trkpt>
      <trkpt lat="43.18398" lon="5.90758">
        <ele>758</ele>
        <time>2012-04-14T09:31:46Z</time>
      </trkpt>
      <trkpt lat="43.18402" lon="5.90689">
        <ele>755</ele>
        <time>2012-04-14T09:31:51Z</time>
      </trkpt>
      <trkpt lat="43.18357" lon="5.90539">
        <ele>737</ele>
        <time>2012-04-14T09:32:02Z</time>
      </trkpt>
      <trkpt lat="43.18336" lon="5.90433">
        <ele>728</ele>
        <time>2012-04-14T09:32:08Z</time>
      </trkpt>
      <trkpt lat="43.18324" lon="5.90251">
        <ele>712</ele>
        <time>2012-04-14T09:32:19Z</time>
      </trkpt>
      <trkpt lat="43.18341" lon="5.90203">
        <ele>704</ele>
        <time>2012-04-14T09:32:23Z</time>
      </trkpt>
      <trkpt lat="43.18292" lon="5.90046">
        <ele>695</ele>
        <time>2012-04-14T09:32:36Z</time>
      </trkpt>
      <trkpt lat="43.18288" lon="5.89998">
        <ele>693</ele>
        <time>2012-04-14T09:32:42Z</time>
      </trkpt>
      <trkpt lat="43.18275" lon="5.90007">
        <ele>693</ele>
        <time>2012-04-14T09:32:46Z</time>
      </trkpt>
      <trkpt lat="43.18269" lon="5.90074">
        <ele>692</ele>
        <time>2012-04-14T09:32:53Z</time>
      </trkpt>
      <trkpt lat="43.18289" lon="5.90171">
        <ele>697</ele>
        <time>2012-04-14T09:33:01Z</time>
      </trkpt>
      <trkpt lat="43.18259" lon="5.90306">
        <ele>696</ele>
        <time>2012-04-14T09:33:11Z</time>
      </trkpt>
      <trkpt lat="43.18249" lon="5.90394">
        <ele>671</ele>
        <time>2012-04-14T09:33:17Z</time>
      </trkpt>
      <trkpt lat="43.18256" lon="5.90519">
        <ele>690</ele>
        <time>2012-04-14T09:33:26Z</time>
      </trkpt>
      <trkpt lat="43.18249" lon="5.9052">
        <ele>666</ele>
        <time>2012-04-14T09:33:28Z</time>
      </trkpt>
      <trkpt lat="43.18242" lon="5.90459">
        <ele>664</ele>
        <time>2012-04-14T09:33:36Z</time>
      </trkpt>
      <trkpt lat="43.18195" lon="5.9029">
        <ele>658</ele>
        <time>2012-04-14T09:33:49Z</time>
      </trkpt>
      <trkpt lat="43.18206" lon="5.90208">
        <ele>660</ele>
        <time>2012-04-14T09:33:55Z</time>
      </trkpt>
      <trkpt lat="43.18201" lon="5.90178">
        <ele>657</ele>
        <time>2012-04-14T09:33:57Z</time>
      </trkpt>
      <trkpt lat="43.18166" lon="5.90101">
        <ele>635</ele>
        <time>2012-04-14T09:34:03Z</time>
      </trkpt>
      <trkpt lat="43.1816" lon="5.90005">
        <ele>649</ele>
        <time>2012-04-14T09:34:10Z</time>
      </trkpt>
      <trkpt lat="43.18138" lon="5.89983">
        <ele>650</ele>
        <time>2012-04-14T09:34:13Z</time>
      </trkpt>
      <trkpt lat="43.18097" lon="5.89966">
        <ele>644</ele>
        <time>2012-04-14T09:34:17Z</time>
      </trkpt>
      <trkpt lat="43.18051" lon="5.89926">
        <ele>632</ele>
        <time>2012-04-14T09:34:24Z</time>
      </trkpt>
      <trkpt lat="43.18048" lon="5.89952">
        <ele>626</ele>
        <time>2012-04-14T09:34:27Z</time>
      </trkpt>
      <trkpt lat="43.18126" lon="5.90038">
        <ele>632</ele>
        <time>2012-04-14T09:34:39Z</time>
      </trkpt>
      <trkpt lat="43.18104" lon="5.90099">
        <ele>614</ele>
        <time>2012-04-14T09:34:45Z</time>
      </trkpt>
      <trkpt lat="43.18121" lon="5.90187">
        <ele>616</ele>
        <time>2012-04-14T09:34:52Z</time>
      </trkpt>
      <trkpt lat="43.18091" lon="5.90265">
        <ele>606</ele>
        <time>2012-04-14T09:35:00Z</time>
      </trkpt>
      <trkpt lat="43.18085" lon="5.90331">
        <ele>600</ele>
        <time>2012-04-14T09:35:05Z</time>
      </trkpt>
      <trkpt lat="43.18092" lon="5.90409">
        <ele>601</ele>
        <time>2012-04-14T09:35:10Z</time>
      </trkpt>
      <trkpt lat="43.18076" lon="5.90497">
        <ele>585</ele>
        <time>2012-04-14T09:35:16Z</time>
      </trkpt>
      <trkpt lat="43.18073" lon="5.9056">
        <ele>583</ele>
        <time>2012-04-14T09:35:21Z</time>
      </trkpt>
      <trkpt lat="43.18064" lon="5.90573">
        <ele>583</ele>
        <time>2012-04-14T09:35:23Z</time>
      </trkpt>
      <trkpt lat="43.18032" lon="5.90579">
        <ele>576</ele>
        <time>2012-04-14T09:35:27Z</time>
      </trkpt>
      <trkpt lat="43.18011" lon="5.90611">
        <ele>577</ele>
        <time>2012-04-14T09:35:32Z</time>
      </trkpt>
      <trkpt lat="43.18003" lon="5.90611">
        <ele>576</ele>
        <time>2012-04-14T09:35:34Z</time>
      </trkpt>
      <trkpt lat="43.18004" lon="5.90584">
        <ele>571</ele>
        <time>2012-04-14T09:35:38Z</time>
      </trkpt>
      <trkpt lat="43.18041" lon="5.90554">
        <ele>577</ele>
        <time>2012-04-14T09:35:44Z</time>
      </trkpt>
      <trkpt lat="43.18045" lon="5.90529">
        <ele>577</ele>
        <time>2012-04-14T09:35:47Z</time>
      </trkpt>
      <trkpt lat="43.1803" lon="5.90433">
        <ele>569</ele>
        <time>2012-04-14T09:35:55Z</time>
      </trkpt>
      <trkpt lat="43.17984" lon="5.90328">
        <ele>546</ele>
        <time>2012-04-14T09:36:03Z</time>
      </trkpt>
      <trkpt lat="43.17972" lon="5.90234">
        <ele>543</ele>
        <time>2012-04-14T09:36:09Z</time>
      </trkpt>
      <trkpt lat="43.1794" lon="5.9016">
        <ele>540</ele>
        <time>2012-04-14T09:36:15Z</time>
      </trkpt>
      <trkpt lat="43.17951" lon="5.90157">
        <ele>544</ele>
        <time>2012-04-14T09:36:16Z</time>
      </trkpt>
      <trkpt lat="43.17961" lon="5.90134">
        <ele>548</ele>
        <time>2012-04-14T09:36:19Z</time>
      </trkpt>
      <trkpt lat="43.17947" lon="5.90112">
        <ele>548</ele>
        <time>2012-04-14T09:36:22Z</time>
      </trkpt>
      <trkpt lat="43.17895" lon="5.90101">
        <ele>536</ele>
        <time>2012-04-14T09:36:28Z</time>
      </trkpt>
      <trkpt lat="43.17794" lon="5.90136">
        <ele>516</ele>
        <time>2012-04-14T09:36:38Z</time>
      </trkpt>
      <trkpt lat="43.1771" lon="5.90128">
        <ele>506</ele>
        <time>2012-04-14T09:36:45Z</time>
      </trkpt>
      <trkpt lat="43.17638" lon="5.90104">
        <ele>491</ele>
        <time>2012-04-14T09:36:52Z</time>
      </trkpt>
      <trkpt lat="43.17619" lon="5.90076">
        <ele>500</ele>
        <time>2012-04-14T09:36:55Z</time>
      </trkpt>
      <trkpt lat="43.17603" lon="5.90026">
        <ele>502</ele>
        <time>2012-04-14T09:37:00Z</time>
      </trkpt>
      <trkpt lat="43.17546" lon="5.89972">
        <ele>486</ele>
        <time>2012-04-14T09:37:07Z</time>
      </trkpt>
      <trkpt lat="43.17511" lon="5.89903">
        <ele>483</ele>
        <time>2012-04-14T09:37:13Z</time>
      </trkpt>
      <trkpt lat="43.17512" lon="5.89782">
        <ele>486</ele>
        <time>2012-04-14T09:37:21Z</time>
      </trkpt>
      <trkpt lat="43.17505" lon="5.89767">
        <ele>485</ele>
        <time>2012-04-14T09:37:23Z</time>
      </trkpt>
      <trkpt lat="43.17391" lon="5.89765">
        <ele>454</ele>
        <time>2012-04-14T09:37:35Z</time>
      </trkpt>
      <trkpt lat="43.17377" lon="5.89753">
        <ele>452</ele>
        <time>2012-04-14T09:37:37Z</time>
      </trkpt>
      <trkpt lat="43.17343" lon="5.89669">
        <ele>455</ele>
        <time>2012-04-14T09:37:44Z</time>
      </trkpt>
      <trkpt lat="43.17296" lon="5.89623">
        <ele>441</ele>
        <time>2012-04-14T09:37:49Z</time>
      </trkpt>
      <trkpt lat="43.17283" lon="5.8959">
        <ele>439</ele>
        <time>2012-04-14T09:37:52Z</time>
      </trkpt>
      <trkpt lat="43.1728" lon="5.89539">
        <ele>445</ele>
        <time>2012-04-14T09:37:56Z</time>
      </trkpt>
      <trkpt lat="43.17255" lon="5.8944">
        <ele>452</ele>
        <time>2012-04-14T09:38:03Z</time>
      </trkpt>
      <trkpt lat="43.17165" lon="5.89401">
        <ele>406</ele>
        <time>2012-04-14T09:38:12Z</time>
      </trkpt>
      <trkpt lat="43.17146" lon="5.89377">
        <ele>403</ele>
        <time>2012-04-14T09:38:15Z</time>
      </trkpt>
      <trkpt lat="43.17137" lon="5.89323">
        <ele>407</ele>
        <time>2012-04-14T09:38:19Z</time>
      </trkpt>
      <trkpt lat="43.1714" lon="5.89247">
        <ele>409</ele>
        <time>2012-04-14T09:38:24Z</time>
      </trkpt>
      <trkpt lat="43.17122" lon="5.89141">
        <ele>402</ele>
        <time>2012-04-14T09:38:30Z</time>
      </trkpt>
      <trkpt lat="43.17126" lon="5.89125">
        <ele>403</ele>
        <time>2012-04-14T09:38:31Z</time>
      </trkpt>
      <trkpt lat="43.17097" lon="5.88908">
        <ele>401</ele>
        <time>2012-04-14T09:38:45Z</time>
      </trkpt>
      <trkpt lat="43.1705" lon="5.8884">
        <ele>390</ele>
        <time>2012-04-14T09:38:54Z</time>
      </trkpt>
      <trkpt lat="43.17032" lon="5.88838">
        <ele>388</ele>
        <time>2012-04-14T09:38:59Z</time>
      </trkpt>
      <trkpt lat="43.17074" lon="5.88902">
        <ele>389</ele>
        <time>2012-04-14T09:39:11Z</time>
      </trkpt>
      <trkpt lat="43.17081" lon="5.88937">
        <ele>383</ele>
        <time>2012-04-14T09:39:14Z</time>
      </trkpt>
      <trkpt lat="43.1708" lon="5.89078">
        <ele>378</ele>
        <time>2012-04-14T09:39:24Z</time>
      </trkpt>
      <trkpt lat="43.17069" lon="5.89118">
        <ele>368</ele>
        <time>2012-04-14T09:39:27Z</time>
      </trkpt>
      <trkpt lat="43.17074" lon="5.89237">
        <ele>370</ele>
        <time>2012-04-14T09:39:33.999Z</time>
      </trkpt>
      <trkpt lat="43.17062" lon="5.89293">
        <ele>363</ele>
        <time>2012-04-14T09:39:38Z</time>
      </trkpt>
      <trkpt lat="43.17064" lon="5.89361">
        <ele>362</ele>
        <time>2012-04-14T09:39:43.999Z</time>
      </trkpt>
      <trkpt lat="43.17054" lon="5.89285">
        <ele>362</ele>
        <time>2012-04-14T09:39:51Z</time>
      </trkpt>
      <trkpt lat="43.17056" lon="5.89238">
        <ele>365</ele>
        <time>2012-04-14T09:39:55Z</time>
      </trkpt>
      <trkpt lat="43.17027" lon="5.89142">
        <ele>359</ele>
        <time>2012-04-14T09:40:02Z</time>
      </trkpt>
      <trkpt lat="43.17024" lon="5.89054">
        <ele>363</ele>
        <time>2012-04-14T09:40:08Z</time>
      </trkpt>
      <trkpt lat="43.17005" lon="5.89003">
        <ele>357</ele>
        <time>2012-04-14T09:40:11.999Z</time>
      </trkpt>
      <trkpt lat="43.16959" lon="5.88996">
        <ele>352</ele>
        <time>2012-04-14T09:40:17Z</time>
      </trkpt>
      <trkpt lat="43.16942" lon="5.88982">
        <ele>351</ele>
        <time>2012-04-14T09:40:19Z</time>
      </trkpt>
      <trkpt lat="43.16912" lon="5.88929">
        <ele>352</ele>
        <time>2012-04-14T09:40:25Z</time>
      </trkpt>
      <trkpt lat="43.16899" lon="5.88943">
        <ele>352</ele>
        <time>2012-04-14T09:40:27Z</time>
      </trkpt>
      <trkpt lat="43.16966" lon="5.89057">
        <ele>345</ele>
        <time>2012-04-14T09:40:37.999Z</time>
      </trkpt>
      <trkpt lat="43.16972" lon="5.89389">
        <ele>326</ele>
        <time>2012-04-14T09:40:57Z</time>
      </trkpt>
      <trkpt lat="43.16964" lon="5.89486">
        <ele>317</ele>
        <time>2012-04-14T09:41:02Z</time>
      </trkpt>
      <trkpt lat="43.16974" lon="5.89544">
        <ele>309</ele>
        <time>2012-04-14T09:41:04.999Z</time>
      </trkpt>
      <trkpt lat="43.16989" lon="5.89578">
        <ele>308</ele>
        <time>2012-04-14T09:41:08Z</time>
      </trkpt>
      <trkpt lat="43.17021" lon="5.89613">
        <ele>319</ele>
        <time>2012-04-14T09:41:12Z</time>
      </trkpt>
      <trkpt lat="43.17018" lon="5.89653">
        <ele>315</ele>
        <time>2012-04-14T09:41:15Z</time>
      </trkpt>
      <trkpt lat="43.17009" lon="5.89666">
        <ele>309</ele>
        <time>2012-04-14T09:41:16Z</time>
      </trkpt>
      <trkpt lat="43.17018" lon="5.89735">
        <ele>308</ele>
        <time>2012-04-14T09:41:22Z</time>
      </trkpt>
      <trkpt lat="43.17008" lon="5.89827">
        <ele>298</ele>
        <time>2012-04-14T09:41:28Z</time>
      </trkpt>
      <trkpt lat="43.17014" lon="5.89869">
        <ele>309</ele>
        <time>2012-04-14T09:41:30.999Z</time>
      </trkpt>
      <trkpt lat="43.16994" lon="5.89958">
        <ele>289</ele>
        <time>2012-04-14T09:41:38.999Z</time>
      </trkpt>
      <trkpt lat="43.16989" lon="5.89956">
        <ele>288</ele>
        <time>2012-04-14T09:41:40Z</time>
      </trkpt>
      <trkpt lat="43.17016" lon="5.899">
        <ele>308</ele>
        <time>2012-04-14T09:41:45Z</time>
      </trkpt>
      <trkpt lat="43.17008" lon="5.8978">
        <ele>305</ele>
        <time>2012-04-14T09:41:54Z</time>
      </trkpt>
      <trkpt lat="43.16991" lon="5.89739">
        <ele>291</ele>
        <time>2012-04-14T09:41:57Z</time>
      </trkpt>
      <trkpt lat="43.16956" lon="5.89692">
        <ele>290</ele>
        <time>2012-04-14T09:42:02Z</time>
      </trkpt>
      <trkpt lat="43.16943" lon="5.89642">
        <ele>295</ele>
        <time>2012-04-14T09:42:07Z</time>
      </trkpt>
      <trkpt lat="43.16936" lon="5.89638">
        <ele>295</ele>
        <time>2012-04-14T09:42:08Z</time>
      </trkpt>
      <trkpt lat="43.1694" lon="5.89691">
        <ele>288</ele>
        <time>2012-04-14T09:42:12Z</time>
      </trkpt>
      <trkpt lat="43.16983" lon="5.89767">
        <ele>286</ele>
        <time>2012-04-14T09:42:19Z</time>
      </trkpt>
      <trkpt lat="43.16974" lon="5.89782">
        <ele>284</ele>
        <time>2012-04-14T09:42:20Z</time>
      </trkpt>
      <trkpt lat="43.16961" lon="5.89889">
        <ele>278</ele>
        <time>2012-04-14T09:42:27Z</time>
      </trkpt>
      <trkpt lat="43.16938" lon="5.89951">
        <ele>277</ele>
        <time>2012-04-14T09:42:31Z</time>
      </trkpt>
      <trkpt lat="43.16892" lon="5.90033">
        <ele>254</ele>
        <time>2012-04-14T09:42:37Z</time>
      </trkpt>
      <trkpt lat="43.16865" lon="5.90064">
        <ele>250</ele>
        <time>2012-04-14T09:42:40Z</time>
      </trkpt>
      <trkpt lat="43.16842" lon="5.90073">
        <ele>247</ele>
        <time>2012-04-14T09:42:43Z</time>
      </trkpt>
      <trkpt lat="43.16832" lon="5.90044">
        <ele>236</ele>
        <time>2012-04-14T09:42:46Z</time>
      </trkpt>
      <trkpt lat="43.16899" lon="5.89945">
        <ele>257</ele>
        <time>2012-04-14T09:42:56Z</time>
      </trkpt>
      <trkpt lat="43.16884" lon="5.8992">
        <ele>256</ele>
        <time>2012-04-14T09:42:59Z</time>
      </trkpt>
      <trkpt lat="43.16863" lon="5.89921">
        <ele>255</ele>
        <time>2012-04-14T09:43:01Z</time>
      </trkpt>
      <trkpt lat="43.16858" lon="5.89938">
        <ele>254</ele>
        <time>2012-04-14T09:43:02Z</time>
      </trkpt>
      <trkpt lat="43.16836" lon="5.89949">
        <ele>253</ele>
        <time>2012-04-14T09:43:05Z</time>
      </trkpt>
      <trkpt lat="43.16763" lon="5.89923">
        <ele>247</ele>
        <time>2012-04-14T09:43:12Z</time>
      </trkpt>
      <trkpt lat="43.16657" lon="5.90002">
        <ele>234</ele>
        <time>2012-04-14T09:43:23Z</time>
      </trkpt>
      <trkpt lat="43.16566" lon="5.90051">
        <ele>227</ele>
        <time>2012-04-14T09:43:31.999Z</time>
      </trkpt>
      <trkpt lat="43.16543" lon="5.90027">
        <ele>232</ele>
        <time>2012-04-14T09:43:35Z</time>
      </trkpt>
      <trkpt lat="43.16523" lon="5.90044">
        <ele>230</ele>
        <time>2012-04-14T09:43:38Z</time>
      </trkpt>
      <trkpt lat="43.16513" lon="5.90105">
        <ele>212</ele>
        <time>2012-04-14T09:43:42.999Z</time>
      </trkpt>
      <trkpt lat="43.16501" lon="5.90125">
        <ele>208</ele>
        <time>2012-04-14T09:43:44.999Z</time>
      </trkpt>
      <trkpt lat="43.1649" lon="5.90127">
        <ele>208</ele>
        <time>2012-04-14T09:43:46Z</time>
      </trkpt>
      <trkpt lat="43.16397" lon="5.90072">
        <ele>217</ele>
        <time>2012-04-14T09:43:55Z</time>
      </trkpt>
      <trkpt lat="43.16377" lon="5.9003">
        <ele>219</ele>
        <time>2012-04-14T09:43:59Z</time>
      </trkpt>
      <trkpt lat="43.16333" lon="5.90018">
        <ele>220</ele>
        <time>2012-04-14T09:44:03Z</time>
      </trkpt>
      <trkpt lat="43.16294" lon="5.90084">
        <ele>204</ele>
        <time>2012-04-14T09:44:08Z</time>
      </trkpt>
      <trkpt lat="43.16288" lon="5.90135">
        <ele>200</ele>
        <time>2012-04-14T09:44:11Z</time>
      </trkpt>
      <trkpt lat="43.16266" lon="5.9017">
        <ele>191</ele>
        <time>2012-04-14T09:44:14Z</time>
      </trkpt>
      <trkpt lat="43.1621" lon="5.9021">
        <ele>190</ele>
        <time>2012-04-14T09:44:20Z</time>
      </trkpt>
      <trkpt lat="43.16169" lon="5.9019">
        <ele>194</ele>
        <time>2012-04-14T09:44:25Z</time>
      </trkpt>
      <trkpt lat="43.16127" lon="5.90227">
        <ele>188</ele>
        <time>2012-04-14T09:44:30Z</time>
      </trkpt>
      <trkpt lat="43.16104" lon="5.90217">
        <ele>188</ele>
        <time>2012-04-14T09:44:32.999Z</time>
      </trkpt>
      <trkpt lat="43.16073" lon="5.90182">
        <ele>196</ele>
        <time>2012-04-14T09:44:37Z</time>
      </trkpt>
      <trkpt lat="43.16051" lon="5.90179">
        <ele>197</ele>
        <time>2012-04-14T09:44:39Z</time>
      </trkpt>
      <trkpt lat="43.16034" lon="5.90197">
        <ele>197</ele>
        <time>2012-04-14T09:44:41Z</time>
      </trkpt>
      <trkpt lat="43.16033" lon="5.90216">
        <ele>194</ele>
        <time>2012-04-14T09:44:42Z</time>
      </trkpt>
      <trkpt lat="43.16017" lon="5.90238">
        <ele>193</ele>
        <time>2012-04-14T09:44:44Z</time>
      </trkpt>
      <trkpt lat="43.15942" lon="5.90455">
        <ele>167</ele>
        <time>2012-04-14T09:44:59Z</time>
      </trkpt>
      <trkpt lat="43.15861" lon="5.90611">
        <ele>158</ele>
        <time>2012-04-14T09:45:10Z</time>
      </trkpt>
      <trkpt lat="43.15824" lon="5.90656">
        <ele>159</ele>
        <time>2012-04-14T09:45:14Z</time>
      </trkpt>
      <trkpt lat="43.15802" lon="5.90669">
        <ele>144</ele>
        <time>2012-04-14T09:45:16Z</time>
      </trkpt>
      <trkpt lat="43.15732" lon="5.90649">
        <ele>160</ele>
        <time>2012-04-14T09:45:23Z</time>
      </trkpt>
      <trkpt lat="43.1567" lon="5.9074">
        <ele>141</ele>
        <time>2012-04-14T09:45:31Z</time>
      </trkpt>
      <trkpt lat="43.15622" lon="5.90762">
        <ele>129</ele>
        <time>2012-04-14T09:45:35Z</time>
      </trkpt>
      <trkpt lat="43.15567" lon="5.90754">
        <ele>129</ele>
        <time>2012-04-14T09:45:39.998Z</time>
      </trkpt>
      <trkpt lat="43.15466" lon="5.90671">
        <ele>130</ele>
        <time>2012-04-14T09:45:50Z</time>
      </trkpt>
      <trkpt lat="43.15441" lon="5.90666">
        <ele>133</ele>
        <time>2012-04-14T09:45:52Z</time>
      </trkpt>
      <trkpt lat="43.15416" lon="5.90675">
        <ele>123</ele>
        <time>2012-04-14T09:45:55Z</time>
      </trkpt>
      <trkpt lat="43.15382" lon="5.90728">
        <ele>116</ele>
        <time>2012-04-14T09:46:00Z</time>
      </trkpt>
      <trkpt lat="43.15359" lon="5.90715">
        <ele>116</ele>
        <time>2012-04-14T09:46:03Z</time>
      </trkpt>
      <trkpt lat="43.15358" lon="5.90649">
        <ele>118</ele>
        <time>2012-04-14T09:46:08Z</time>
      </trkpt>
      <trkpt lat="43.15372" lon="5.90529">
        <ele>116</ele>
        <time>2012-04-14T09:46:17Z</time>
      </trkpt>
      <trkpt lat="43.15359" lon="5.904">
        <ele>109</ele>
        <time>2012-04-14T09:46:27Z</time>
      </trkpt>
      <trkpt lat="43.15332" lon="5.90408">
        <ele>104</ele>
        <time>2012-04-14T09:46:30.999Z</time>
      </trkpt>
      <trkpt lat="43.15287" lon="5.90393">
        <ele>101</ele>
        <time>2012-04-14T09:46:36Z</time>
      </trkpt>
      <trkpt lat="43.15178" lon="5.9032">
        <ele>95</ele>
        <time>2012-04-14T09:46:48Z</time>
      </trkpt>
      <trkpt lat="43.15082" lon="5.90302">
        <ele>82</ele>
        <time>2012-04-14T09:46:56.998Z</time>
      </trkpt>
      <trkpt lat="43.15056" lon="5.90288">
        <ele>81</ele>
        <time>2012-04-14T09:47:00Z</time>
      </trkpt>
      <trkpt lat="43.14886" lon="5.9026">
        <ele>68</ele>
        <time>2012-04-14T09:47:13Z</time>
      </trkpt>
      <trkpt lat="43.14862" lon="5.90248">
        <ele>67</ele>
        <time>2012-04-14T09:47:15Z</time>
      </trkpt>
      <trkpt lat="43.14713" lon="5.90228">
        <ele>56</ele>
        <time>2012-04-14T09:47:32Z</time>
      </trkpt>
      <trkpt lat="43.1456" lon="5.90148">
        <ele>51</ele>
        <time>2012-04-14T09:47:51.999Z</time>
      </trkpt>
      <trkpt lat="43.14417" lon="5.90174">
        <ele>43</ele>
        <time>2012-04-14T09:48:06Z</time>
      </trkpt>
      <trkpt lat="43.1433" lon="5.90159">
        <ele>38</ele>
        <time>2012-04-14T09:48:14Z</time>
      </trkpt>
      <trkpt lat="43.14209" lon="5.90185">
        <ele>33</ele>
        <time>2012-04-14T09:48:25Z</time>
      </trkpt>
      <trkpt lat="43.14173" lon="5.90204">
        <ele>32</ele>
        <time>2012-04-14T09:48:32Z</time>
      </trkpt>
      <trkpt lat="43.14138" lon="5.90246">
        <ele>31</ele>
        <time>2012-04-14T09:48:39Z</time>
      </trkpt>
      <trkpt lat="43.14115" lon="5.90291">
        <ele>30</ele>
        <time>2012-04-14T09:48:43.999Z</time>
      </trkpt>
      <trkpt lat="43.14003" lon="5.90365">
        <ele>26</ele>
        <time>2012-04-14T09:48:58Z</time>
      </trkpt>
      <trkpt lat="43.13984" lon="5.90388">
        <ele>25</ele>
        <time>2012-04-14T09:49:01Z</time>
      </trkpt>
      <trkpt lat="43.13918" lon="5.90414">
        <ele>24</ele>
        <time>2012-04-14T09:49:09Z</time>
      </trkpt>
      <trkpt lat="43.13872" lon="5.90449">
        <ele>22</ele>
        <time>2012-04-14T09:49:14Z</time>
      </trkpt>
      <trkpt lat="43.13867" lon="5.90462">
        <ele>22</ele>
        <time>2012-04-14T09:49:15Z</time>
      </trkpt>
      <trkpt lat="43.13801" lon="5.90493">
        <ele>21</ele>
        <time>2012-04-14T09:49:25Z</time>
      </trkpt>
      <trkpt lat="43.13799" lon="5.90487">
        <ele>21</ele>
        <time>2012-04-14T09:49:33Z</time>
      </trkpt>
      <trkpt lat="43.13775" lon="5.90503">
        <ele>20</ele>
        <time>2012-04-14T09:49:52Z</time>
      </trkpt>
      <trkpt lat="43.1374" lon="5.90583">
        <ele>21</ele>
        <time>2012-04-14T09:50:01Z</time>
      </trkpt>
      <trkpt lat="43.13705" lon="5.90636">
        <ele>19</ele>
        <time>2012-04-14T09:50:07.999Z</time>
      </trkpt>
      <trkpt lat="43.13712" lon="5.90647">
        <ele>19</ele>
        <time>2012-04-14T09:50:09Z</time>
      </trkpt>
      <trkpt lat="43.13703" lon="5.90718">
        <ele>18</ele>
        <time>2012-04-14T09:50:18Z</time>
      </trkpt>
      <trkpt lat="43.13694" lon="5.90735">
        <ele>18</ele>
        <time>2012-04-14T09:50:23Z</time>
      </trkpt>
      <trkpt lat="43.13697" lon="5.90769">
        <ele>17</ele>
        <time>2012-04-14T09:50:26Z</time>
      </trkpt>
      <trkpt lat="43.13689" lon="5.90786">
        <ele>16</ele>
        <time>2012-04-14T09:50:31Z</time>
      </trkpt>
      <trkpt lat="43.13691" lon="5.9081">
        <ele>16</ele>
        <time>2012-04-14T09:50:35Z</time>
      </trkpt>
      <trkpt lat="43.13717" lon="5.90817">
        <ele>16</ele>
        <time>2012-04-14T09:50:40Z</time>
      </trkpt>
      <trkpt lat="43.13866" lon="5.90918">
        <ele>16</ele>
        <time>2012-04-14T09:51:06Z</time>
      </trkpt>
      <trkpt lat="43.1394" lon="5.9098">
        <ele>16</ele>
        <time>2012-04-14T09:51:18.999Z</time>
      </trkpt>
      <trkpt lat="43.1408" lon="5.91063">
        <ele>16</ele>
        <time>2012-04-14T09:51:41Z</time>
      </trkpt>
      <trkpt lat="43.14145" lon="5.91067">
        <ele>19</ele>
        <time>2012-04-14T09:51:52Z</time>
      </trkpt>
      <trkpt lat="43.14139" lon="5.91076">
        <ele>19</ele>
        <time>2012-04-14T09:51:55Z</time>
      </trkpt>
      <trkpt lat="43.14077" lon="5.91088">
        <ele>17</ele>
        <time>2012-04-14T09:52:03.999Z</time>
      </trkpt>
      <trkpt lat="43.13983" lon="5.91082">
        <ele>14</ele>
        <time>2012-04-14T09:52:16Z</time>
      </trkpt>
      <trkpt lat="43.13974" lon="5.91092">
        <ele>15</ele>
        <time>2012-04-14T09:52:18Z</time>
      </trkpt>
      <trkpt lat="43.13991" lon="5.91211">
        <ele>19</ele>
        <time>2012-04-14T09:52:38.999Z</time>
      </trkpt>
      <trkpt lat="43.13999" lon="5.91222">
        <ele>20</ele>
        <time>2012-04-14T09:52:41Z</time>
      </trkpt>
      <trkpt lat="43.14006" lon="5.91298">
        <ele>24</ele>
        <time>2012-04-14T09:52:56Z</time>
      </trkpt>
      <trkpt lat="43.14013" lon="5.9131">
        <ele>24</ele>
        <time>2012-04-14T09:52:58Z</time>
      </trkpt>
      <trkpt lat="43.14059" lon="5.91327">
        <ele>25</ele>
        <time>2012-04-14T09:53:07Z</time>
      </trkpt>
      <trkpt lat="43.14179" lon="5.9133">
        <ele>28</ele>
        <time>2012-04-14T09:53:23.999Z</time>
      </trkpt>
      <trkpt lat="43.14224" lon="5.91345">
        <ele>35</ele>
        <time>2012-04-14T09:53:29.998Z</time>
      </trkpt>
      <trkpt lat="43.14264" lon="5.91334">
        <ele>37</ele>
        <time>2012-04-14T09:53:35Z</time>
      </trkpt>
      <trkpt lat="43.14306" lon="5.91302">
        <ele>31</ele>
        <time>2012-04-14T09:53:40Z</time>
      </trkpt>
      <trkpt lat="43.14339" lon="5.91295">
        <ele>37</ele>
        <time>2012-04-14T09:53:44.001Z</time>
      </trkpt>
      <trkpt lat="43.144" lon="5.91255">
        <ele>33</ele>
        <time>2012-04-14T09:53:52Z</time>
      </trkpt>
      <trkpt lat="43.14456" lon="5.91203">
        <ele>26</ele>
        <time>2012-04-14T09:54:00Z</time>
      </trkpt>
      <trkpt lat="43.14519" lon="5.91194">
        <ele>27</ele>
        <time>2012-04-14T09:54:07.999Z</time>
      </trkpt>
      <trkpt lat="43.14526" lon="5.9121">
        <ele>27</ele>
        <time>2012-04-14T09:54:09Z</time>
      </trkpt>
      <trkpt lat="43.14579" lon="5.91236">
        <ele>28</ele>
        <time>2012-04-14T09:54:16Z</time>
      </trkpt>
      <trkpt lat="43.14615" lon="5.91277">
        <ele>32</ele>
        <time>2012-04-14T09:54:22Z</time>
      </trkpt>
      <trkpt lat="43.14747" lon="5.91379">
        <ele>42</ele>
        <time>2012-04-14T09:54:43.999Z</time>
      </trkpt>
      <trkpt lat="43.14776" lon="5.91392">
        <ele>40</ele>
        <time>2012-04-14T09:54:49Z</time>
      </trkpt>
      <trkpt lat="43.14859" lon="5.9138">
        <ele>36</ele>
        <time>2012-04-14T09:55:02Z</time>
      </trkpt>
      <trkpt lat="43.14951" lon="5.91398">
        <ele>36</ele>
        <time>2012-04-14T09:55:14Z</time>
      </trkpt>
      <trkpt lat="43.15046" lon="5.91461">
        <ele>38</ele>
        <time>2012-04-14T09:55:26Z</time>
      </trkpt>
      <trkpt lat="43.15107" lon="5.91473">
        <ele>36</ele>
        <time>2012-04-14T09:55:32Z</time>
      </trkpt>
      <trkpt lat="43.15188" lon="5.91515">
        <ele>40</ele>
        <time>2012-04-14T09:55:42Z</time>
      </trkpt>
      <trkpt lat="43.15287" lon="5.91525">
        <ele>39</ele>
        <time>2012-04-14T09:55:54.999Z</time>
      </trkpt>
      <trkpt lat="43.1534" lon="5.91517">
        <ele>40</ele>
        <time>2012-04-14T09:56:01Z</time>
      </trkpt>
      <trkpt lat="43.15517" lon="5.91576">
        <ele>50</ele>
        <time>2012-04-14T09:56:23Z</time>
      </trkpt>
      <trkpt lat="43.15543" lon="5.91597">
        <ele>46</ele>
        <time>2012-04-14T09:56:27Z</time>
      </trkpt>
      <trkpt lat="43.1557" lon="5.91604">
        <ele>47</ele>
        <time>2012-04-14T09:56:30Z</time>
      </trkpt>
      <trkpt lat="43.15599" lon="5.91628">
        <ele>50</ele>
        <time>2012-04-14T09:56:34Z</time>
      </trkpt>
      <trkpt lat="43.15674" lon="5.91656">
        <ele>52</ele>
        <time>2012-04-14T09:56:45Z</time>
      </trkpt>
      <trkpt lat="43.1571" lon="5.9168">
        <ele>50</ele>
        <time>2012-04-14T09:56:53Z</time>
      </trkpt>
      <trkpt lat="43.15807" lon="5.91792">
        <ele>54</ele>
        <time>2012-04-14T09:57:16Z</time>
      </trkpt>
      <trkpt lat="43.15834" lon="5.91799">
        <ele>57</ele>
        <time>2012-04-14T09:57:21Z</time>
      </trkpt>
      <trkpt lat="43.1589" lon="5.91775">
        <ele>58</ele>
        <time>2012-04-14T09:57:31Z</time>
      </trkpt>
      <trkpt lat="43.15916" lon="5.91784">
        <ele>59</ele>
        <time>2012-04-14T09:57:37Z</time>
      </trkpt>
      <trkpt lat="43.15947" lon="5.91884">
        <ele>58</ele>
        <time>2012-04-14T09:57:47.999Z</time>
      </trkpt>
      <trkpt lat="43.15949" lon="5.91949">
        <ele>57</ele>
        <time>2012-04-14T09:57:54Z</time>
      </trkpt>
      <trkpt lat="43.15964" lon="5.92004">
        <ele>57</ele>
        <time>2012-04-14T09:57:59Z</time>
      </trkpt>
      <trkpt lat="43.15954" lon="5.9205">
        <ele>56</ele>
        <time>2012-04-14T09:58:04Z</time>
      </trkpt>
      <trkpt lat="43.15927" lon="5.9209">
        <ele>57</ele>
        <time>2012-04-14T09:58:09Z</time>
      </trkpt>
      <trkpt lat="43.15921" lon="5.92137">
        <ele>60</ele>
        <time>2012-04-14T09:58:14Z</time>
      </trkpt>
      <trkpt lat="43.15944" lon="5.92176">
        <ele>64</ele>
        <time>2012-04-14T09:58:20Z</time>
      </trkpt>
      <trkpt lat="43.16025" lon="5.92266">
        <ele>65</ele>
        <time>2012-04-14T09:58:38Z</time>
      </trkpt>
      <trkpt lat="43.16144" lon="5.92445">
        <ele>67</ele>
        <time>2012-04-14T09:59:03Z</time>
      </trkpt>
      <trkpt lat="43.16176" lon="5.92506">
        <ele>66</ele>
        <time>2012-04-14T09:59:10Z</time>
      </trkpt>
      <trkpt lat="43.1632" lon="5.92685">
        <ele>65</ele>
        <time>2012-04-14T09:59:31Z</time>
      </trkpt>
      <trkpt lat="43.16321" lon="5.92742">
        <ele>65</ele>
        <time>2012-04-14T09:59:35Z</time>
      </trkpt>
      <trkpt lat="43.16291" lon="5.92803">
        <ele>72</ele>
        <time>2012-04-14T09:59:40.999Z</time>
      </trkpt>
      <trkpt lat="43.16297" lon="5.92874">
        <ele>78</ele>
        <time>2012-04-14T09:59:50.999Z</time>
      </trkpt>
      <trkpt lat="43.16326" lon="5.9297">
        <ele>81</ele>
        <time>2012-04-14T10:00:06Z</time>
      </trkpt>
      <trkpt lat="43.16335" lon="5.93035">
        <ele>76</ele>
        <time>2012-04-14T10:00:14Z</time>
      </trkpt>
      <trkpt lat="43.1636" lon="5.93082">
        <ele>77</ele>
        <time>2012-04-14T10:00:20Z</time>
      </trkpt>
      <trkpt lat="43.16407" lon="5.93292">
        <ele>88</ele>
        <time>2012-04-14T10:00:51Z</time>
      </trkpt>
      <trkpt lat="43.16508" lon="5.9351">
        <ele>87</ele>
        <time>2012-04-14T10:01:21Z</time>
      </trkpt>
      <trkpt lat="43.16531" lon="5.93738">
        <ele>94</ele>
        <time>2012-04-14T10:01:46Z</time>
      </trkpt>
      <trkpt lat="43.16527" lon="5.93837">
        <ele>100</ele>
        <time>2012-04-14T10:01:57.999Z</time>
      </trkpt>
      <trkpt lat="43.16497" lon="5.93965">
        <ele>105</ele>
        <time>2012-04-14T10:02:13Z</time>
      </trkpt>
      <trkpt lat="43.16474" lon="5.94001">
        <ele>105</ele>
        <time>2012-04-14T10:02:19Z</time>
      </trkpt>
      <trkpt lat="43.16465" lon="5.94044">
        <ele>108</ele>
        <time>2012-04-14T10:02:24Z</time>
      </trkpt>
      <trkpt lat="43.1643" lon="5.94123">
        <ele>112</ele>
        <time>2012-04-14T10:02:39Z</time>
      </trkpt>
      <trkpt lat="43.16425" lon="5.94163">
        <ele>115</ele>
        <time>2012-04-14T10:02:44Z</time>
      </trkpt>
      <trkpt lat="43.16392" lon="5.94249">
        <ele>129</ele>
        <time>2012-04-14T10:02:59Z</time>
      </trkpt>
      <trkpt lat="43.16381" lon="5.94311">
        <ele>128</ele>
        <time>2012-04-14T10:03:09Z</time>
      </trkpt>
      <trkpt lat="43.1633" lon="5.94454">
        <ele>139</ele>
        <time>2012-04-14T10:03:36Z</time>
      </trkpt>
      <trkpt lat="43.16317" lon="5.9454">
        <ele>134</ele>
        <time>2012-04-14T10:03:49Z</time>
      </trkpt>
      <trkpt lat="43.16281" lon="5.94617">
        <ele>136</ele>
        <time>2012-04-14T10:04:03Z</time>
      </trkpt>
      <trkpt lat="43.16281" lon="5.9469">
        <ele>137</ele>
        <time>2012-04-14T10:04:14.999Z</time>
      </trkpt>
      <trkpt lat="43.16262" lon="5.94763">
        <ele>142</ele>
        <time>2012-04-14T10:04:28Z</time>
      </trkpt>
      <trkpt lat="43.16259" lon="5.94851">
        <ele>139</ele>
        <time>2012-04-14T10:04:39.999Z</time>
      </trkpt>
      <trkpt lat="43.16251" lon="5.94879">
        <ele>138</ele>
        <time>2012-04-14T10:04:45Z</time>
      </trkpt>
      <trkpt lat="43.16253" lon="5.94933">
        <ele>139</ele>
        <time>2012-04-14T10:04:53Z</time>
      </trkpt>
      <trkpt lat="43.16227" lon="5.9499">
        <ele>148</ele>
        <time>2012-04-14T10:05:07Z</time>
      </trkpt>
      <trkpt lat="43.16228" lon="5.95028">
        <ele>149</ele>
        <time>2012-04-14T10:05:12Z</time>
      </trkpt>
      <trkpt lat="43.16208" lon="5.95087">
        <ele>150</ele>
        <time>2012-04-14T10:05:23Z</time>
      </trkpt>
      <trkpt lat="43.16173" lon="5.95133">
        <ele>151</ele>
        <time>2012-04-14T10:05:34Z</time>
      </trkpt>
      <trkpt lat="43.16084" lon="5.95204">
        <ele>159</ele>
        <time>2012-04-14T10:05:56Z</time>
      </trkpt>
      <trkpt lat="43.16015" lon="5.95297">
        <ele>166</ele>
        <time>2012-04-14T10:06:17Z</time>
      </trkpt>
      <trkpt lat="43.15982" lon="5.95362">
        <ele>174</ele>
        <time>2012-04-14T10:06:29.999Z</time>
      </trkpt>
      <trkpt lat="43.15939" lon="5.95418">
        <ele>177</ele>
        <time>2012-04-14T10:06:43Z</time>
      </trkpt>
      <trkpt lat="43.15927" lon="5.95476">
        <ele>175</ele>
        <time>2012-04-14T10:06:50Z</time>
      </trkpt>
      <trkpt lat="43.15905" lon="5.95508">
        <ele>180</ele>
        <time>2012-04-14T10:06:57Z</time>
      </trkpt>
      <trkpt lat="43.15879" lon="5.95575">
        <ele>182</ele>
        <time>2012-04-14T10:07:08Z</time>
      </trkpt>
      <trkpt lat="43.15794" lon="5.95669">
        <ele>187</ele>
        <time>2012-04-14T10:07:32Z</time>
      </trkpt>
      <trkpt lat="43.15769" lon="5.95752">
        <ele>190</ele>
        <time>2012-04-14T10:07:45Z</time>
      </trkpt>
      <trkpt lat="43.15711" lon="5.95864">
        <ele>199</ele>
        <time>2012-04-14T10:08:07Z</time>
      </trkpt>
      <trkpt lat="43.15712" lon="5.95874">
        <ele>199</ele>
        <time>2012-04-14T10:08:07.999Z</time>
      </trkpt>
      <trkpt lat="43.15619" lon="5.95983">
        <ele>208</ele>
        <time>2012-04-14T10:08:34Z</time>
      </trkpt>
      <trkpt lat="43.15599" lon="5.95994">
        <ele>209</ele>
        <time>2012-04-14T10:08:37.998Z</time>
      </trkpt>
      <trkpt lat="43.15562" lon="5.96069">
        <ele>209</ele>
        <time>2012-04-14T10:08:53Z</time>
      </trkpt>
      <trkpt lat="43.15539" lon="5.96153">
        <ele>208</ele>
        <time>2012-04-14T10:09:08Z</time>
      </trkpt>
      <trkpt lat="43.15528" lon="5.96157">
        <ele>208</ele>
        <time>2012-04-14T10:09:12Z</time>
      </trkpt>
      <trkpt lat="43.15523" lon="5.96172">
        <ele>210</ele>
        <time>2012-04-14T10:09:16Z</time>
      </trkpt>
      <trkpt lat="43.15554" lon="5.96213">
        <ele>213</ele>
        <time>2012-04-14T10:09:23.998Z</time>
      </trkpt>
      <trkpt lat="43.15585" lon="5.96232">
        <ele>220</ele>
        <time>2012-04-14T10:09:32Z</time>
      </trkpt>
      <trkpt lat="43.15714" lon="5.96146">
        <ele>218</ele>
        <time>2012-04-14T10:10:07Z</time>
      </trkpt>
      <trkpt lat="43.15747" lon="5.96162">
        <ele>222</ele>
        <time>2012-04-14T10:10:17Z</time>
      </trkpt>
      <trkpt lat="43.15729" lon="5.96249">
        <ele>225</ele>
        <time>2012-04-14T10:10:32Z</time>
      </trkpt>
      <trkpt lat="43.15718" lon="5.96268">
        <ele>227</ele>
        <time>2012-04-14T10:10:36Z</time>
      </trkpt>
      <trkpt lat="43.15708" lon="5.96383">
        <ele>228</ele>
        <time>2012-04-14T10:10:51Z</time>
      </trkpt>
      <trkpt lat="43.15714" lon="5.96536">
        <ele>236</ele>
        <time>2012-04-14T10:11:16Z</time>
      </trkpt>
      <trkpt lat="43.15694" lon="5.96663">
        <ele>239</ele>
        <time>2012-04-14T10:11:35Z</time>
      </trkpt>
      <trkpt lat="43.1565" lon="5.96773">
        <ele>244</ele>
        <time>2012-04-14T10:11:52Z</time>
      </trkpt>
      <trkpt lat="43.15632" lon="5.96847">
        <ele>245</ele>
        <time>2012-04-14T10:12:01Z</time>
      </trkpt>
      <trkpt lat="43.15567" lon="5.9696">
        <ele>242</ele>
        <time>2012-04-14T10:12:18Z</time>
      </trkpt>
      <trkpt lat="43.15558" lon="5.96996">
        <ele>242</ele>
        <time>2012-04-14T10:12:21Z</time>
      </trkpt>
      <trkpt lat="43.15587" lon="5.97129">
        <ele>245</ele>
        <time>2012-04-14T10:12:33Z</time>
      </trkpt>
      <trkpt lat="43.15582" lon="5.97251">
        <ele>238</ele>
        <time>2012-04-14T10:12:44Z</time>
      </trkpt>
      <trkpt lat="43.15596" lon="5.97319">
        <ele>240</ele>
        <time>2012-04-14T10:12:50Z</time>
      </trkpt>
      <trkpt lat="43.15658" lon="5.97404">
        <ele>241</ele>
        <time>2012-04-14T10:13:00Z</time>
      </trkpt>
      <trkpt lat="43.15671" lon="5.97467">
        <ele>247</ele>
        <time>2012-04-14T10:13:05.999Z</time>
      </trkpt>
      <trkpt lat="43.15668" lon="5.97484">
        <ele>245</ele>
        <time>2012-04-14T10:13:09Z</time>
      </trkpt>
      <trkpt lat="43.15685" lon="5.9759">
        <ele>248</ele>
        <time>2012-04-14T10:13:29Z</time>
      </trkpt>
      <trkpt lat="43.15696" lon="5.97616">
        <ele>253</ele>
        <time>2012-04-14T10:13:37Z</time>
      </trkpt>
      <trkpt lat="43.15691" lon="5.97645">
        <ele>253</ele>
        <time>2012-04-14T10:13:44Z</time>
      </trkpt>
      <trkpt lat="43.15702" lon="5.97666">
        <ele>255</ele>
        <time>2012-04-14T10:13:51Z</time>
      </trkpt>
      <trkpt lat="43.15707" lon="5.97711">
        <ele>261</ele>
        <time>2012-04-14T10:14:00Z</time>
      </trkpt>
      <trkpt lat="43.15724" lon="5.97754">
        <ele>271</ele>
        <time>2012-04-14T10:14:13Z</time>
      </trkpt>
      <trkpt lat="43.15725" lon="5.97816">
        <ele>273</ele>
        <time>2012-04-14T10:14:26Z</time>
      </trkpt>
      <trkpt lat="43.1571" lon="5.97857">
        <ele>278</ele>
        <time>2012-04-14T10:14:36Z</time>
      </trkpt>
      <trkpt lat="43.15683" lon="5.97859">
        <ele>275</ele>
        <time>2012-04-14T10:14:43Z</time>
      </trkpt>
      <trkpt lat="43.15654" lon="5.97838">
        <ele>263</ele>
        <time>2012-04-14T10:14:51Z</time>
      </trkpt>
      <trkpt lat="43.15647" lon="5.97862">
        <ele>261</ele>
        <time>2012-04-14T10:14:57Z</time>
      </trkpt>
      <trkpt lat="43.15668" lon="5.97922">
        <ele>274</ele>
        <time>2012-04-14T10:15:14Z</time>
      </trkpt>
      <trkpt lat="43.15669" lon="5.97947">
        <ele>278</ele>
        <time>2012-04-14T10:15:20Z</time>
      </trkpt>
      <trkpt lat="43.15685" lon="5.9796">
        <ele>280</ele>
        <time>2012-04-14T10:15:26Z</time>
      </trkpt>
      <trkpt lat="43.15686" lon="5.9792">
        <ele>278</ele>
        <time>2012-04-14T10:15:37Z</time>
      </trkpt>
      <trkpt lat="43.15708" lon="5.97918">
        <ele>283</ele>
        <time>2012-04-14T10:15:45Z</time>
      </trkpt>
      <trkpt lat="43.15788" lon="5.97827">
        <ele>290</ele>
        <time>2012-04-14T10:16:23Z</time>
      </trkpt>
      <trkpt lat="43.15806" lon="5.97757">
        <ele>291</ele>
        <time>2012-04-14T10:16:44Z</time>
      </trkpt>
      <trkpt lat="43.1585" lon="5.97747">
        <ele>296</ele>
        <time>2012-04-14T10:17:04Z</time>
      </trkpt>
      <trkpt lat="43.15937" lon="5.97782">
        <ele>321</ele>
        <time>2012-04-14T10:17:40Z</time>
      </trkpt>
      <trkpt lat="43.16057" lon="5.9765">
        <ele>327</ele>
        <time>2012-04-14T10:18:37Z</time>
      </trkpt>
      <trkpt lat="43.16077" lon="5.97608">
        <ele>326</ele>
        <time>2012-04-14T10:18:47Z</time>
      </trkpt>
      <trkpt lat="43.1608" lon="5.97578">
        <ele>326</ele>
        <time>2012-04-14T10:18:52Z</time>
      </trkpt>
      <trkpt lat="43.16092" lon="5.97568">
        <ele>333</ele>
        <time>2012-04-14T10:18:56Z</time>
      </trkpt>
      <trkpt lat="43.16033" lon="5.97776">
        <ele>346</ele>
        <time>2012-04-14T10:19:42.998Z</time>
      </trkpt>
      <trkpt lat="43.16032" lon="5.97829">
        <ele>349</ele>
        <time>2012-04-14T10:19:54.999Z</time>
      </trkpt>
      <trkpt lat="43.16041" lon="5.97878">
        <ele>360</ele>
        <time>2012-04-14T10:20:06Z</time>
      </trkpt>
      <trkpt lat="43.16034" lon="5.97936">
        <ele>367</ele>
        <time>2012-04-14T10:20:22Z</time>
      </trkpt>
      <trkpt lat="43.15983" lon="5.98057">
        <ele>366</ele>
        <time>2012-04-14T10:20:58Z</time>
      </trkpt>
      <trkpt lat="43.15978" lon="5.98095">
        <ele>373</ele>
        <time>2012-04-14T10:21:07Z</time>
      </trkpt>
      <trkpt lat="43.1599" lon="5.98216">
        <ele>378</ele>
        <time>2012-04-14T10:21:40Z</time>
      </trkpt>
      <trkpt lat="43.16003" lon="5.98243">
        <ele>392</ele>
        <time>2012-04-14T10:21:48Z</time>
      </trkpt>
      <trkpt lat="43.15992" lon="5.98394">
        <ele>385</ele>
        <time>2012-04-14T10:22:31Z</time>
      </trkpt>
      <trkpt lat="43.16016" lon="5.98485">
        <ele>407</ele>
        <time>2012-04-14T10:22:54Z</time>
      </trkpt>
      <trkpt lat="43.16001" lon="5.98562">
        <ele>413</ele>
        <time>2012-04-14T10:23:08Z</time>
      </trkpt>
      <trkpt lat="43.16009" lon="5.98577">
        <ele>411</ele>
        <time>2012-04-14T10:23:11Z</time>
      </trkpt>
      <trkpt lat="43.16026" lon="5.9855">
        <ele>416</ele>
        <time>2012-04-14T10:23:16Z</time>
      </trkpt>
      <trkpt lat="43.16039" lon="5.98476">
        <ele>414</ele>
        <time>2012-04-14T10:23:30Z</time>
      </trkpt>
      <trkpt lat="43.16085" lon="5.98359">
        <ele>439</ele>
        <time>2012-04-14T10:24:03Z</time>
      </trkpt>
      <trkpt lat="43.16162" lon="5.98206">
        <ele>437</ele>
        <time>2012-04-14T10:24:58Z</time>
      </trkpt>
      <trkpt lat="43.16183" lon="5.98135">
        <ele>449</ele>
        <time>2012-04-14T10:25:16Z</time>
      </trkpt>
      <trkpt lat="43.16256" lon="5.98026">
        <ele>455</ele>
        <time>2012-04-14T10:25:46Z</time>
      </trkpt>
      <trkpt lat="43.16262" lon="5.98044">
        <ele>458</ele>
        <time>2012-04-14T10:25:49Z</time>
      </trkpt>
      <trkpt lat="43.1623" lon="5.981">
        <ele>455</ele>
        <time>2012-04-14T10:26:01Z</time>
      </trkpt>
      <trkpt lat="43.16214" lon="5.98157">
        <ele>455</ele>
        <time>2012-04-14T10:26:13Z</time>
      </trkpt>
      <trkpt lat="43.1621" lon="5.98289">
        <ele>469</ele>
        <time>2012-04-14T10:26:41Z</time>
      </trkpt>
      <trkpt lat="43.16183" lon="5.9841">
        <ele>476</ele>
        <time>2012-04-14T10:27:09Z</time>
      </trkpt>
      <trkpt lat="43.16196" lon="5.98707">
        <ele>494</ele>
        <time>2012-04-14T10:28:10Z</time>
      </trkpt>
      <trkpt lat="43.16289" lon="5.98942">
        <ele>510</ele>
        <time>2012-04-14T10:28:59Z</time>
      </trkpt>
      <trkpt lat="43.16313" lon="5.98975">
        <ele>511</ele>
        <time>2012-04-14T10:29:06Z</time>
      </trkpt>
      <trkpt lat="43.16334" lon="5.99043">
        <ele>517</ele>
        <time>2012-04-14T10:29:18Z</time>
      </trkpt>
      <trkpt lat="43.16369" lon="5.99115">
        <ele>519</ele>
        <time>2012-04-14T10:29:34Z</time>
      </trkpt>
      <trkpt lat="43.16323" lon="5.99171">
        <ele>516</ele>
        <time>2012-04-14T10:29:48Z</time>
      </trkpt>
      <trkpt lat="43.16336" lon="5.99253">
        <ele>522</ele>
        <time>2012-04-14T10:30:01Z</time>
      </trkpt>
      <trkpt lat="43.16316" lon="5.99306">
        <ele>522</ele>
        <time>2012-04-14T10:30:11Z</time>
      </trkpt>
      <trkpt lat="43.16314" lon="5.99348">
        <ele>528</ele>
        <time>2012-04-14T10:30:20Z</time>
      </trkpt>
      <trkpt lat="43.16284" lon="5.99442">
        <ele>535</ele>
        <time>2012-04-14T10:30:44Z</time>
      </trkpt>
      <trkpt lat="43.1629" lon="5.99538">
        <ele>546</ele>
        <time>2012-04-14T10:31:10Z</time>
      </trkpt>
      <trkpt lat="43.16264" lon="5.99702">
        <ele>565</ele>
        <time>2012-04-14T10:31:50Z</time>
      </trkpt>
      <trkpt lat="43.16257" lon="5.99695">
        <ele>562</ele>
        <time>2012-04-14T10:31:51Z</time>
      </trkpt>
      <trkpt lat="43.16212" lon="5.99699">
        <ele>552</ele>
        <time>2012-04-14T10:32:03Z</time>
      </trkpt>
      <trkpt lat="43.16166" lon="5.99723">
        <ele>547</ele>
        <time>2012-04-14T10:32:18Z</time>
      </trkpt>
      <trkpt lat="43.16153" lon="5.99744">
        <ele>550</ele>
        <time>2012-04-14T10:32:24Z</time>
      </trkpt>
      <trkpt lat="43.16123" lon="5.99843">
        <ele>575</ele>
        <time>2012-04-14T10:32:48Z</time>
      </trkpt>
      <trkpt lat="43.16099" lon="5.9987">
        <ele>575</ele>
        <time>2012-04-14T10:32:58Z</time>
      </trkpt>
      <trkpt lat="43.16037" lon="5.99904">
        <ele>565</ele>
        <time>2012-04-14T10:33:20Z</time>
      </trkpt>
      <trkpt lat="43.16" lon="5.99943">
        <ele>552</ele>
        <time>2012-04-14T10:33:34Z</time>
      </trkpt>
      <trkpt lat="43.15968" lon="5.99956">
        <ele>545</ele>
        <time>2012-04-14T10:33:44Z</time>
      </trkpt>
      <trkpt lat="43.15967" lon="5.99973">
        <ele>546</ele>
        <time>2012-04-14T10:33:47Z</time>
      </trkpt>
      <trkpt lat="43.15984" lon="5.99989">
        <ele>556</ele>
        <time>2012-04-14T10:33:52Z</time>
      </trkpt>
      <trkpt lat="43.16015" lon="5.99965">
        <ele>576</ele>
        <time>2012-04-14T10:34:02Z</time>
      </trkpt>
      <trkpt lat="43.16067" lon="5.99955">
        <ele>581</ele>
        <time>2012-04-14T10:34:18Z</time>
      </trkpt>
      <trkpt lat="43.16158" lon="5.99966">
        <ele>598</ele>
        <time>2012-04-14T10:34:47Z</time>
      </trkpt>
      <trkpt lat="43.16242" lon="5.99961">
        <ele>603</ele>
        <time>2012-04-14T10:35:12Z</time>
      </trkpt>
      <trkpt lat="43.16262" lon="6.00037">
        <ele>607</ele>
        <time>2012-04-14T10:35:30Z</time>
      </trkpt>
      <trkpt lat="43.16199" lon="6.00051">
        <ele>606</ele>
        <time>2012-04-14T10:35:44Z</time>
      </trkpt>
      <trkpt lat="43.1617" lon="6.00074">
        <ele>608</ele>
        <time>2012-04-14T10:35:50Z</time>
      </trkpt>
      <trkpt lat="43.16152" lon="6.00116">
        <ele>608</ele>
        <time>2012-04-14T10:35:57Z</time>
      </trkpt>
      <trkpt lat="43.16076" lon="6.00215">
        <ele>605</ele>
        <time>2012-04-14T10:36:16Z</time>
      </trkpt>
      <trkpt lat="43.16072" lon="6.00241">
        <ele>606</ele>
        <time>2012-04-14T10:36:19Z</time>
      </trkpt>
      <trkpt lat="43.16098" lon="6.003">
        <ele>613</ele>
        <time>2012-04-14T10:36:29Z</time>
      </trkpt>
      <trkpt lat="43.16153" lon="6.00374">
        <ele>622</ele>
        <time>2012-04-14T10:36:52Z</time>
      </trkpt>
      <trkpt lat="43.16206" lon="6.005">
        <ele>633</ele>
        <time>2012-04-14T10:37:26Z</time>
      </trkpt>
      <trkpt lat="43.16254" lon="6.00522">
        <ele>632</ele>
        <time>2012-04-14T10:37:42Z</time>
      </trkpt>
      <trkpt lat="43.1627" lon="6.00562">
        <ele>635</ele>
        <time>2012-04-14T10:37:52Z</time>
      </trkpt>
      <trkpt lat="43.16267" lon="6.00612">
        <ele>639</ele>
        <time>2012-04-14T10:38:05Z</time>
      </trkpt>
      <trkpt lat="43.16235" lon="6.00697">
        <ele>654</ele>
        <time>2012-04-14T10:38:30Z</time>
      </trkpt>
      <trkpt lat="43.16195" lon="6.00764">
        <ele>646</ele>
        <time>2012-04-14T10:38:49Z</time>
      </trkpt>
      <trkpt lat="43.16202" lon="6.00824">
        <ele>634</ele>
        <time>2012-04-14T10:39:01Z</time>
      </trkpt>
      <trkpt lat="43.16175" lon="6.00763">
        <ele>655</ele>
        <time>2012-04-14T10:39:19Z</time>
      </trkpt>
      <trkpt lat="43.16174" lon="6.00688">
        <ele>664</ele>
        <time>2012-04-14T10:39:39Z</time>
      </trkpt>
      <trkpt lat="43.16155" lon="6.0063">
        <ele>660</ele>
        <time>2012-04-14T10:39:55Z</time>
      </trkpt>
      <trkpt lat="43.16127" lon="6.00618">
        <ele>656</ele>
        <time>2012-04-14T10:40:05Z</time>
      </trkpt>
      <trkpt lat="43.16096" lon="6.00663">
        <ele>661</ele>
        <time>2012-04-14T10:40:21Z</time>
      </trkpt>
      <trkpt lat="43.16076" lon="6.00758">
        <ele>678</ele>
        <time>2012-04-14T10:40:46Z</time>
      </trkpt>
      <trkpt lat="43.16102" lon="6.00667">
        <ele>667</ele>
        <time>2012-04-14T10:41:03Z</time>
      </trkpt>
      <trkpt lat="43.16118" lon="6.00638">
        <ele>658</ele>
        <time>2012-04-14T10:41:06Z</time>
      </trkpt>
      <trkpt lat="43.16144" lon="6.00617">
        <ele>658</ele>
        <time>2012-04-14T10:41:10Z</time>
      </trkpt>
      <trkpt lat="43.16162" lon="6.00618">
        <ele>659</ele>
        <time>2012-04-14T10:41:12Z</time>
      </trkpt>
      <trkpt lat="43.16183" lon="6.00799">
        <ele>643</ele>
        <time>2012-04-14T10:41:24Z</time>
      </trkpt>
      <trkpt lat="43.16195" lon="6.00828">
        <ele>638</ele>
        <time>2012-04-14T10:41:27Z</time>
      </trkpt>
      <trkpt lat="43.16204" lon="6.0082">
        <ele>633</ele>
        <time>2012-04-14T10:41:30Z</time>
      </trkpt>
      <trkpt lat="43.16193" lon="6.00783">
        <ele>643</ele>
        <time>2012-04-14T10:41:35Z</time>
      </trkpt>
      <trkpt lat="43.16221" lon="6.00752">
        <ele>639</ele>
        <time>2012-04-14T10:41:38Z</time>
      </trkpt>
      <trkpt lat="43.1627" lon="6.00625">
        <ele>638</ele>
        <time>2012-04-14T10:41:47Z</time>
      </trkpt>
      <trkpt lat="43.16271" lon="6.00561">
        <ele>634</ele>
        <time>2012-04-14T10:41:51Z</time>
      </trkpt>
      <trkpt lat="43.16244" lon="6.00511">
        <ele>637</ele>
        <time>2012-04-14T10:41:56Z</time>
      </trkpt>
      <trkpt lat="43.16194" lon="6.00484">
        <ele>634</ele>
        <time>2012-04-14T10:42:01Z</time>
      </trkpt>
      <trkpt lat="43.16161" lon="6.00386">
        <ele>624</ele>
        <time>2012-04-14T10:42:08Z</time>
      </trkpt>
      <trkpt lat="43.16065" lon="6.00236">
        <ele>605</ele>
        <time>2012-04-14T10:42:20Z</time>
      </trkpt>
      <trkpt lat="43.16189" lon="6.00059">
        <ele>607</ele>
        <time>2012-04-14T10:42:40Z</time>
      </trkpt>
      <trkpt lat="43.16259" lon="6.00041">
        <ele>607</ele>
        <time>2012-04-14T10:42:49Z</time>
      </trkpt>
      <trkpt lat="43.16262" lon="6">
        <ele>605</ele>
        <time>2012-04-14T10:42:53Z</time>
      </trkpt>
      <trkpt lat="43.16254" lon="5.9996">
        <ele>605</ele>
        <time>2012-04-14T10:42:57Z</time>
      </trkpt>
      <trkpt lat="43.16243" lon="5.99946">
        <ele>603</ele>
        <time>2012-04-14T10:42:59Z</time>
      </trkpt>
      <trkpt lat="43.1617" lon="5.99958">
        <ele>602</ele>
        <time>2012-04-14T10:43:08Z</time>
      </trkpt>
      <trkpt lat="43.16076" lon="5.99944">
        <ele>580</ele>
        <time>2012-04-14T10:43:16Z</time>
      </trkpt>
      <trkpt lat="43.16003" lon="5.99955">
        <ele>574</ele>
        <time>2012-04-14T10:43:22Z</time>
      </trkpt>
      <trkpt lat="43.15976" lon="5.99977">
        <ele>550</ele>
        <time>2012-04-14T10:43:26Z</time>
      </trkpt>
      <trkpt lat="43.15977" lon="5.99955">
        <ele>547</ele>
        <time>2012-04-14T10:43:29Z</time>
      </trkpt>
      <trkpt lat="43.16108" lon="5.9987">
        <ele>576</ele>
        <time>2012-04-14T10:43:45Z</time>
      </trkpt>
      <trkpt lat="43.16131" lon="5.99835">
        <ele>576</ele>
        <time>2012-04-14T10:43:48Z</time>
      </trkpt>
      <trkpt lat="43.16166" lon="5.99736">
        <ele>550</ele>
        <time>2012-04-14T10:43:55Z</time>
      </trkpt>
      <trkpt lat="43.16223" lon="5.99706">
        <ele>553</ele>
        <time>2012-04-14T10:44:01Z</time>
      </trkpt>
      <trkpt lat="43.16262" lon="5.99706">
        <ele>565</ele>
        <time>2012-04-14T10:44:05Z</time>
      </trkpt>
      <trkpt lat="43.16282" lon="5.99668">
        <ele>564</ele>
        <time>2012-04-14T10:44:09Z</time>
      </trkpt>
      <trkpt lat="43.16278" lon="5.99658">
        <ele>556</ele>
        <time>2012-04-14T10:44:10Z</time>
      </trkpt>
      <trkpt lat="43.16295" lon="5.99534">
        <ele>546</ele>
        <time>2012-04-14T10:44:19Z</time>
      </trkpt>
      <trkpt lat="43.16289" lon="5.99444">
        <ele>536</ele>
        <time>2012-04-14T10:44:25Z</time>
      </trkpt>
      <trkpt lat="43.16322" lon="5.99354">
        <ele>528</ele>
        <time>2012-04-14T10:44:31Z</time>
      </trkpt>
      <trkpt lat="43.16353" lon="5.99198">
        <ele>520</ele>
        <time>2012-04-14T10:44:41Z</time>
      </trkpt>
      <trkpt lat="43.1634" lon="5.99186">
        <ele>519</ele>
        <time>2012-04-14T10:44:42Z</time>
      </trkpt>
      <trkpt lat="43.16346" lon="5.99159">
        <ele>517</ele>
        <time>2012-04-14T10:44:45Z</time>
      </trkpt>
      <trkpt lat="43.16374" lon="5.99126">
        <ele>519</ele>
        <time>2012-04-14T10:44:49Z</time>
      </trkpt>
      <trkpt lat="43.16381" lon="5.99092">
        <ele>520</ele>
        <time>2012-04-14T10:44:52Z</time>
      </trkpt>
      <trkpt lat="43.16377" lon="5.99053">
        <ele>520</ele>
        <time>2012-04-14T10:44:55Z</time>
      </trkpt>
      <trkpt lat="43.16268" lon="5.98873">
        <ele>507</ele>
        <time>2012-04-14T10:45:12Z</time>
      </trkpt>
      <trkpt lat="43.162" lon="5.98698">
        <ele>493</ele>
        <time>2012-04-14T10:45:25Z</time>
      </trkpt>
      <trkpt lat="43.16205" lon="5.98574">
        <ele>489</ele>
        <time>2012-04-14T10:45:33Z</time>
      </trkpt>
      <trkpt lat="43.16189" lon="5.98403">
        <ele>478</ele>
        <time>2012-04-14T10:45:43Z</time>
      </trkpt>
      <trkpt lat="43.16224" lon="5.98236">
        <ele>464</ele>
        <time>2012-04-14T10:45:53Z</time>
      </trkpt>
      <trkpt lat="43.16222" lon="5.98167">
        <ele>461</ele>
        <time>2012-04-14T10:45:57Z</time>
      </trkpt>
      <trkpt lat="43.1624" lon="5.9809">
        <ele>457</ele>
        <time>2012-04-14T10:46:02Z</time>
      </trkpt>
      <trkpt lat="43.16268" lon="5.98029">
        <ele>456</ele>
        <time>2012-04-14T10:46:08Z</time>
      </trkpt>
      <trkpt lat="43.16243" lon="5.98033">
        <ele>445</ele>
        <time>2012-04-14T10:46:11Z</time>
      </trkpt>
      <trkpt lat="43.16228" lon="5.98069">
        <ele>448</ele>
        <time>2012-04-14T10:46:15Z</time>
      </trkpt>
      <trkpt lat="43.16181" lon="5.9813">
        <ele>449</ele>
        <time>2012-04-14T10:46:22Z</time>
      </trkpt>
      <trkpt lat="43.16169" lon="5.98177">
        <ele>449</ele>
        <time>2012-04-14T10:46:25Z</time>
      </trkpt>
      <trkpt lat="43.16063" lon="5.98411">
        <ele>421</ele>
        <time>2012-04-14T10:46:39Z</time>
      </trkpt>
      <trkpt lat="43.16019" lon="5.98559">
        <ele>415</ele>
        <time>2012-04-14T10:46:48Z</time>
      </trkpt>
      <trkpt lat="43.16007" lon="5.98564">
        <ele>413</ele>
        <time>2012-04-14T10:46:52Z</time>
      </trkpt>
      <trkpt lat="43.16024" lon="5.98474">
        <ele>411</ele>
        <time>2012-04-14T10:47:01Z</time>
      </trkpt>
      <trkpt lat="43.16002" lon="5.98384">
        <ele>406</ele>
        <time>2012-04-14T10:47:09Z</time>
      </trkpt>
      <trkpt lat="43.16013" lon="5.98269">
        <ele>399</ele>
        <time>2012-04-14T10:47:17Z</time>
      </trkpt>
      <trkpt lat="43.15993" lon="5.98193">
        <ele>379</ele>
        <time>2012-04-14T10:47:23Z</time>
      </trkpt>
      <trkpt lat="43.15984" lon="5.98092">
        <ele>374</ele>
        <time>2012-04-14T10:47:33Z</time>
      </trkpt>
      <trkpt lat="43.16049" lon="5.97887">
        <ele>362</ele>
        <time>2012-04-14T10:47:47Z</time>
      </trkpt>
      <trkpt lat="43.16043" lon="5.97777">
        <ele>348</ele>
        <time>2012-04-14T10:47:53Z</time>
      </trkpt>
      <trkpt lat="43.16102" lon="5.97566">
        <ele>334</ele>
        <time>2012-04-14T10:48:07Z</time>
      </trkpt>
      <trkpt lat="43.1608" lon="5.97561">
        <ele>319</ele>
        <time>2012-04-14T10:48:10Z</time>
      </trkpt>
      <trkpt lat="43.16058" lon="5.9764">
        <ele>326</ele>
        <time>2012-04-14T10:48:16Z</time>
      </trkpt>
      <trkpt lat="43.15942" lon="5.97773">
        <ele>321</ele>
        <time>2012-04-14T10:48:28Z</time>
      </trkpt>
      <trkpt lat="43.15872" lon="5.9774">
        <ele>297</ele>
        <time>2012-04-14T10:48:34Z</time>
      </trkpt>
      <trkpt lat="43.158" lon="5.97756">
        <ele>290</ele>
        <time>2012-04-14T10:48:41Z</time>
      </trkpt>
      <trkpt lat="43.15777" lon="5.97832">
        <ele>288</ele>
        <time>2012-04-14T10:48:47Z</time>
      </trkpt>
      <trkpt lat="43.15715" lon="5.97906">
        <ele>281</ele>
        <time>2012-04-14T10:48:54Z</time>
      </trkpt>
      <trkpt lat="43.15676" lon="5.97921">
        <ele>276</ele>
        <time>2012-04-14T10:48:59Z</time>
      </trkpt>
      <trkpt lat="43.15676" lon="5.97958">
        <ele>279</ele>
        <time>2012-04-14T10:49:04Z</time>
      </trkpt>
      <trkpt lat="43.15662" lon="5.97841">
        <ele>264</ele>
        <time>2012-04-14T10:49:18Z</time>
      </trkpt>
      <trkpt lat="43.15694" lon="5.97859">
        <ele>276</ele>
        <time>2012-04-14T10:49:24Z</time>
      </trkpt>
      <trkpt lat="43.15715" lon="5.97833">
        <ele>272</ele>
        <time>2012-04-14T10:49:28Z</time>
      </trkpt>
      <trkpt lat="43.15718" lon="5.97677">
        <ele>262</ele>
        <time>2012-04-14T10:49:38Z</time>
      </trkpt>
      <trkpt lat="43.15702" lon="5.97636">
        <ele>254</ele>
        <time>2012-04-14T10:49:41Z</time>
      </trkpt>
      <trkpt lat="43.15685" lon="5.97546">
        <ele>249</ele>
        <time>2012-04-14T10:49:47Z</time>
      </trkpt>
      <trkpt lat="43.1568" lon="5.97465">
        <ele>247</ele>
        <time>2012-04-14T10:49:52Z</time>
      </trkpt>
      <trkpt lat="43.15668" lon="5.97416">
        <ele>244</ele>
        <time>2012-04-14T10:49:56Z</time>
      </trkpt>
      <trkpt lat="43.15673" lon="5.97393">
        <ele>248</ele>
        <time>2012-04-14T10:49:59Z</time>
      </trkpt>
      <trkpt lat="43.15668" lon="5.9738">
        <ele>248</ele>
        <time>2012-04-14T10:50:01Z</time>
      </trkpt>
      <trkpt lat="43.15613" lon="5.97344">
        <ele>238</ele>
        <time>2012-04-14T10:50:10Z</time>
      </trkpt>
      <trkpt lat="43.1559" lon="5.9729">
        <ele>242</ele>
        <time>2012-04-14T10:50:16Z</time>
      </trkpt>
      <trkpt lat="43.15585" lon="5.97254">
        <ele>240</ele>
        <time>2012-04-14T10:50:19Z</time>
      </trkpt>
      <trkpt lat="43.15591" lon="5.97239">
        <ele>242</ele>
        <time>2012-04-14T10:50:20Z</time>
      </trkpt>
      <trkpt lat="43.15587" lon="5.97196">
        <ele>244</ele>
        <time>2012-04-14T10:50:24Z</time>
      </trkpt>
      <trkpt lat="43.15595" lon="5.97156">
        <ele>243</ele>
        <time>2012-04-14T10:50:27Z</time>
      </trkpt>
      <trkpt lat="43.15565" lon="5.97005">
        <ele>241</ele>
        <time>2012-04-14T10:50:40Z</time>
      </trkpt>
      <trkpt lat="43.15578" lon="5.9696">
        <ele>242</ele>
        <time>2012-04-14T10:50:44Z</time>
      </trkpt>
      <trkpt lat="43.15638" lon="5.96855">
        <ele>245</ele>
        <time>2012-04-14T10:50:56Z</time>
      </trkpt>
      <trkpt lat="43.15666" lon="5.96753">
        <ele>242</ele>
        <time>2012-04-14T10:51:04Z</time>
      </trkpt>
      <trkpt lat="43.15705" lon="5.96656">
        <ele>237</ele>
        <time>2012-04-14T10:51:13Z</time>
      </trkpt>
      <trkpt lat="43.1572" lon="5.96578">
        <ele>236</ele>
        <time>2012-04-14T10:51:20Z</time>
      </trkpt>
      <trkpt lat="43.15712" lon="5.96384">
        <ele>228</ele>
        <time>2012-04-14T10:51:34Z</time>
      </trkpt>
      <trkpt lat="43.15754" lon="5.96142">
        <ele>219</ele>
        <time>2012-04-14T10:51:50Z</time>
      </trkpt>
      <trkpt lat="43.15732" lon="5.96142">
        <ele>219</ele>
        <time>2012-04-14T10:51:51Z</time>
      </trkpt>
      <trkpt lat="43.15722" lon="5.96132">
        <ele>217</ele>
        <time>2012-04-14T10:51:52Z</time>
      </trkpt>
      <trkpt lat="43.15567" lon="5.96208">
        <ele>213</ele>
        <time>2012-04-14T10:52:06Z</time>
      </trkpt>
      <trkpt lat="43.15546" lon="5.96164">
        <ele>209</ele>
        <time>2012-04-14T10:52:09.998Z</time>
      </trkpt>
      <trkpt lat="43.15578" lon="5.96042">
        <ele>210</ele>
        <time>2012-04-14T10:52:20Z</time>
      </trkpt>
      <trkpt lat="43.15712" lon="5.95886">
        <ele>199</ele>
        <time>2012-04-14T10:52:33Z</time>
      </trkpt>
      <trkpt lat="43.158" lon="5.95662">
        <ele>188</ele>
        <time>2012-04-14T10:52:46.148Z</time>
      </trkpt>
      <trkpt lat="43.15879" lon="5.95584">
        <ele>179</ele>
        <time>2012-04-14T10:52:52.151Z</time>
      </trkpt>
      <trkpt lat="43.15876" lon="5.95574">
        <ele>182</ele>
        <time>2012-04-14T10:52:53.141Z</time>
      </trkpt>
      <trkpt lat="43.15898" lon="5.95554">
        <ele>181</ele>
        <time>2012-04-14T10:52:55Z</time>
      </trkpt>
      <trkpt lat="43.1594" lon="5.95456">
        <ele>175</ele>
        <time>2012-04-14T10:53:01Z</time>
      </trkpt>
      <trkpt lat="43.16058" lon="5.95263">
        <ele>164</ele>
        <time>2012-04-14T10:53:14Z</time>
      </trkpt>
      <trkpt lat="43.16102" lon="5.95212">
        <ele>158</ele>
        <time>2012-04-14T10:53:18Z</time>
      </trkpt>
      <trkpt lat="43.16166" lon="5.95162">
        <ele>154</ele>
        <time>2012-04-14T10:53:23Z</time>
      </trkpt>
      <trkpt lat="43.16212" lon="5.95108">
        <ele>149</ele>
        <time>2012-04-14T10:53:27Z</time>
      </trkpt>
      <trkpt lat="43.16259" lon="5.94966">
        <ele>138</ele>
        <time>2012-04-14T10:53:35Z</time>
      </trkpt>
      <trkpt lat="43.16264" lon="5.94868">
        <ele>138</ele>
        <time>2012-04-14T10:53:39.999Z</time>
      </trkpt>
      <trkpt lat="43.16296" lon="5.94692">
        <ele>135</ele>
        <time>2012-04-14T10:53:49Z</time>
      </trkpt>
      <trkpt lat="43.16291" lon="5.94616">
        <ele>135</ele>
        <time>2012-04-14T10:53:53Z</time>
      </trkpt>
      <trkpt lat="43.16329" lon="5.94528">
        <ele>133</ele>
        <time>2012-04-14T10:53:58Z</time>
      </trkpt>
      <trkpt lat="43.16368" lon="5.94351">
        <ele>127</ele>
        <time>2012-04-14T10:54:07Z</time>
      </trkpt>
      <trkpt lat="43.16411" lon="5.94219">
        <ele>128</ele>
        <time>2012-04-14T10:54:14Z</time>
      </trkpt>
      <trkpt lat="43.16471" lon="5.94076">
        <ele>106</ele>
        <time>2012-04-14T10:54:22Z</time>
      </trkpt>
      <trkpt lat="43.16472" lon="5.94042">
        <ele>107</ele>
        <time>2012-04-14T10:54:24Z</time>
      </trkpt>
      <trkpt lat="43.16521" lon="5.93927">
        <ele>101</ele>
        <time>2012-04-14T10:54:30Z</time>
      </trkpt>
      <trkpt lat="43.16546" lon="5.93787">
        <ele>96</ele>
        <time>2012-04-14T10:54:38Z</time>
      </trkpt>
      <trkpt lat="43.16551" lon="5.93704">
        <ele>94</ele>
        <time>2012-04-14T10:54:43Z</time>
      </trkpt>
      <trkpt lat="43.16515" lon="5.93528">
        <ele>88</ele>
        <time>2012-04-14T10:54:54Z</time>
      </trkpt>
      <trkpt lat="43.16471" lon="5.93421">
        <ele>88</ele>
        <time>2012-04-14T10:55:02Z</time>
      </trkpt>
      <trkpt lat="43.16428" lon="5.93342">
        <ele>88</ele>
        <time>2012-04-14T10:55:09Z</time>
      </trkpt>
      <trkpt lat="43.16394" lon="5.93231">
        <ele>83</ele>
        <time>2012-04-14T10:55:17Z</time>
      </trkpt>
      <trkpt lat="43.16375" lon="5.93136">
        <ele>80</ele>
        <time>2012-04-14T10:55:23Z</time>
      </trkpt>
      <trkpt lat="43.1634" lon="5.93027">
        <ele>76</ele>
        <time>2012-04-14T10:55:31Z</time>
      </trkpt>
      <trkpt lat="43.16331" lon="5.9297">
        <ele>81</ele>
        <time>2012-04-14T10:55:35Z</time>
      </trkpt>
      <trkpt lat="43.16317" lon="5.92944">
        <ele>81</ele>
        <time>2012-04-14T10:55:37Z</time>
      </trkpt>
      <trkpt lat="43.16293" lon="5.92825">
        <ele>72</ele>
        <time>2012-04-14T10:55:45Z</time>
      </trkpt>
      <trkpt lat="43.1632" lon="5.92754">
        <ele>67</ele>
        <time>2012-04-14T10:55:49Z</time>
      </trkpt>
      <trkpt lat="43.16327" lon="5.927">
        <ele>65</ele>
        <time>2012-04-14T10:55:52Z</time>
      </trkpt>
      <trkpt lat="43.16303" lon="5.92646">
        <ele>64</ele>
        <time>2012-04-14T10:55:56Z</time>
      </trkpt>
      <trkpt lat="43.16234" lon="5.9259">
        <ele>68</ele>
        <time>2012-04-14T10:56:04Z</time>
      </trkpt>
      <trkpt lat="43.16139" lon="5.92417">
        <ele>66</ele>
        <time>2012-04-14T10:56:22Z</time>
      </trkpt>
      <trkpt lat="43.16017" lon="5.92241">
        <ele>63</ele>
        <time>2012-04-14T10:56:42Z</time>
      </trkpt>
      <trkpt lat="43.15949" lon="5.92171">
        <ele>64</ele>
        <time>2012-04-14T10:56:51Z</time>
      </trkpt>
      <trkpt lat="43.15915" lon="5.92115">
        <ele>60</ele>
        <time>2012-04-14T10:56:56Z</time>
      </trkpt>
      <trkpt lat="43.1592" lon="5.92086">
        <ele>56</ele>
        <time>2012-04-14T10:56:58Z</time>
      </trkpt>
      <trkpt lat="43.15956" lon="5.92035">
        <ele>56</ele>
        <time>2012-04-14T10:57:02Z</time>
      </trkpt>
      <trkpt lat="43.15962" lon="5.92004">
        <ele>57</ele>
        <time>2012-04-14T10:57:04Z</time>
      </trkpt>
      <trkpt lat="43.15942" lon="5.91856">
        <ele>58</ele>
        <time>2012-04-14T10:57:19Z</time>
      </trkpt>
      <trkpt lat="43.15907" lon="5.91773">
        <ele>59</ele>
        <time>2012-04-14T10:57:29Z</time>
      </trkpt>
      <trkpt lat="43.15897" lon="5.91767">
        <ele>59</ele>
        <time>2012-04-14T10:57:31Z</time>
      </trkpt>
      <trkpt lat="43.15815" lon="5.91781">
        <ele>54</ele>
        <time>2012-04-14T10:57:41Z</time>
      </trkpt>
      <trkpt lat="43.15712" lon="5.91678">
        <ele>50</ele>
        <time>2012-04-14T10:57:53Z</time>
      </trkpt>
      <trkpt lat="43.15592" lon="5.91617">
        <ele>50</ele>
        <time>2012-04-14T10:58:04Z</time>
      </trkpt>
      <trkpt lat="43.15548" lon="5.91576">
        <ele>53</ele>
        <time>2012-04-14T10:58:08Z</time>
      </trkpt>
      <trkpt lat="43.15504" lon="5.91553">
        <ele>53</ele>
        <time>2012-04-14T10:58:12Z</time>
      </trkpt>
      <trkpt lat="43.15442" lon="5.91542">
        <ele>48</ele>
        <time>2012-04-14T10:58:17Z</time>
      </trkpt>
      <trkpt lat="43.15316" lon="5.91499">
        <ele>39</ele>
        <time>2012-04-14T10:58:29Z</time>
      </trkpt>
      <trkpt lat="43.15267" lon="5.91514">
        <ele>39</ele>
        <time>2012-04-14T10:58:34Z</time>
      </trkpt>
      <trkpt lat="43.15178" lon="5.91499">
        <ele>40</ele>
        <time>2012-04-14T10:58:43Z</time>
      </trkpt>
      <trkpt lat="43.15084" lon="5.91456">
        <ele>35</ele>
        <time>2012-04-14T10:58:55Z</time>
      </trkpt>
      <trkpt lat="43.15038" lon="5.91447">
        <ele>37</ele>
        <time>2012-04-14T10:59:02Z</time>
      </trkpt>
      <trkpt lat="43.14955" lon="5.91388">
        <ele>35</ele>
        <time>2012-04-14T10:59:16Z</time>
      </trkpt>
      <trkpt lat="43.14854" lon="5.9136">
        <ele>35</ele>
        <time>2012-04-14T10:59:29Z</time>
      </trkpt>
      <trkpt lat="43.14768" lon="5.91366">
        <ele>36</ele>
        <time>2012-04-14T10:59:38.999Z</time>
      </trkpt>
      <trkpt lat="43.14733" lon="5.91347">
        <ele>36</ele>
        <time>2012-04-14T10:59:45Z</time>
      </trkpt>
      <trkpt lat="43.14691" lon="5.91304">
        <ele>28</ele>
        <time>2012-04-14T10:59:50Z</time>
      </trkpt>
      <trkpt lat="43.14526" lon="5.91195">
        <ele>27</ele>
        <time>2012-04-14T11:00:06.999Z</time>
      </trkpt>
      <trkpt lat="43.1451" lon="5.91195">
        <ele>27</ele>
        <time>2012-04-14T11:00:09Z</time>
      </trkpt>
      <trkpt lat="43.14505" lon="5.91186">
        <ele>26</ele>
        <time>2012-04-14T11:00:10Z</time>
      </trkpt>
      <trkpt lat="43.14522" lon="5.91117">
        <ele>24</ele>
        <time>2012-04-14T11:00:19Z</time>
      </trkpt>
      <trkpt lat="43.14508" lon="5.91145">
        <ele>24</ele>
        <time>2012-04-14T11:00:27Z</time>
      </trkpt>
      <trkpt lat="43.14462" lon="5.91135">
        <ele>22</ele>
        <time>2012-04-14T11:00:35Z</time>
      </trkpt>
      <trkpt lat="43.14418" lon="5.91097">
        <ele>20</ele>
        <time>2012-04-14T11:00:42Z</time>
      </trkpt>
      <trkpt lat="43.14309" lon="5.91092">
        <ele>21</ele>
        <time>2012-04-14T11:00:57Z</time>
      </trkpt>
      <trkpt lat="43.14222" lon="5.91072">
        <ele>20</ele>
        <time>2012-04-14T11:01:10Z</time>
      </trkpt>
      <trkpt lat="43.14212" lon="5.91059">
        <ele>20</ele>
        <time>2012-04-14T11:01:11.999Z</time>
      </trkpt>
      <trkpt lat="43.14219" lon="5.91047">
        <ele>20</ele>
        <time>2012-04-14T11:01:13Z</time>
      </trkpt>
      <trkpt lat="43.14212" lon="5.91018">
        <ele>20</ele>
        <time>2012-04-14T11:01:16.999Z</time>
      </trkpt>
      <trkpt lat="43.14218" lon="5.9093">
        <ele>21</ele>
        <time>2012-04-14T11:01:28Z</time>
      </trkpt>
      <trkpt lat="43.14229" lon="5.90903">
        <ele>24</ele>
        <time>2012-04-14T11:01:33Z</time>
      </trkpt>
      <trkpt lat="43.14225" lon="5.90898">
        <ele>24</ele>
        <time>2012-04-14T11:01:34Z</time>
      </trkpt>
      <trkpt lat="43.14235" lon="5.90878">
        <ele>25</ele>
        <time>2012-04-14T11:01:38Z</time>
      </trkpt>
      <trkpt lat="43.14278" lon="5.90862">
        <ele>27</ele>
        <time>2012-04-14T11:01:52Z</time>
      </trkpt>
      <trkpt lat="43.14321" lon="5.90784">
        <ele>30</ele>
        <time>2012-04-14T11:02:07Z</time>
      </trkpt>
      <trkpt lat="43.1441" lon="5.90666">
        <ele>35</ele>
        <time>2012-04-14T11:02:36.999Z</time>
      </trkpt>
      <trkpt lat="43.14501" lon="5.90467">
        <ele>43</ele>
        <time>2012-04-14T11:03:14Z</time>
      </trkpt>
      <trkpt lat="43.14526" lon="5.9043">
        <ele>43</ele>
        <time>2012-04-14T11:03:22Z</time>
      </trkpt>
      <trkpt lat="43.14527" lon="5.90414">
        <ele>43</ele>
        <time>2012-04-14T11:03:25Z</time>
      </trkpt>
      <trkpt lat="43.14664" lon="5.9027">
        <ele>51</ele>
        <time>2012-04-14T11:04:12Z</time>
      </trkpt>
      <trkpt lat="43.14712" lon="5.90242">
        <ele>56</ele>
        <time>2012-04-14T11:04:27Z</time>
      </trkpt>
      <trkpt lat="43.14749" lon="5.90239">
        <ele>57</ele>
        <time>2012-04-14T11:04:37Z</time>
      </trkpt>
      <trkpt lat="43.14941" lon="5.90282">
        <ele>74</ele>
        <time>2012-04-14T11:05:37Z</time>
      </trkpt>
      <trkpt lat="43.1495" lon="5.90292">
        <ele>74</ele>
        <time>2012-04-14T11:05:41Z</time>
      </trkpt>
      <trkpt lat="43.14993" lon="5.90293">
        <ele>75</ele>
        <time>2012-04-14T11:05:54Z</time>
      </trkpt>
      <trkpt lat="43.15102" lon="5.9032">
        <ele>87</ele>
        <time>2012-04-14T11:06:31Z</time>
      </trkpt>
      <trkpt lat="43.15172" lon="5.90324">
        <ele>94</ele>
        <time>2012-04-14T11:06:53Z</time>
      </trkpt>
      <trkpt lat="43.15233" lon="5.90371">
        <ele>95</ele>
        <time>2012-04-14T11:07:14Z</time>
      </trkpt>
      <trkpt lat="43.15325" lon="5.90417">
        <ele>104</ele>
        <time>2012-04-14T11:07:42Z</time>
      </trkpt>
      <trkpt lat="43.15349" lon="5.90418">
        <ele>108</ele>
        <time>2012-04-14T11:07:49Z</time>
      </trkpt>
      <trkpt lat="43.15365" lon="5.90434">
        <ele>110</ele>
        <time>2012-04-14T11:07:54Z</time>
      </trkpt>
      <trkpt lat="43.15371" lon="5.90475">
        <ele>111</ele>
        <time>2012-04-14T11:08:03Z</time>
      </trkpt>
      <trkpt lat="43.15368" lon="5.90605">
        <ele>118</ele>
        <time>2012-04-14T11:08:32Z</time>
      </trkpt>
      <trkpt lat="43.15357" lon="5.9066">
        <ele>118</ele>
        <time>2012-04-14T11:08:44Z</time>
      </trkpt>
      <trkpt lat="43.15361" lon="5.90718">
        <ele>116</ele>
        <time>2012-04-14T11:08:54Z</time>
      </trkpt>
      <trkpt lat="43.15377" lon="5.90735">
        <ele>116</ele>
        <time>2012-04-14T11:08:59Z</time>
      </trkpt>
      <trkpt lat="43.15392" lon="5.90731">
        <ele>116</ele>
        <time>2012-04-14T11:09:03Z</time>
      </trkpt>
      <trkpt lat="43.15438" lon="5.90672">
        <ele>127</ele>
        <time>2012-04-14T11:09:22Z</time>
      </trkpt>
      <trkpt lat="43.15476" lon="5.90684">
        <ele>130</ele>
        <time>2012-04-14T11:09:32Z</time>
      </trkpt>
      <trkpt lat="43.15524" lon="5.90741">
        <ele>133</ele>
        <time>2012-04-14T11:09:50Z</time>
      </trkpt>
      <trkpt lat="43.15588" lon="5.9077">
        <ele>130</ele>
        <time>2012-04-14T11:10:09Z</time>
      </trkpt>
      <trkpt lat="43.15665" lon="5.90752">
        <ele>138</ele>
        <time>2012-04-14T11:10:31Z</time>
      </trkpt>
      <trkpt lat="43.15691" lon="5.90716">
        <ele>144</ele>
        <time>2012-04-14T11:10:41Z</time>
      </trkpt>
      <trkpt lat="43.15711" lon="5.90669">
        <ele>148</ele>
        <time>2012-04-14T11:10:53Z</time>
      </trkpt>
      <trkpt lat="43.1573" lon="5.90654">
        <ele>160</ele>
        <time>2012-04-14T11:10:58Z</time>
      </trkpt>
      <trkpt lat="43.15791" lon="5.90677">
        <ele>143</ele>
        <time>2012-04-14T11:11:17Z</time>
      </trkpt>
      <trkpt lat="43.1583" lon="5.90656">
        <ele>158</ele>
        <time>2012-04-14T11:11:29Z</time>
      </trkpt>
      <trkpt lat="43.15869" lon="5.90605">
        <ele>157</ele>
        <time>2012-04-14T11:11:45Z</time>
      </trkpt>
      <trkpt lat="43.15944" lon="5.90466">
        <ele>166</ele>
        <time>2012-04-14T11:12:17Z</time>
      </trkpt>
      <trkpt lat="43.15962" lon="5.90409">
        <ele>178</ele>
        <time>2012-04-14T11:12:28Z</time>
      </trkpt>
      <trkpt lat="43.15988" lon="5.90361">
        <ele>178</ele>
        <time>2012-04-14T11:12:38Z</time>
      </trkpt>
      <trkpt lat="43.16014" lon="5.90268">
        <ele>182</ele>
        <time>2012-04-14T11:12:58Z</time>
      </trkpt>
      <trkpt lat="43.16046" lon="5.90228">
        <ele>192</ele>
        <time>2012-04-14T11:13:08Z</time>
      </trkpt>
      <trkpt lat="43.16058" lon="5.90195">
        <ele>195</ele>
        <time>2012-04-14T11:13:16Z</time>
      </trkpt>
      <trkpt lat="43.16072" lon="5.90195">
        <ele>195</ele>
        <time>2012-04-14T11:13:20Z</time>
      </trkpt>
      <trkpt lat="43.16106" lon="5.90237">
        <ele>186</ele>
        <time>2012-04-14T11:13:34Z</time>
      </trkpt>
      <trkpt lat="43.16128" lon="5.90233">
        <ele>187</ele>
        <time>2012-04-14T11:13:40Z</time>
      </trkpt>
      <trkpt lat="43.1619" lon="5.90193">
        <ele>192</ele>
        <time>2012-04-14T11:13:59Z</time>
      </trkpt>
      <trkpt lat="43.16209" lon="5.90213">
        <ele>189</ele>
        <time>2012-04-14T11:14:05Z</time>
      </trkpt>
      <trkpt lat="43.16224" lon="5.9021">
        <ele>189</ele>
        <time>2012-04-14T11:14:09Z</time>
      </trkpt>
      <trkpt lat="43.16283" lon="5.90158">
        <ele>199</ele>
        <time>2012-04-14T11:14:28Z</time>
      </trkpt>
      <trkpt lat="43.16307" lon="5.90078">
        <ele>214</ele>
        <time>2012-04-14T11:14:45Z</time>
      </trkpt>
      <trkpt lat="43.16329" lon="5.90041">
        <ele>217</ele>
        <time>2012-04-14T11:14:55Z</time>
      </trkpt>
      <trkpt lat="43.16349" lon="5.90032">
        <ele>218</ele>
        <time>2012-04-14T11:15:01Z</time>
      </trkpt>
      <trkpt lat="43.16384" lon="5.90056">
        <ele>217</ele>
        <time>2012-04-14T11:15:12Z</time>
      </trkpt>
      <trkpt lat="43.16402" lon="5.90088">
        <ele>209</ele>
        <time>2012-04-14T11:15:20Z</time>
      </trkpt>
      <trkpt lat="43.16463" lon="5.90119">
        <ele>208</ele>
        <time>2012-04-14T11:15:39Z</time>
      </trkpt>
      <trkpt lat="43.16514" lon="5.90112">
        <ele>211</ele>
        <time>2012-04-14T11:15:50.959Z</time>
      </trkpt>
      <trkpt lat="43.16542" lon="5.90029">
        <ele>232</ele>
        <time>2012-04-14T11:16:09Z</time>
      </trkpt>
      <trkpt lat="43.16589" lon="5.90052">
        <ele>224</ele>
        <time>2012-04-14T11:16:24Z</time>
      </trkpt>
      <trkpt lat="43.16679" lon="5.89999">
        <ele>240</ele>
        <time>2012-04-14T11:16:53Z</time>
      </trkpt>
      <trkpt lat="43.16704" lon="5.89969">
        <ele>245</ele>
        <time>2012-04-14T11:17:02Z</time>
      </trkpt>
      <trkpt lat="43.16757" lon="5.8994">
        <ele>245</ele>
        <time>2012-04-14T11:17:17Z</time>
      </trkpt>
      <trkpt lat="43.16847" lon="5.89962">
        <ele>252</ele>
        <time>2012-04-14T11:17:43Z</time>
      </trkpt>
      <trkpt lat="43.16875" lon="5.89935">
        <ele>255</ele>
        <time>2012-04-14T11:17:51Z</time>
      </trkpt>
      <trkpt lat="43.16888" lon="5.89934">
        <ele>256</ele>
        <time>2012-04-14T11:17:55Z</time>
      </trkpt>
      <trkpt lat="43.16887" lon="5.89974">
        <ele>256</ele>
        <time>2012-04-14T11:18:04Z</time>
      </trkpt>
      <trkpt lat="43.16836" lon="5.90046">
        <ele>248</ele>
        <time>2012-04-14T11:18:26Z</time>
      </trkpt>
      <trkpt lat="43.16841" lon="5.90071">
        <ele>247</ele>
        <time>2012-04-14T11:18:31Z</time>
      </trkpt>
      <trkpt lat="43.1687" lon="5.90074">
        <ele>251</ele>
        <time>2012-04-14T11:18:41Z</time>
      </trkpt>
      <trkpt lat="43.16902" lon="5.90043">
        <ele>255</ele>
        <time>2012-04-14T11:18:53Z</time>
      </trkpt>
      <trkpt lat="43.16985" lon="5.89852">
        <ele>283</ele>
        <time>2012-04-14T11:19:40Z</time>
      </trkpt>
      <trkpt lat="43.1699" lon="5.89748">
        <ele>291</ele>
        <time>2012-04-14T11:20:00Z</time>
      </trkpt>
      <trkpt lat="43.16944" lon="5.8966">
        <ele>294</ele>
        <time>2012-04-14T11:20:21Z</time>
      </trkpt>
      <trkpt lat="43.16958" lon="5.89649">
        <ele>297</ele>
        <time>2012-04-14T11:20:26Z</time>
      </trkpt>
      <trkpt lat="43.16968" lon="5.89699">
        <ele>291</ele>
        <time>2012-04-14T11:20:36Z</time>
      </trkpt>
      <trkpt lat="43.16996" lon="5.89725">
        <ele>291</ele>
        <time>2012-04-14T11:20:44Z</time>
      </trkpt>
      <trkpt lat="43.17002" lon="5.8975">
        <ele>293</ele>
        <time>2012-04-14T11:20:49Z</time>
      </trkpt>
      <trkpt lat="43.16996" lon="5.89797">
        <ele>285</ele>
        <time>2012-04-14T11:20:59Z</time>
      </trkpt>
      <trkpt lat="43.17007" lon="5.89866">
        <ele>307</ele>
        <time>2012-04-14T11:21:10Z</time>
      </trkpt>
      <trkpt lat="43.16984" lon="5.89926">
        <ele>288</ele>
        <time>2012-04-14T11:21:21Z</time>
      </trkpt>
      <trkpt lat="43.17006" lon="5.89945">
        <ele>312</ele>
        <time>2012-04-14T11:21:26Z</time>
      </trkpt>
      <trkpt lat="43.17014" lon="5.89937">
        <ele>312</ele>
        <time>2012-04-14T11:21:28Z</time>
      </trkpt>
      <trkpt lat="43.17024" lon="5.89836">
        <ele>307</ele>
        <time>2012-04-14T11:21:40.998Z</time>
      </trkpt>
      <trkpt lat="43.17035" lon="5.89811">
        <ele>312</ele>
        <time>2012-04-14T11:21:44Z</time>
      </trkpt>
      <trkpt lat="43.17028" lon="5.89787">
        <ele>310</ele>
        <time>2012-04-14T11:21:49Z</time>
      </trkpt>
      <trkpt lat="43.17034" lon="5.89748">
        <ele>313</ele>
        <time>2012-04-14T11:21:57Z</time>
      </trkpt>
      <trkpt lat="43.17027" lon="5.89748">
        <ele>310</ele>
        <time>2012-04-14T11:21:58Z</time>
      </trkpt>
      <trkpt lat="43.1702" lon="5.89721">
        <ele>311</ele>
        <time>2012-04-14T11:22:04.001Z</time>
      </trkpt>
      <trkpt lat="43.17025" lon="5.89698">
        <ele>314</ele>
        <time>2012-04-14T11:22:08Z</time>
      </trkpt>
      <trkpt lat="43.17013" lon="5.89661">
        <ele>312</ele>
        <time>2012-04-14T11:22:17Z</time>
      </trkpt>
      <trkpt lat="43.17025" lon="5.89618">
        <ele>320</ele>
        <time>2012-04-14T11:22:29Z</time>
      </trkpt>
      <trkpt lat="43.16986" lon="5.89528">
        <ele>312</ele>
        <time>2012-04-14T11:22:49Z</time>
      </trkpt>
      <trkpt lat="43.16992" lon="5.89526">
        <ele>312</ele>
        <time>2012-04-14T11:22:50Z</time>
      </trkpt>
      <trkpt lat="43.16982" lon="5.895">
        <ele>319</ele>
        <time>2012-04-14T11:22:55Z</time>
      </trkpt>
      <trkpt lat="43.16984" lon="5.89321">
        <ele>333</ele>
        <time>2012-04-14T11:23:31.999Z</time>
      </trkpt>
      <trkpt lat="43.16978" lon="5.89304">
        <ele>332</ele>
        <time>2012-04-14T11:23:36Z</time>
      </trkpt>
      <trkpt lat="43.16982" lon="5.89267">
        <ele>334</ele>
        <time>2012-04-14T11:23:42.783Z</time>
      </trkpt>
      <trkpt lat="43.1697" lon="5.8917">
        <ele>337</ele>
        <time>2012-04-14T11:24:04Z</time>
      </trkpt>
      <trkpt lat="43.16989" lon="5.89083">
        <ele>347</ele>
        <time>2012-04-14T11:24:21Z</time>
      </trkpt>
      <trkpt lat="43.16966" lon="5.89025">
        <ele>346</ele>
        <time>2012-04-14T11:24:34Z</time>
      </trkpt>
      <trkpt lat="43.16913" lon="5.88956">
        <ele>351</ele>
        <time>2012-04-14T11:24:51.882Z</time>
      </trkpt>
      <trkpt lat="43.16919" lon="5.88937">
        <ele>353</ele>
        <time>2012-04-14T11:24:57.999Z</time>
      </trkpt>
      <trkpt lat="43.1695" lon="5.88996">
        <ele>351</ele>
        <time>2012-04-14T11:25:11Z</time>
      </trkpt>
      <trkpt lat="43.17004" lon="5.89021">
        <ele>360</ele>
        <time>2012-04-14T11:25:26Z</time>
      </trkpt>
      <trkpt lat="43.17026" lon="5.89094">
        <ele>359</ele>
        <time>2012-04-14T11:25:40Z</time>
      </trkpt>
      <trkpt lat="43.17022" lon="5.89109">
        <ele>359</ele>
        <time>2012-04-14T11:25:42.776Z</time>
      </trkpt>
      <trkpt lat="43.17051" lon="5.89234">
        <ele>363</ele>
        <time>2012-04-14T11:26:06Z</time>
      </trkpt>
      <trkpt lat="43.17046" lon="5.8934">
        <ele>358</ele>
        <time>2012-04-14T11:26:25Z</time>
      </trkpt>
      <trkpt lat="43.17059" lon="5.89349">
        <ele>362</ele>
        <time>2012-04-14T11:26:29Z</time>
      </trkpt>
      <trkpt lat="43.17077" lon="5.89297">
        <ele>366</ele>
        <time>2012-04-14T11:26:38Z</time>
      </trkpt>
      <trkpt lat="43.1707" lon="5.89253">
        <ele>370</ele>
        <time>2012-04-14T11:26:48.875Z</time>
      </trkpt>
      <trkpt lat="43.17081" lon="5.89234">
        <ele>371</ele>
        <time>2012-04-14T11:26:52.873Z</time>
      </trkpt>
      <trkpt lat="43.17087" lon="5.89144">
        <ele>392</ele>
        <time>2012-04-14T11:27:11Z</time>
      </trkpt>
      <trkpt lat="43.17082" lon="5.8912">
        <ele>370</ele>
        <time>2012-04-14T11:27:17Z</time>
      </trkpt>
      <trkpt lat="43.17092" lon="5.89084">
        <ele>388</ele>
        <time>2012-04-14T11:27:26Z</time>
      </trkpt>
      <trkpt lat="43.17086" lon="5.89066">
        <ele>392</ele>
        <time>2012-04-14T11:27:30Z</time>
      </trkpt>
      <trkpt lat="43.17105" lon="5.88978">
        <ele>401</ele>
        <time>2012-04-14T11:27:44.872Z</time>
      </trkpt>
      <trkpt lat="43.171" lon="5.88955">
        <ele>402</ele>
        <time>2012-04-14T11:27:51Z</time>
      </trkpt>
      <trkpt lat="43.17094" lon="5.88955">
        <ele>401</ele>
        <time>2012-04-14T11:27:52Z</time>
      </trkpt>
      <trkpt lat="43.1709" lon="5.88901">
        <ele>401</ele>
        <time>2012-04-14T11:28:03Z</time>
      </trkpt>
      <trkpt lat="43.17058" lon="5.88869">
        <ele>389</ele>
        <time>2012-04-14T11:28:11Z</time>
      </trkpt>
      <trkpt lat="43.17036" lon="5.88828">
        <ele>394</ele>
        <time>2012-04-14T11:28:19Z</time>
      </trkpt>
      <trkpt lat="43.17051" lon="5.8881">
        <ele>395</ele>
        <time>2012-04-14T11:28:23Z</time>
      </trkpt>
      <trkpt lat="43.1706" lon="5.88774">
        <ele>396</ele>
        <time>2012-04-14T11:28:29Z</time>
      </trkpt>
      <trkpt lat="43.17089" lon="5.88729">
        <ele>400</ele>
        <time>2012-04-14T11:28:36Z</time>
      </trkpt>
      <trkpt lat="43.17132" lon="5.88587">
        <ele>392</ele>
        <time>2012-04-14T11:28:49.868Z</time>
      </trkpt>
      <trkpt lat="43.17179" lon="5.88529">
        <ele>384</ele>
        <time>2012-04-14T11:28:56Z</time>
      </trkpt>
      <trkpt lat="43.17308" lon="5.88421">
        <ele>370</ele>
        <time>2012-04-14T11:29:11Z</time>
      </trkpt>
      <trkpt lat="43.17337" lon="5.88425">
        <ele>372</ele>
        <time>2012-04-14T11:29:14Z</time>
      </trkpt>
      <trkpt lat="43.17374" lon="5.88393">
        <ele>371</ele>
        <time>2012-04-14T11:29:18Z</time>
      </trkpt>
      <trkpt lat="43.1739" lon="5.88359">
        <ele>369</ele>
        <time>2012-04-14T11:29:21Z</time>
      </trkpt>
      <trkpt lat="43.17526" lon="5.87715">
        <ele>335</ele>
        <time>2012-04-14T11:30:02Z</time>
      </trkpt>
      <trkpt lat="43.17526" lon="5.87639">
        <ele>327</ele>
        <time>2012-04-14T11:30:06Z</time>
      </trkpt>
      <trkpt lat="43.17496" lon="5.87564">
        <ele>318</ele>
        <time>2012-04-14T11:30:11Z</time>
      </trkpt>
      <trkpt lat="43.17545" lon="5.87498">
        <ele>311</ele>
        <time>2012-04-14T11:30:18Z</time>
      </trkpt>
      <trkpt lat="43.17518" lon="5.87385">
        <ele>307</ele>
        <time>2012-04-14T11:30:29Z</time>
      </trkpt>
      <trkpt lat="43.17525" lon="5.87354">
        <ele>307</ele>
        <time>2012-04-14T11:30:32Z</time>
      </trkpt>
      <trkpt lat="43.17524" lon="5.8729">
        <ele>304</ele>
        <time>2012-04-14T11:30:38Z</time>
      </trkpt>
      <trkpt lat="43.17395" lon="5.87143">
        <ele>295</ele>
        <time>2012-04-14T11:30:56Z</time>
      </trkpt>
      <trkpt lat="43.1737" lon="5.87091">
        <ele>294</ele>
        <time>2012-04-14T11:31:00.999Z</time>
      </trkpt>
      <trkpt lat="43.17364" lon="5.87055">
        <ele>292</ele>
        <time>2012-04-14T11:31:04Z</time>
      </trkpt>
      <trkpt lat="43.17324" lon="5.86954">
        <ele>289</ele>
        <time>2012-04-14T11:31:15Z</time>
      </trkpt>
      <trkpt lat="43.17313" lon="5.86901">
        <ele>288</ele>
        <time>2012-04-14T11:31:20Z</time>
      </trkpt>
      <trkpt lat="43.17292" lon="5.86864">
        <ele>286</ele>
        <time>2012-04-14T11:31:24Z</time>
      </trkpt>
      <trkpt lat="43.1728" lon="5.86731">
        <ele>284</ele>
        <time>2012-04-14T11:31:35Z</time>
      </trkpt>
      <trkpt lat="43.17257" lon="5.86682">
        <ele>288</ele>
        <time>2012-04-14T11:31:40Z</time>
      </trkpt>
      <trkpt lat="43.17138" lon="5.8663">
        <ele>299</ele>
        <time>2012-04-14T11:32:01Z</time>
      </trkpt>
      <trkpt lat="43.17119" lon="5.86658">
        <ele>299</ele>
        <time>2012-04-14T11:32:06Z</time>
      </trkpt>
      <trkpt lat="43.17085" lon="5.86756">
        <ele>299</ele>
        <time>2012-04-14T11:32:26Z</time>
      </trkpt>
      <trkpt lat="43.17048" lon="5.86806">
        <ele>300</ele>
        <time>2012-04-14T11:32:41Z</time>
      </trkpt>
      <trkpt lat="43.1703" lon="5.86808">
        <ele>300</ele>
        <time>2012-04-14T11:32:44.833Z</time>
      </trkpt>
      <trkpt lat="43.17016" lon="5.86794">
        <ele>301</ele>
        <time>2012-04-14T11:32:51.816Z</time>
      </trkpt>
      <trkpt lat="43.17019" lon="5.86786">
        <ele>301</ele>
        <time>2012-04-14T11:32:52.816Z</time>
      </trkpt>
      <trkpt lat="43.17006" lon="5.86787">
        <ele>301</ele>
        <time>2012-04-14T11:32:53.826Z</time>
      </trkpt>
      <trkpt lat="43.17016" lon="5.86761">
        <ele>303</ele>
        <time>2012-04-14T11:32:58Z</time>
      </trkpt>
      <trkpt lat="43.16993" lon="5.8669">
        <ele>307</ele>
        <time>2012-04-14T11:33:12Z</time>
      </trkpt>
      <trkpt lat="43.1699" lon="5.86652">
        <ele>312</ele>
        <time>2012-04-14T11:33:19Z</time>
      </trkpt>
      <trkpt lat="43.16954" lon="5.866">
        <ele>311</ele>
        <time>2012-04-14T11:33:30Z</time>
      </trkpt>
      <trkpt lat="43.16955" lon="5.8659">
        <ele>312</ele>
        <time>2012-04-14T11:33:31.999Z</time>
      </trkpt>
      <trkpt lat="43.16947" lon="5.86589">
        <ele>311</ele>
        <time>2012-04-14T11:33:33Z</time>
      </trkpt>
      <trkpt lat="43.16911" lon="5.86534">
        <ele>308</ele>
        <time>2012-04-14T11:33:43.826Z</time>
      </trkpt>
      <trkpt lat="43.16881" lon="5.86507">
        <ele>305</ele>
        <time>2012-04-14T11:33:49Z</time>
      </trkpt>
      <trkpt lat="43.1689" lon="5.865">
        <ele>308</ele>
        <time>2012-04-14T11:33:50Z</time>
      </trkpt>
      <trkpt lat="43.16891" lon="5.86484">
        <ele>315</ele>
        <time>2012-04-14T11:33:51.999Z</time>
      </trkpt>
      <trkpt lat="43.16879" lon="5.86461">
        <ele>314</ele>
        <time>2012-04-14T11:33:57Z</time>
      </trkpt>
      <trkpt lat="43.16859" lon="5.86343">
        <ele>317</ele>
        <time>2012-04-14T11:34:16Z</time>
      </trkpt>
      <trkpt lat="43.16877" lon="5.86222">
        <ele>333</ele>
        <time>2012-04-14T11:34:29Z</time>
      </trkpt>
      <trkpt lat="43.16862" lon="5.86202">
        <ele>331</ele>
        <time>2012-04-14T11:34:32Z</time>
      </trkpt>
      <trkpt lat="43.16861" lon="5.86182">
        <ele>332</ele>
        <time>2012-04-14T11:34:35Z</time>
      </trkpt>
      <trkpt lat="43.1681" lon="5.86101">
        <ele>312</ele>
        <time>2012-04-14T11:34:44.820Z</time>
      </trkpt>
      <trkpt lat="43.16825" lon="5.85994">
        <ele>325</ele>
        <time>2012-04-14T11:34:56Z</time>
      </trkpt>
      <trkpt lat="43.16811" lon="5.85946">
        <ele>321</ele>
        <time>2012-04-14T11:35:01Z</time>
      </trkpt>
      <trkpt lat="43.16758" lon="5.85852">
        <ele>318</ele>
        <time>2012-04-14T11:35:12Z</time>
      </trkpt>
      <trkpt lat="43.1679" lon="5.85696">
        <ele>332</ele>
        <time>2012-04-14T11:35:28Z</time>
      </trkpt>
      <trkpt lat="43.16774" lon="5.85658">
        <ele>336</ele>
        <time>2012-04-14T11:35:32Z</time>
      </trkpt>
      <trkpt lat="43.16707" lon="5.85615">
        <ele>325</ele>
        <time>2012-04-14T11:35:40Z</time>
      </trkpt>
      <trkpt lat="43.1667" lon="5.85609">
        <ele>325</ele>
        <time>2012-04-14T11:35:44.807Z</time>
      </trkpt>
      <trkpt lat="43.16621" lon="5.85617">
        <ele>313</ele>
        <time>2012-04-14T11:35:50.811Z</time>
      </trkpt>
      <trkpt lat="43.16604" lon="5.85601">
        <ele>316</ele>
        <time>2012-04-14T11:35:52.805Z</time>
      </trkpt>
      <trkpt lat="43.16596" lon="5.85605">
        <ele>316</ele>
        <time>2012-04-14T11:35:53.804Z</time>
      </trkpt>
      <trkpt lat="43.16452" lon="5.85532">
        <ele>308</ele>
        <time>2012-04-14T11:36:13Z</time>
      </trkpt>
      <trkpt lat="43.16398" lon="5.85476">
        <ele>302</ele>
        <time>2012-04-14T11:36:22Z</time>
      </trkpt>
      <trkpt lat="43.16381" lon="5.85409">
        <ele>304</ele>
        <time>2012-04-14T11:36:29Z</time>
      </trkpt>
      <trkpt lat="43.16428" lon="5.8531">
        <ele>325</ele>
        <time>2012-04-14T11:36:41Z</time>
      </trkpt>
      <trkpt lat="43.16431" lon="5.8526">
        <ele>325</ele>
        <time>2012-04-14T11:36:45Z</time>
      </trkpt>
      <trkpt lat="43.16372" lon="5.85186">
        <ele>308</ele>
        <time>2012-04-14T11:36:55Z</time>
      </trkpt>
      <trkpt lat="43.16481" lon="5.85006">
        <ele>315</ele>
        <time>2012-04-14T11:37:16Z</time>
      </trkpt>
      <trkpt lat="43.16488" lon="5.84982">
        <ele>307</ele>
        <time>2012-04-14T11:37:18Z</time>
      </trkpt>
      <trkpt lat="43.16643" lon="5.84774">
        <ele>307</ele>
        <time>2012-04-14T11:37:41Z</time>
      </trkpt>
      <trkpt lat="43.1667" lon="5.84757">
        <ele>307</ele>
        <time>2012-04-14T11:37:44Z</time>
      </trkpt>
      <trkpt lat="43.16711" lon="5.84754">
        <ele>310</ele>
        <time>2012-04-14T11:37:49Z</time>
      </trkpt>
      <trkpt lat="43.16889" lon="5.84788">
        <ele>312</ele>
        <time>2012-04-14T11:38:11Z</time>
      </trkpt>
      <trkpt lat="43.16927" lon="5.84766">
        <ele>312</ele>
        <time>2012-04-14T07:43:14Z</time>
      </trkpt>
      <trkpt lat="43.16942" lon="5.84716">
        <ele>315</ele>
        <time>2012-04-14T11:38:22Z</time>
      </trkpt>
      <trkpt lat="43.16938" lon="5.84708">
        <ele>316</ele>
        <time>2012-04-14T11:38:24Z</time>
      </trkpt>
      <trkpt lat="43.16992" lon="5.84648">
        <ele>322</ele>
        <time>2012-04-14T11:38:34Z</time>
      </trkpt>
      <trkpt lat="43.17011" lon="5.84642">
        <ele>321</ele>
        <time>2012-04-14T11:38:54Z</time>
      </trkpt>
      <trkpt lat="43.17257" lon="5.8469">
        <ele>323</ele>
        <time>2012-04-14T11:39:33Z</time>
      </trkpt>
      <trkpt lat="43.17328" lon="5.84691">
        <ele>323</ele>
        <time>2012-04-14T11:39:44Z</time>
      </trkpt>
      <trkpt lat="43.1733" lon="5.847">
        <ele>323</ele>
        <time>2012-04-14T11:39:45Z</time>
      </trkpt>
      <trkpt lat="43.17465" lon="5.84731">
        <ele>308</ele>
        <time>2012-04-14T11:40:00Z</time>
      </trkpt>
      <trkpt lat="43.17479" lon="5.84748">
        <ele>307</ele>
        <time>2012-04-14T11:40:02Z</time>
      </trkpt>
      <trkpt lat="43.17485" lon="5.84822">
        <ele>312</ele>
        <time>2012-04-14T11:40:07Z</time>
      </trkpt>
      <trkpt lat="43.17503" lon="5.84869">
        <ele>307</ele>
        <time>2012-04-14T11:40:10Z</time>
      </trkpt>
      <trkpt lat="43.17575" lon="5.84978">
        <ele>307</ele>
        <time>2012-04-14T11:40:18Z</time>
      </trkpt>
      <trkpt lat="43.17654" lon="5.85068">
        <ele>302</ele>
        <time>2012-04-14T11:40:26Z</time>
      </trkpt>
      <trkpt lat="43.17679" lon="5.85077">
        <ele>297</ele>
        <time>2012-04-14T11:40:29Z</time>
      </trkpt>
      <trkpt lat="43.17697" lon="5.84952">
        <ele>283</ele>
        <time>2012-04-14T11:40:38Z</time>
      </trkpt>
      <trkpt lat="43.17717" lon="5.84937">
        <ele>280</ele>
        <time>2012-04-14T11:40:40Z</time>
      </trkpt>
      <trkpt lat="43.17764" lon="5.84936">
        <ele>271</ele>
        <time>2012-04-14T11:40:43.770Z</time>
      </trkpt>
      <trkpt lat="43.17824" lon="5.85014">
        <ele>275</ele>
        <time>2012-04-14T11:40:50Z</time>
      </trkpt>
      <trkpt lat="43.17859" lon="5.8502">
        <ele>273</ele>
        <time>2012-04-14T11:40:55Z</time>
      </trkpt>
      <trkpt lat="43.17846" lon="5.84972">
        <ele>273</ele>
        <time>2012-04-14T11:40:58Z</time>
      </trkpt>
      <trkpt lat="43.17736" lon="5.84832">
        <ele>271</ele>
        <time>2012-04-14T11:41:13Z</time>
      </trkpt>
      <trkpt lat="43.17669" lon="5.84721">
        <ele>270</ele>
        <time>2012-04-14T11:41:22Z</time>
      </trkpt>
      <trkpt lat="43.17629" lon="5.84543">
        <ele>253</ele>
        <time>2012-04-14T07:46:36Z</time>
      </trkpt>
      <trkpt lat="43.17544" lon="5.84413">
        <ele>230</ele>
        <time>2012-04-14T11:41:40Z</time>
      </trkpt>
      <trkpt lat="43.17512" lon="5.84323">
        <ele>218</ele>
        <time>2012-04-14T11:41:44.765Z</time>
      </trkpt>
      <trkpt lat="43.17499" lon="5.84256">
        <ele>209</ele>
        <time>2012-04-14T11:41:48Z</time>
      </trkpt>
      <trkpt lat="43.17503" lon="5.84182">
        <ele>218</ele>
        <time>2012-04-14T11:41:51Z</time>
      </trkpt>
      <trkpt lat="43.17473" lon="5.84116">
        <ele>210</ele>
        <time>2012-04-14T11:41:55Z</time>
      </trkpt>
      <trkpt lat="43.17453" lon="5.84092">
        <ele>208</ele>
        <time>2012-04-14T11:41:57Z</time>
      </trkpt>
      <trkpt lat="43.17384" lon="5.83933">
        <ele>191</ele>
        <time>2012-04-14T11:42:06Z</time>
      </trkpt>
      <trkpt lat="43.17379" lon="5.83879">
        <ele>186</ele>
        <time>2012-04-14T11:42:09Z</time>
      </trkpt>
      <trkpt lat="43.17282" lon="5.83677">
        <ele>179</ele>
        <time>2012-04-14T11:42:22.998Z</time>
      </trkpt>
      <trkpt lat="43.17275" lon="5.83646">
        <ele>175</ele>
        <time>2012-04-14T11:42:25Z</time>
      </trkpt>
      <trkpt lat="43.17277" lon="5.83558">
        <ele>171</ele>
        <time>2012-04-14T11:42:30Z</time>
      </trkpt>
      <trkpt lat="43.17245" lon="5.83453">
        <ele>167</ele>
        <time>2012-04-14T11:42:37Z</time>
      </trkpt>
      <trkpt lat="43.1723" lon="5.83336">
        <ele>160</ele>
        <time>2012-04-14T11:42:44.757Z</time>
      </trkpt>
      <trkpt lat="43.1723" lon="5.8327">
        <ele>157</ele>
        <time>2012-04-14T11:42:49Z</time>
      </trkpt>
      <trkpt lat="43.17239" lon="5.83256">
        <ele>156</ele>
        <time>2012-04-14T11:42:50Z</time>
      </trkpt>
      <trkpt lat="43.17243" lon="5.83151">
        <ele>149</ele>
        <time>2012-04-14T11:42:57Z</time>
      </trkpt>
      <trkpt lat="43.17236" lon="5.83137">
        <ele>149</ele>
        <time>2012-04-14T11:42:58Z</time>
      </trkpt>
      <trkpt lat="43.17224" lon="5.8301">
        <ele>148</ele>
        <time>2012-04-14T07:47:56Z</time>
      </trkpt>
      <trkpt lat="43.17411" lon="5.82882">
        <ele>153</ele>
        <time>2012-04-14T11:43:48Z</time>
      </trkpt>
      <trkpt lat="43.17522" lon="5.82792">
        <ele>154</ele>
        <time>2012-04-14T11:44:11Z</time>
      </trkpt>
      <trkpt lat="43.17957" lon="5.82491">
        <ele>165</ele>
        <time>2012-04-14T11:45:36Z</time>
      </trkpt>
      <trkpt lat="43.18559" lon="5.81916">
        <ele>183</ele>
        <time>2012-04-14T11:47:50Z</time>
      </trkpt>
      <trkpt lat="43.18852" lon="5.81608">
        <ele>178</ele>
        <time>2012-04-14T11:48:21Z</time>
      </trkpt>
      <trkpt lat="43.19056" lon="5.81338">
        <ele>176</ele>
        <time>2012-04-14T11:49:19Z</time>
      </trkpt>
      <trkpt lat="43.19112" lon="5.81279">
        <ele>174</ele>
        <time>2012-04-14T11:49:28Z</time>
      </trkpt>
      <trkpt lat="43.1916" lon="5.81274">
        <ele>173</ele>
        <time>2012-04-14T11:49:34Z</time>
      </trkpt>
      <trkpt lat="43.19174" lon="5.81247">
        <ele>173</ele>
        <time>2012-04-14T11:49:37Z</time>
      </trkpt>
      <trkpt lat="43.19176" lon="5.81183">
        <ele>174</ele>
        <time>2012-04-14T11:49:42.579Z</time>
      </trkpt>
      <trkpt lat="43.19511" lon="5.80723">
        <ele>168</ele>
        <time>2012-04-14T11:50:37Z</time>
      </trkpt>
      <trkpt lat="43.19574" lon="5.80657">
        <ele>167</ele>
        <time>2012-04-14T11:50:41Z</time>
      </trkpt>
      <trkpt lat="43.1957" lon="5.80586">
        <ele>169</ele>
        <time>2012-04-14T11:50:56Z</time>
      </trkpt>
      <trkpt lat="43.19584" lon="5.80387">
        <ele>172</ele>
        <time>2012-04-14T11:51:19Z</time>
      </trkpt>
      <trkpt lat="43.1958" lon="5.8034">
        <ele>172</ele>
        <time>2012-04-14T11:51:26Z</time>
      </trkpt>
      <trkpt lat="43.19588" lon="5.80211">
        <ele>175</ele>
        <time>2012-04-14T11:51:44.686Z</time>
      </trkpt>
      <trkpt lat="43.19601" lon="5.80155">
        <ele>177</ele>
        <time>2012-04-14T11:51:53Z</time>
      </trkpt>
      <trkpt lat="43.19587" lon="5.80144">
        <ele>177</ele>
        <time>2012-04-14T11:51:55Z</time>
      </trkpt>
      <trkpt lat="43.19592" lon="5.801">
        <ele>178</ele>
        <time>2012-04-14T11:52:01Z</time>
      </trkpt>
      <trkpt lat="43.19608" lon="5.80082">
        <ele>179</ele>
        <time>2012-04-14T11:52:04Z</time>
      </trkpt>
      <trkpt lat="43.19606" lon="5.79941">
        <ele>182</ele>
        <time>2012-04-14T11:52:23Z</time>
      </trkpt>
      <trkpt lat="43.19616" lon="5.79835">
        <ele>183</ele>
        <time>2012-04-14T11:52:38Z</time>
      </trkpt>
      <trkpt lat="43.19643" lon="5.79803">
        <ele>183</ele>
        <time>2012-04-14T11:52:44.678Z</time>
      </trkpt>
      <trkpt lat="43.19649" lon="5.79776">
        <ele>183</ele>
        <time>2012-04-14T11:52:47.671Z</time>
      </trkpt>
      <trkpt lat="43.19804" lon="5.79683">
        <ele>184</ele>
        <time>2012-04-14T11:53:21Z</time>
      </trkpt>
      <trkpt lat="43.19952" lon="5.79618">
        <ele>188</ele>
        <time>2012-04-14T11:53:50Z</time>
      </trkpt>
      <trkpt lat="43.20001" lon="5.79623">
        <ele>189</ele>
        <time>2012-04-14T11:53:59Z</time>
      </trkpt>
      <trkpt lat="43.20131" lon="5.79682">
        <ele>184</ele>
        <time>2012-04-14T11:54:18Z</time>
      </trkpt>
      <trkpt lat="43.20135" lon="5.79692">
        <ele>184</ele>
        <time>2012-04-14T11:54:19Z</time>
      </trkpt>
      <trkpt lat="43.20179" lon="5.79703">
        <ele>181</ele>
        <time>2012-04-14T11:54:24Z</time>
      </trkpt>
      <trkpt lat="43.20355" lon="5.79682">
        <ele>183</ele>
        <time>2012-04-14T11:54:44.662Z</time>
      </trkpt>
      <trkpt lat="43.20394" lon="5.79659">
        <ele>187</ele>
        <time>2012-04-14T11:54:50Z</time>
      </trkpt>
      <trkpt lat="43.20535" lon="5.79534">
        <ele>181</ele>
        <time>2012-04-14T11:55:08Z</time>
      </trkpt>
      <trkpt lat="43.20724" lon="5.7932">
        <ele>186</ele>
        <time>2012-04-14T11:55:35Z</time>
      </trkpt>
      <trkpt lat="43.20801" lon="5.79265">
        <ele>172</ele>
        <time>2012-04-14T11:55:44.653Z</time>
      </trkpt>
      <trkpt lat="43.20888" lon="5.79112">
        <ele>169</ele>
        <time>2012-04-14T11:56:00Z</time>
      </trkpt>
      <trkpt lat="43.20903" lon="5.79058">
        <ele>168</ele>
        <time>2012-04-14T11:56:04Z</time>
      </trkpt>
      <trkpt lat="43.20942" lon="5.7871">
        <ele>147</ele>
        <time>2012-04-14T11:56:25Z</time>
      </trkpt>
      <trkpt lat="43.20967" lon="5.78564">
        <ele>131</ele>
        <time>2012-04-14T11:56:33Z</time>
      </trkpt>
      <trkpt lat="43.20945" lon="5.78357">
        <ele>119</ele>
        <time>2012-04-14T11:56:43.644Z</time>
      </trkpt>
      <trkpt lat="43.21048" lon="5.78299">
        <ele>111</ele>
        <time>2012-04-14T11:56:51Z</time>
      </trkpt>
      <trkpt lat="43.21079" lon="5.78261">
        <ele>112</ele>
        <time>2012-04-14T11:56:54Z</time>
      </trkpt>
      <trkpt lat="43.211" lon="5.78046">
        <ele>118</ele>
        <time>2012-04-14T11:57:09Z</time>
      </trkpt>
      <trkpt lat="43.21122" lon="5.77943">
        <ele>117</ele>
        <time>2012-04-14T11:57:23Z</time>
      </trkpt>
      <trkpt lat="43.2116" lon="5.77891">
        <ele>115</ele>
        <time>2012-04-14T11:57:32Z</time>
      </trkpt>
      <trkpt lat="43.21171" lon="5.77891">
        <ele>119</ele>
        <time>2012-04-14T11:57:34Z</time>
      </trkpt>
      <trkpt lat="43.21218" lon="5.77779">
        <ele>116</ele>
        <time>2012-04-14T11:57:56Z</time>
      </trkpt>
      <trkpt lat="43.2127" lon="5.77759">
        <ele>119</ele>
        <time>2012-04-14T11:59:02Z</time>
      </trkpt>
      <trkpt lat="43.21322" lon="5.77696">
        <ele>119</ele>
        <time>2012-04-14T11:59:23Z</time>
      </trkpt>
      <trkpt lat="43.21419" lon="5.77643">
        <ele>122</ele>
        <time>2012-04-14T11:59:47.616Z</time>
      </trkpt>
      <trkpt lat="43.21444" lon="5.77644">
        <ele>122</ele>
        <time>2012-04-14T11:59:54Z</time>
      </trkpt>
      <trkpt lat="43.21448" lon="5.77656">
        <ele>122</ele>
        <time>2012-04-14T12:00:01Z</time>
      </trkpt>
      <trkpt lat="43.22216" lon="5.77065">
        <ele>148</ele>
        <time>2012-04-14T12:02:51Z</time>
      </trkpt>
      <trkpt lat="43.22258" lon="5.77023">
        <ele>152</ele>
        <time>2012-04-14T12:03:04Z</time>
      </trkpt>
      <trkpt lat="43.22719" lon="5.76668">
        <ele>172</ele>
        <time>2012-04-14T12:05:10Z</time>
      </trkpt>
      <trkpt lat="43.22813" lon="5.76619">
        <ele>171</ele>
        <time>2012-04-14T12:05:26Z</time>
      </trkpt>
      <trkpt lat="43.22926" lon="5.76539">
        <ele>167</ele>
        <time>2012-04-14T12:05:40Z</time>
      </trkpt>
      <trkpt lat="43.22974" lon="5.76534">
        <ele>166</ele>
        <time>2012-04-14T12:05:44.576Z</time>
      </trkpt>
      <trkpt lat="43.23084" lon="5.76558">
        <ele>172</ele>
        <time>2012-04-14T12:05:59Z</time>
      </trkpt>
      <trkpt lat="43.23183" lon="5.76562">
        <ele>178</ele>
        <time>2012-04-14T12:06:27Z</time>
      </trkpt>
      <trkpt lat="43.23358" lon="5.76589">
        <ele>195</ele>
        <time>2012-04-14T12:07:25Z</time>
      </trkpt>
      <trkpt lat="43.23372" lon="5.766">
        <ele>197</ele>
        <time>2012-04-14T12:07:32Z</time>
      </trkpt>
      <trkpt lat="43.23439" lon="5.76715">
        <ele>206</ele>
        <time>2012-04-14T12:08:17Z</time>
      </trkpt>
      <trkpt lat="43.23502" lon="5.76712">
        <ele>214</ele>
        <time>2012-04-14T12:08:48Z</time>
      </trkpt>
      <trkpt lat="43.2359" lon="5.76668">
        <ele>224</ele>
        <time>2012-04-14T12:09:27Z</time>
      </trkpt>
      <trkpt lat="43.23672" lon="5.76601">
        <ele>235</ele>
        <time>2012-04-14T12:10:09Z</time>
      </trkpt>
      <trkpt lat="43.23776" lon="5.76488">
        <ele>247</ele>
        <time>2012-04-14T12:10:54Z</time>
      </trkpt>
      <trkpt lat="43.23902" lon="5.76421">
        <ele>261</ele>
        <time>2012-04-14T12:11:41Z</time>
      </trkpt>
      <trkpt lat="43.23922" lon="5.76401">
        <ele>271</ele>
        <time>2012-04-14T12:11:49Z</time>
      </trkpt>
      <trkpt lat="43.23994" lon="5.7637">
        <ele>276</ele>
        <time>2012-04-14T12:12:21.999Z</time>
      </trkpt>
      <trkpt lat="43.24068" lon="5.76321">
        <ele>289</ele>
        <time>2012-04-14T12:12:49.509Z</time>
      </trkpt>
      <trkpt lat="43.24071" lon="5.76311">
        <ele>289</ele>
        <time>2012-04-14T12:12:51.508Z</time>
      </trkpt>
      <trkpt lat="43.24094" lon="5.7631">
        <ele>292</ele>
        <time>2012-04-14T12:12:58.508Z</time>
      </trkpt>
      <trkpt lat="43.24135" lon="5.76334">
        <ele>287</ele>
        <time>2012-04-14T12:13:14Z</time>
      </trkpt>
      <trkpt lat="43.24224" lon="5.76328">
        <ele>304</ele>
        <time>2012-04-14T12:13:48Z</time>
      </trkpt>
      <trkpt lat="43.24276" lon="5.76356">
        <ele>300</ele>
        <time>2012-04-14T12:14:09Z</time>
      </trkpt>
      <trkpt lat="43.24574" lon="5.76252">
        <ele>327</ele>
        <time>2012-04-14T12:16:06Z</time>
      </trkpt>
      <trkpt lat="43.24621" lon="5.76164">
        <ele>349</ele>
        <time>2012-04-14T12:16:32Z</time>
      </trkpt>
      <trkpt lat="43.24785" lon="5.75969">
        <ele>367</ele>
        <time>2012-04-14T12:17:34Z</time>
      </trkpt>
      <trkpt lat="43.24844" lon="5.75917">
        <ele>367</ele>
        <time>2012-04-14T12:17:57Z</time>
      </trkpt>
      <trkpt lat="43.24861" lon="5.75918">
        <ele>369</ele>
        <time>2012-04-14T12:18:04Z</time>
      </trkpt>
      <trkpt lat="43.24894" lon="5.75874">
        <ele>374</ele>
        <time>2012-04-14T12:18:15Z</time>
      </trkpt>
      <trkpt lat="43.2491" lon="5.75866">
        <ele>374</ele>
        <time>2012-04-14T12:18:21Z</time>
      </trkpt>
      <trkpt lat="43.24998" lon="5.75759">
        <ele>384</ele>
        <time>2012-04-14T12:18:55Z</time>
      </trkpt>
      <trkpt lat="43.25018" lon="5.7572">
        <ele>388</ele>
        <time>2012-04-14T12:19:07Z</time>
      </trkpt>
      <trkpt lat="43.25035" lon="5.75709">
        <ele>389</ele>
        <time>2012-04-14T12:19:14Z</time>
      </trkpt>
      <trkpt lat="43.25139" lon="5.75581">
        <ele>397</ele>
        <time>2012-04-14T12:19:55Z</time>
      </trkpt>
      <trkpt lat="43.25236" lon="5.75484">
        <ele>401</ele>
        <time>2012-04-14T12:20:28Z</time>
      </trkpt>
      <trkpt lat="43.25248" lon="5.75482">
        <ele>401</ele>
        <time>2012-04-14T12:20:31Z</time>
      </trkpt>
      <trkpt lat="43.25256" lon="5.75467">
        <ele>401</ele>
        <time>2012-04-14T12:20:34Z</time>
      </trkpt>
      <trkpt lat="43.25315" lon="5.75425">
        <ele>400</ele>
        <time>2012-04-14T08:09:51Z</time>
      </trkpt>
      <trkpt lat="43.2544" lon="5.75244">
        <ele>404</ele>
        <time>2012-04-14T12:21:21Z</time>
      </trkpt>
      <trkpt lat="43.2551" lon="5.75161">
        <ele>405</ele>
        <time>2012-04-14T12:21:38Z</time>
      </trkpt>
      <trkpt lat="43.25604" lon="5.75025">
        <ele>404</ele>
        <time>2012-04-14T12:21:59Z</time>
      </trkpt>
      <trkpt lat="43.25638" lon="5.74989">
        <ele>403</ele>
        <time>2012-04-14T12:22:07Z</time>
      </trkpt>
      <trkpt lat="43.25641" lon="5.74974">
        <ele>403</ele>
        <time>2012-04-14T12:22:08.999Z</time>
      </trkpt>
      <trkpt lat="43.2561" lon="5.74917">
        <ele>404</ele>
        <time>2012-04-14T12:22:20Z</time>
      </trkpt>
      <trkpt lat="43.25612" lon="5.74899">
        <ele>404</ele>
        <time>2012-04-14T12:22:23Z</time>
      </trkpt>
      <trkpt lat="43.2558" lon="5.74819">
        <ele>405</ele>
        <time>2012-04-14T12:22:35Z</time>
      </trkpt>
      <trkpt lat="43.25567" lon="5.74759">
        <ele>406</ele>
        <time>2012-04-14T12:22:44.442Z</time>
      </trkpt>
      <trkpt lat="43.25509" lon="5.74612">
        <ele>408</ele>
        <time>2012-04-14T12:23:09Z</time>
      </trkpt>
      <trkpt lat="43.2549" lon="5.74586">
        <ele>408</ele>
        <time>2012-04-14T12:23:13Z</time>
      </trkpt>
      <trkpt lat="43.25434" lon="5.74427">
        <ele>410</ele>
        <time>2012-04-14T12:23:35.999Z</time>
      </trkpt>
      <trkpt lat="43.25391" lon="5.74261">
        <ele>413</ele>
        <time>2012-04-14T12:24:00Z</time>
      </trkpt>
      <trkpt lat="43.25375" lon="5.7413">
        <ele>415</ele>
        <time>2012-04-14T12:24:20Z</time>
      </trkpt>
      <trkpt lat="43.25254" lon="5.73759">
        <ele>420</ele>
        <time>2012-04-14T12:25:10Z</time>
      </trkpt>
      <trkpt lat="43.25252" lon="5.73716">
        <ele>422</ele>
        <time>2012-04-14T12:25:16Z</time>
      </trkpt>
      <trkpt lat="43.25241" lon="5.73701">
        <ele>422</ele>
        <time>2012-04-14T12:25:18Z</time>
      </trkpt>
      <trkpt lat="43.25214" lon="5.73602">
        <ele>424</ele>
        <time>2012-04-14T12:25:32Z</time>
      </trkpt>
      <trkpt lat="43.25192" lon="5.73466">
        <ele>426</ele>
        <time>2012-04-14T12:25:55Z</time>
      </trkpt>
      <trkpt lat="43.25168" lon="5.73441">
        <ele>427</ele>
        <time>2012-04-14T12:26:01Z</time>
      </trkpt>
      <trkpt lat="43.2517" lon="5.73417">
        <ele>428</ele>
        <time>2012-04-14T12:26:06Z</time>
      </trkpt>
      <trkpt lat="43.25139" lon="5.73404">
        <ele>428</ele>
        <time>2012-04-14T12:26:10Z</time>
      </trkpt>
      <trkpt lat="43.25101" lon="5.73372">
        <ele>428</ele>
        <time>2012-04-14T12:26:16Z</time>
      </trkpt>
      <trkpt lat="43.25051" lon="5.73272">
        <ele>427</ele>
        <time>2012-04-14T12:26:30Z</time>
      </trkpt>
      <trkpt lat="43.25047" lon="5.73214">
        <ele>427</ele>
        <time>2012-04-14T12:26:37Z</time>
      </trkpt>
      <trkpt lat="43.2506" lon="5.73117">
        <ele>430</ele>
        <time>2012-04-14T12:26:49Z</time>
      </trkpt>
      <trkpt lat="43.25044" lon="5.73013">
        <ele>434</ele>
        <time>2012-04-14T12:27:04Z</time>
      </trkpt>
      <trkpt lat="43.25021" lon="5.72959">
        <ele>436</ele>
        <time>2012-04-14T12:27:13Z</time>
      </trkpt>
      <trkpt lat="43.25017" lon="5.72898">
        <ele>437</ele>
        <time>2012-04-14T12:27:21Z</time>
      </trkpt>
      <trkpt lat="43.24996" lon="5.72869">
        <ele>434</ele>
        <time>2012-04-14T12:27:25Z</time>
      </trkpt>
      <trkpt lat="43.24938" lon="5.72857">
        <ele>434</ele>
        <time>2012-04-14T12:27:33Z</time>
      </trkpt>
      <trkpt lat="43.24895" lon="5.72827">
        <ele>434</ele>
        <time>2012-04-14T12:27:41Z</time>
      </trkpt>
      <trkpt lat="43.24746" lon="5.72555">
        <ele>435</ele>
        <time>2012-04-14T12:28:22Z</time>
      </trkpt>
      <trkpt lat="43.24712" lon="5.72459">
        <ele>437</ele>
        <time>2012-04-14T12:28:36Z</time>
      </trkpt>
      <trkpt lat="43.24677" lon="5.7223">
        <ele>443</ele>
        <time>2012-04-14T12:29:04Z</time>
      </trkpt>
      <trkpt lat="43.24655" lon="5.722">
        <ele>441</ele>
        <time>2012-04-14T12:29:08Z</time>
      </trkpt>
      <trkpt lat="43.24606" lon="5.72184">
        <ele>440</ele>
        <time>2012-04-14T12:29:14Z</time>
      </trkpt>
      <trkpt lat="43.2458" lon="5.7215">
        <ele>439</ele>
        <time>2012-04-14T12:29:19Z</time>
      </trkpt>
      <trkpt lat="43.24556" lon="5.72086">
        <ele>439</ele>
        <time>2012-04-14T12:29:25Z</time>
      </trkpt>
      <trkpt lat="43.24419" lon="5.71905">
        <ele>441</ele>
        <time>2012-04-14T12:29:51Z</time>
      </trkpt>
      <trkpt lat="43.24383" lon="5.71646">
        <ele>445</ele>
        <time>2012-04-14T12:30:21Z</time>
      </trkpt>
      <trkpt lat="43.24311" lon="5.71479">
        <ele>438</ele>
        <time>2012-04-14T12:30:38Z</time>
      </trkpt>
      <trkpt lat="43.24286" lon="5.71401">
        <ele>437</ele>
        <time>2012-04-14T12:30:44.379Z</time>
      </trkpt>
      <trkpt lat="43.24269" lon="5.71286">
        <ele>437</ele>
        <time>2012-04-14T12:30:53Z</time>
      </trkpt>
      <trkpt lat="43.24274" lon="5.71181">
        <ele>436</ele>
        <time>2012-04-14T12:31:01Z</time>
      </trkpt>
      <trkpt lat="43.24266" lon="5.71034">
        <ele>434</ele>
        <time>2012-04-14T12:31:14Z</time>
      </trkpt>
      <trkpt lat="43.24211" lon="5.70907">
        <ele>426</ele>
        <time>2012-04-14T12:31:26Z</time>
      </trkpt>
      <trkpt lat="43.24216" lon="5.70891">
        <ele>426</ele>
        <time>2012-04-14T12:31:27Z</time>
      </trkpt>
      <trkpt lat="43.24211" lon="5.70808">
        <ele>424</ele>
        <time>2012-04-14T12:31:33Z</time>
      </trkpt>
      <trkpt lat="43.24161" lon="5.70604">
        <ele>419</ele>
        <time>2012-04-14T12:31:49Z</time>
      </trkpt>
      <trkpt lat="43.24157" lon="5.70545">
        <ele>418</ele>
        <time>2012-04-14T12:31:53Z</time>
      </trkpt>
      <trkpt lat="43.24165" lon="5.70372">
        <ele>416</ele>
        <time>2012-04-14T12:32:05Z</time>
      </trkpt>
      <trkpt lat="43.24156" lon="5.7028">
        <ele>415</ele>
        <time>2012-04-14T12:32:11Z</time>
      </trkpt>
      <trkpt lat="43.24156" lon="5.70049">
        <ele>416</ele>
        <time>2012-04-14T12:32:36Z</time>
      </trkpt>
      <trkpt lat="43.2413" lon="5.69953">
        <ele>416</ele>
        <time>2012-04-14T12:32:49Z</time>
      </trkpt>
      <trkpt lat="43.24109" lon="5.69787">
        <ele>419</ele>
        <time>2012-04-14T12:33:10Z</time>
      </trkpt>
      <trkpt lat="43.2412" lon="5.6966">
        <ele>424</ele>
        <time>2012-04-14T12:33:26Z</time>
      </trkpt>
      <trkpt lat="43.24116" lon="5.69588">
        <ele>425</ele>
        <time>2012-04-14T12:33:36Z</time>
      </trkpt>
      <trkpt lat="43.24126" lon="5.6952">
        <ele>427</ele>
        <time>2012-04-14T12:33:46Z</time>
      </trkpt>
      <trkpt lat="43.24127" lon="5.69437">
        <ele>428</ele>
        <time>2012-04-14T12:33:59Z</time>
      </trkpt>
      <trkpt lat="43.24119" lon="5.69392">
        <ele>429</ele>
        <time>2012-04-14T12:34:05.999Z</time>
      </trkpt>
      <trkpt lat="43.2406" lon="5.69226">
        <ele>425</ele>
        <time>2012-04-14T12:34:10Z</time>
      </trkpt>
      <trkpt lat="43.24041" lon="5.69091">
        <ele>423</ele>
        <time>2012-04-14T12:34:46Z</time>
      </trkpt>
      <trkpt lat="43.24009" lon="5.68952">
        <ele>418</ele>
        <time>2012-04-14T12:35:01Z</time>
      </trkpt>
      <trkpt lat="43.24007" lon="5.68894">
        <ele>418</ele>
        <time>2012-04-14T12:35:07Z</time>
      </trkpt>
      <trkpt lat="43.23994" lon="5.68868">
        <ele>419</ele>
        <time>2012-04-14T12:35:11Z</time>
      </trkpt>
      <trkpt lat="43.2399" lon="5.6883">
        <ele>419</ele>
        <time>2012-04-14T12:35:15Z</time>
      </trkpt>
      <trkpt lat="43.23957" lon="5.68772">
        <ele>419</ele>
        <time>2012-04-14T12:35:22Z</time>
      </trkpt>
      <trkpt lat="43.23925" lon="5.68749">
        <ele>419</ele>
        <time>2012-04-14T12:35:27Z</time>
      </trkpt>
      <trkpt lat="43.23864" lon="5.68646">
        <ele>416</ele>
        <time>2012-04-14T12:35:39Z</time>
      </trkpt>
      <trkpt lat="43.23787" lon="5.68413">
        <ele>411</ele>
        <time>2012-04-14T12:35:58Z</time>
      </trkpt>
      <trkpt lat="43.23764" lon="5.68308">
        <ele>411</ele>
        <time>2012-04-14T12:36:06Z</time>
      </trkpt>
      <trkpt lat="43.23725" lon="5.68189">
        <ele>407</ele>
        <time>2012-04-14T12:36:16Z</time>
      </trkpt>
      <trkpt lat="43.23621" lon="5.6796">
        <ele>406</ele>
        <time>2012-04-14T12:36:37Z</time>
      </trkpt>
      <trkpt lat="43.23572" lon="5.67762">
        <ele>407</ele>
        <time>2012-04-14T12:36:58Z</time>
      </trkpt>
      <trkpt lat="43.23566" lon="5.67619">
        <ele>406</ele>
        <time>2012-04-14T12:37:11Z</time>
      </trkpt>
      <trkpt lat="43.235" lon="5.67261">
        <ele>400</ele>
        <time>2012-04-14T12:37:42Z</time>
      </trkpt>
      <trkpt lat="43.23456" lon="5.67172">
        <ele>399</ele>
        <time>2012-04-14T12:37:50Z</time>
      </trkpt>
      <trkpt lat="43.23412" lon="5.66984">
        <ele>400</ele>
        <time>2012-04-14T12:38:05Z</time>
      </trkpt>
      <trkpt lat="43.23421" lon="5.66802">
        <ele>396</ele>
        <time>2012-04-14T12:38:18Z</time>
      </trkpt>
      <trkpt lat="43.23404" lon="5.66746">
        <ele>391</ele>
        <time>2012-04-14T12:38:22Z</time>
      </trkpt>
      <trkpt lat="43.23403" lon="5.66641">
        <ele>385</ele>
        <time>2012-04-14T12:38:29Z</time>
      </trkpt>
      <trkpt lat="43.23353" lon="5.6657">
        <ele>385</ele>
        <time>2012-04-14T12:38:35Z</time>
      </trkpt>
      <trkpt lat="43.23357" lon="5.66551">
        <ele>384</ele>
        <time>2012-04-14T12:38:36Z</time>
      </trkpt>
      <trkpt lat="43.23347" lon="5.6649">
        <ele>383</ele>
        <time>2012-04-14T12:38:40Z</time>
      </trkpt>
      <trkpt lat="43.23367" lon="5.6638">
        <ele>376</ele>
        <time>2012-04-14T12:38:48Z</time>
      </trkpt>
      <trkpt lat="43.23362" lon="5.66337">
        <ele>375</ele>
        <time>2012-04-14T12:38:51Z</time>
      </trkpt>
      <trkpt lat="43.23332" lon="5.66259">
        <ele>366</ele>
        <time>2012-04-14T12:38:57Z</time>
      </trkpt>
      <trkpt lat="43.23312" lon="5.66234">
        <ele>364</ele>
        <time>2012-04-14T12:38:59.998Z</time>
      </trkpt>
      <trkpt lat="43.23313" lon="5.66224">
        <ele>364</ele>
        <time>2012-04-14T12:39:00.999Z</time>
      </trkpt>
      <trkpt lat="43.23277" lon="5.66212">
        <ele>364</ele>
        <time>2012-04-14T12:39:04Z</time>
      </trkpt>
      <trkpt lat="43.23248" lon="5.6609">
        <ele>357</ele>
        <time>2012-04-14T12:39:12Z</time>
      </trkpt>
      <trkpt lat="43.2317" lon="5.65975">
        <ele>350</ele>
        <time>2012-04-14T12:39:22Z</time>
      </trkpt>
      <trkpt lat="43.23182" lon="5.65966">
        <ele>350</ele>
        <time>2012-04-14T12:39:23Z</time>
      </trkpt>
      <trkpt lat="43.23208" lon="5.65903">
        <ele>347</ele>
        <time>2012-04-14T12:39:28Z</time>
      </trkpt>
      <trkpt lat="43.23218" lon="5.65852">
        <ele>346</ele>
        <time>2012-04-14T12:39:31Z</time>
      </trkpt>
      <trkpt lat="43.23181" lon="5.65714">
        <ele>333</ele>
        <time>2012-04-14T12:39:40Z</time>
      </trkpt>
      <trkpt lat="43.23135" lon="5.65684">
        <ele>328</ele>
        <time>2012-04-14T12:39:44Z</time>
      </trkpt>
      <trkpt lat="43.23086" lon="5.65743">
        <ele>330</ele>
        <time>2012-04-14T12:39:49Z</time>
      </trkpt>
      <trkpt lat="43.2309" lon="5.65837">
        <ele>335</ele>
        <time>2012-04-14T12:39:55Z</time>
      </trkpt>
      <trkpt lat="43.23085" lon="5.65852">
        <ele>337</ele>
        <time>2012-04-14T08:22:02Z</time>
      </trkpt>
      <trkpt lat="43.23067" lon="5.65814">
        <ele>328</ele>
        <time>2012-04-14T12:40:01Z</time>
      </trkpt>
      <trkpt lat="43.23016" lon="5.65849">
        <ele>326</ele>
        <time>2012-04-14T12:40:06Z</time>
      </trkpt>
      <trkpt lat="43.22994" lon="5.65838">
        <ele>322</ele>
        <time>2012-04-14T08:26:17Z</time>
      </trkpt>
      <trkpt lat="43.23019" lon="5.65793">
        <ele>323</ele>
        <time>2012-04-14T12:40:12Z</time>
      </trkpt>
      <trkpt lat="43.23058" lon="5.65651">
        <ele>318</ele>
        <time>2012-04-14T12:40:21Z</time>
      </trkpt>
      <trkpt lat="43.23041" lon="5.65463">
        <ele>305</ele>
        <time>2012-04-14T12:40:31Z</time>
      </trkpt>
      <trkpt lat="43.23068" lon="5.65272">
        <ele>298</ele>
        <time>2012-04-14T12:40:42Z</time>
      </trkpt>
      <trkpt lat="43.23061" lon="5.65264">
        <ele>298</ele>
        <time>2012-04-14T12:40:43Z</time>
      </trkpt>
      <trkpt lat="43.23002" lon="5.65305">
        <ele>295</ele>
        <time>2012-04-14T12:40:47Z</time>
      </trkpt>
      <trkpt lat="43.22997" lon="5.65358">
        <ele>294</ele>
        <time>2012-04-14T12:40:53Z</time>
      </trkpt>
      <trkpt lat="43.22985" lon="5.65225">
        <ele>287</ele>
        <time>2012-04-14T12:41:02Z</time>
      </trkpt>
      <trkpt lat="43.2296" lon="5.65101">
        <ele>277</ele>
        <time>2012-04-14T12:41:09Z</time>
      </trkpt>
      <trkpt lat="43.22891" lon="5.64986">
        <ele>262</ele>
        <time>2012-04-14T12:41:17Z</time>
      </trkpt>
      <trkpt lat="43.22864" lon="5.64908">
        <ele>256</ele>
        <time>2012-04-14T12:41:21Z</time>
      </trkpt>
      <trkpt lat="43.2284" lon="5.64895">
        <ele>255</ele>
        <time>2012-04-14T12:41:22Z</time>
      </trkpt>
      <trkpt lat="43.22819" lon="5.64803">
        <ele>245</ele>
        <time>2012-04-14T12:41:26Z</time>
      </trkpt>
      <trkpt lat="43.22805" lon="5.64787">
        <ele>243</ele>
        <time>2012-04-14T12:41:27Z</time>
      </trkpt>
      <trkpt lat="43.22788" lon="5.64722">
        <ele>241</ele>
        <time>2012-04-14T12:41:31Z</time>
      </trkpt>
      <trkpt lat="43.22774" lon="5.64704">
        <ele>240</ele>
        <time>2012-04-14T12:41:34Z</time>
      </trkpt>
      <trkpt lat="43.22742" lon="5.64721">
        <ele>233</ele>
        <time>2012-04-14T12:41:36Z</time>
      </trkpt>
      <trkpt lat="43.22788" lon="5.64863">
        <ele>246</ele>
        <time>2012-04-14T12:41:46Z</time>
      </trkpt>
      <trkpt lat="43.22781" lon="5.64901">
        <ele>246</ele>
        <time>2012-04-14T12:41:49Z</time>
      </trkpt>
      <trkpt lat="43.22771" lon="5.64909">
        <ele>246</ele>
        <time>2012-04-14T12:41:51Z</time>
      </trkpt>
      <trkpt lat="43.22738" lon="5.64822">
        <ele>234</ele>
        <time>2012-04-14T12:41:57Z</time>
      </trkpt>
      <trkpt lat="43.22711" lon="5.64793">
        <ele>231</ele>
        <time>2012-04-14T12:42:00Z</time>
      </trkpt>
      <trkpt lat="43.22663" lon="5.64764">
        <ele>220</ele>
        <time>2012-04-14T12:42:04Z</time>
      </trkpt>
      <trkpt lat="43.22623" lon="5.6477">
        <ele>219</ele>
        <time>2012-04-14T12:42:06Z</time>
      </trkpt>
      <trkpt lat="43.22606" lon="5.6479">
        <ele>219</ele>
        <time>2012-04-14T12:42:08Z</time>
      </trkpt>
      <trkpt lat="43.22592" lon="5.64854">
        <ele>225</ele>
        <time>2012-04-14T12:42:12Z</time>
      </trkpt>
      <trkpt lat="43.22578" lon="5.64852">
        <ele>222</ele>
        <time>2012-04-14T12:42:14Z</time>
      </trkpt>
      <trkpt lat="43.22568" lon="5.64825">
        <ele>218</ele>
        <time>2012-04-14T12:42:15Z</time>
      </trkpt>
      <trkpt lat="43.22539" lon="5.64803">
        <ele>216</ele>
        <time>2012-04-14T12:42:18Z</time>
      </trkpt>
      <trkpt lat="43.22518" lon="5.64807">
        <ele>215</ele>
        <time>2012-04-14T12:42:20Z</time>
      </trkpt>
      <trkpt lat="43.22496" lon="5.64833">
        <ele>215</ele>
        <time>2012-04-14T12:42:23Z</time>
      </trkpt>
      <trkpt lat="43.2251" lon="5.64864">
        <ele>220</ele>
        <time>2012-04-14T12:42:24Z</time>
      </trkpt>
      <trkpt lat="43.2251" lon="5.64942">
        <ele>225</ele>
        <time>2012-04-14T12:42:30Z</time>
      </trkpt>
      <trkpt lat="43.22489" lon="5.64978">
        <ele>223</ele>
        <time>2012-04-14T12:42:35Z</time>
      </trkpt>
      <trkpt lat="43.22304" lon="5.64888">
        <ele>215</ele>
        <time>2012-04-14T12:43:01Z</time>
      </trkpt>
      <trkpt lat="43.22278" lon="5.64865">
        <ele>215</ele>
        <time>2012-04-14T12:43:04Z</time>
      </trkpt>
      <trkpt lat="43.2223" lon="5.64773">
        <ele>209</ele>
        <time>2012-04-14T12:43:12Z</time>
      </trkpt>
      <trkpt lat="43.22206" lon="5.64702">
        <ele>202</ele>
        <time>2012-04-14T12:43:17Z</time>
      </trkpt>
      <trkpt lat="43.22176" lon="5.64561">
        <ele>189</ele>
        <time>2012-04-14T12:43:26Z</time>
      </trkpt>
      <trkpt lat="43.22121" lon="5.64443">
        <ele>184</ele>
        <time>2012-04-14T12:43:34Z</time>
      </trkpt>
      <trkpt lat="43.22105" lon="5.64431">
        <ele>183</ele>
        <time>2012-04-14T12:43:35Z</time>
      </trkpt>
      <trkpt lat="43.22075" lon="5.64374">
        <ele>181</ele>
        <time>2012-04-14T12:43:39Z</time>
      </trkpt>
      <trkpt lat="43.22053" lon="5.64235">
        <ele>169</ele>
        <time>2012-04-14T12:43:47Z</time>
      </trkpt>
      <trkpt lat="43.21999" lon="5.64157">
        <ele>164</ele>
        <time>2012-04-14T12:43:53Z</time>
      </trkpt>
      <trkpt lat="43.21953" lon="5.64056">
        <ele>157</ele>
        <time>2012-04-14T12:43:59Z</time>
      </trkpt>
      <trkpt lat="43.21945" lon="5.64022">
        <ele>155</ele>
        <time>2012-04-14T12:44:01Z</time>
      </trkpt>
      <trkpt lat="43.21874" lon="5.63979">
        <ele>149</ele>
        <time>2012-04-14T12:44:07Z</time>
      </trkpt>
      <trkpt lat="43.21841" lon="5.6388">
        <ele>141</ele>
        <time>2012-04-14T12:44:13Z</time>
      </trkpt>
      <trkpt lat="43.2181" lon="5.63845">
        <ele>140</ele>
        <time>2012-04-14T12:44:16Z</time>
      </trkpt>
      <trkpt lat="43.21804" lon="5.63812">
        <ele>136</ele>
        <time>2012-04-14T12:44:18Z</time>
      </trkpt>
      <trkpt lat="43.21832" lon="5.63711">
        <ele>130</ele>
        <time>2012-04-14T12:44:24Z</time>
      </trkpt>
      <trkpt lat="43.21822" lon="5.63549">
        <ele>115</ele>
        <time>2012-04-14T12:44:33Z</time>
      </trkpt>
      <trkpt lat="43.21802" lon="5.6351">
        <ele>113</ele>
        <time>2012-04-14T12:44:36Z</time>
      </trkpt>
      <trkpt lat="43.21709" lon="5.63494">
        <ele>108</ele>
        <time>2012-04-14T12:44:44Z</time>
      </trkpt>
      <trkpt lat="43.21676" lon="5.63452">
        <ele>106</ele>
        <time>2012-04-14T12:44:48Z</time>
      </trkpt>
      <trkpt lat="43.21605" lon="5.63316">
        <ele>95</ele>
        <time>2012-04-14T12:44:59Z</time>
      </trkpt>
      <trkpt lat="43.21574" lon="5.63276">
        <ele>91</ele>
        <time>2012-04-14T12:45:03Z</time>
      </trkpt>
      <trkpt lat="43.21489" lon="5.63224">
        <ele>84</ele>
        <time>2012-04-14T12:45:11Z</time>
      </trkpt>
      <trkpt lat="43.21397" lon="5.63076">
        <ele>75</ele>
        <time>2012-04-14T12:45:24Z</time>
      </trkpt>
      <trkpt lat="43.21375" lon="5.63066">
        <ele>75</ele>
        <time>2012-04-14T12:45:25Z</time>
      </trkpt>
      <trkpt lat="43.21326" lon="5.62989">
        <ele>74</ele>
        <time>2012-04-14T12:45:31Z</time>
      </trkpt>
      <trkpt lat="43.21284" lon="5.62952">
        <ele>75</ele>
        <time>2012-04-14T08:26:16Z</time>
      </trkpt>
      <trkpt lat="43.2112" lon="5.62879">
        <ele>71</ele>
        <time>2012-04-14T12:45:55Z</time>
      </trkpt>
      <trkpt lat="43.21018" lon="5.62875">
        <ele>69</ele>
        <time>2012-04-14T12:46:05Z</time>
      </trkpt>
      <trkpt lat="43.20947" lon="5.62843">
        <ele>67</ele>
        <time>2012-04-14T12:46:15Z</time>
      </trkpt>
      <trkpt lat="43.20936" lon="5.6285">
        <ele>67</ele>
        <time>2012-04-14T12:46:17Z</time>
      </trkpt>
      <trkpt lat="43.20928" lon="5.6288">
        <ele>67</ele>
        <time>2012-04-14T12:46:20Z</time>
      </trkpt>
      <trkpt lat="43.20774" lon="5.63077">
        <ele>67</ele>
        <time>2012-04-14T12:46:47Z</time>
      </trkpt>
      <trkpt lat="43.20654" lon="5.63165">
        <ele>65</ele>
        <time>2012-04-14T12:47:03Z</time>
      </trkpt>
      <trkpt lat="43.20539" lon="5.63218">
        <ele>74</ele>
        <time>2012-04-14T12:47:31Z</time>
      </trkpt>
      <trkpt lat="43.20522" lon="5.63237">
        <ele>77</ele>
        <time>2012-04-14T12:47:39Z</time>
      </trkpt>
      <trkpt lat="43.2051" lon="5.63233">
        <ele>77</ele>
        <time>2012-04-14T12:47:42Z</time>
      </trkpt>
      <trkpt lat="43.20435" lon="5.63262">
        <ele>87</ele>
        <time>2012-04-14T12:48:10Z</time>
      </trkpt>
      <trkpt lat="43.2036" lon="5.63274">
        <ele>85</ele>
        <time>2012-04-14T12:48:32Z</time>
      </trkpt>
      <trkpt lat="43.20302" lon="5.63304">
        <ele>84</ele>
        <time>2012-04-14T12:48:41Z</time>
      </trkpt>
      <trkpt lat="43.20254" lon="5.63242">
        <ele>79</ele>
        <time>2012-04-14T12:48:48Z</time>
      </trkpt>
      <trkpt lat="43.20164" lon="5.63304">
        <ele>73</ele>
        <time>2012-04-14T12:48:56Z</time>
      </trkpt>
      <trkpt lat="43.20096" lon="5.63338">
        <ele>72</ele>
        <time>2012-04-14T12:49:02Z</time>
      </trkpt>
      <trkpt lat="43.19995" lon="5.63306">
        <ele>63</ele>
        <time>2012-04-14T12:49:11Z</time>
      </trkpt>
      <trkpt lat="43.19948" lon="5.63308">
        <ele>63</ele>
        <time>2012-04-14T12:49:15Z</time>
      </trkpt>
      <trkpt lat="43.19855" lon="5.63343">
        <ele>66</ele>
        <time>2012-04-14T12:49:23.999Z</time>
      </trkpt>
      <trkpt lat="43.19824" lon="5.6333">
        <ele>58</ele>
        <time>2012-04-14T12:49:27.999Z</time>
      </trkpt>
      <trkpt lat="43.19828" lon="5.63311">
        <ele>56</ele>
        <time>2012-04-14T12:49:29Z</time>
      </trkpt>
      <trkpt lat="43.19817" lon="5.63282">
        <ele>54</ele>
        <time>2012-04-14T12:49:33Z</time>
      </trkpt>
      <trkpt lat="43.19778" lon="5.63293">
        <ele>52</ele>
        <time>2012-04-14T12:49:41Z</time>
      </trkpt>
      <trkpt lat="43.19731" lon="5.63335">
        <ele>53</ele>
        <time>2012-04-14T12:49:48Z</time>
      </trkpt>
      <trkpt lat="43.19644" lon="5.63336">
        <ele>48</ele>
        <time>2012-04-14T12:49:58Z</time>
      </trkpt>
      <trkpt lat="43.19504" lon="5.63407">
        <ele>44</ele>
        <time>2012-04-14T12:50:12.998Z</time>
      </trkpt>
      <trkpt lat="43.19448" lon="5.63465">
        <ele>46</ele>
        <time>2012-04-14T08:30:51Z</time>
      </trkpt>
      <trkpt lat="43.19361" lon="5.63435">
        <ele>40</ele>
        <time>2012-04-14T12:50:31.999Z</time>
      </trkpt>
      <trkpt lat="43.19302" lon="5.63452">
        <ele>39</ele>
        <time>2012-04-14T12:50:37Z</time>
      </trkpt>
      <trkpt lat="43.19251" lon="5.63487">
        <ele>38</ele>
        <time>2012-04-14T12:50:45Z</time>
      </trkpt>
      <trkpt lat="43.19246" lon="5.63472">
        <ele>36</ele>
        <time>2012-04-14T12:50:47Z</time>
      </trkpt>
      <trkpt lat="43.19255" lon="5.63446">
        <ele>38</ele>
        <time>2012-04-14T12:50:51Z</time>
      </trkpt>
      <trkpt lat="43.19266" lon="5.63441">
        <ele>38</ele>
        <time>2012-04-14T08:54:58Z</time>
      </trkpt>
      <trkpt lat="43.19276" lon="5.63476">
        <ele>38</ele>
        <time>2012-04-14T12:50:57Z</time>
      </trkpt>
      <trkpt lat="43.19286" lon="5.63476">
        <ele>39</ele>
        <time>2012-04-14T12:51:05Z</time>
      </trkpt>
    </trkseg>
  </trk>
</gpx>